MYDAX CHILLER For Sector 8 Monochromators  S/N 120-0453             

Key: (Temperatures in Centigrade) 
A) System is ON or OFF
B) Actual Tank Temperature as sensed by the Output RTD                   
C) Set point Temperature 
D) Calculated temperature of the refrigerant line at the suction pressure transducer
E) Pressure in PSIg of the refrigerant line at the suction pressure transducer
F & G) Temperature in the refrigerant line at the Superheat and Condenser RTDs
H) Temperature in the refrigerant line at the Discharge RTD (2-stage design only)
I) Temperature in the refrigerant line at the Subcooler RTD (inactive)
J) Valve drives of evaporator 

----------- DATE ----------: A    B     C     D     E    F    G    H   I J

 last update: Fri Nov 17 13:07:44 PST 2017
Fri Nov 17 13:07:18 PST 2017 ON: 20.02 +20.0 19.70 - 4.8 33.0 0D 13 471C 0905 Alarm State:  0
Fri Nov 17 13:06:16 PST 2017 ON: 20.00 +20.0 19.58 - 2.4 34.1 01 14 4808 090E Alarm State:  0
Fri Nov 17 13:05:15 PST 2017 ON: 20.00 +20.0 19.67 - 4.6 33.2 05 14 4724 0A0F Alarm State:  0
Fri Nov 17 13:04:13 PST 2017 ON: 19.99 +20.0 19.59 - 2.1 34.3 07 14 482C 0910 Alarm State:  0
Fri Nov 17 13:03:12 PST 2017 ON: 20.01 +20.0 19.66 - 4.3 33.5 07 14 4810 090D Alarm State:  0
Fri Nov 17 13:02:10 PST 2017 ON: 20.04 +20.0 19.64 - 3.6 33.4 05 14 4829 0918 Alarm State:  0
Fri Nov 17 13:01:09 PST 2017 ON: 20.00 +20.0 19.63 - 3.1 34.2 00 14 482B 0928 Alarm State:  0
Fri Nov 17 13:00:07 PST 2017 ON: 20.01 +20.0 19.67 - 4.6 33.1 0A 14 481E 0924 Alarm State:  0
Fri Nov 17 12:59:06 PST 2017 ON: 19.99 +20.0 19.57 - 2.1 34.2 09 14 491A 0903 Alarm State:  0
Fri Nov 17 12:58:04 PST 2017 ON: 20.02 +20.0 19.66 - 4.1 33.5 05 14 482B 090A Alarm State:  0
Fri Nov 17 12:57:03 PST 2017 ON: 20.02 +20.0 19.65 - 4.1 33.1 05 14 482A 0906 Alarm State:  0
Fri Nov 17 12:56:01 PST 2017 ON: 20.02 +20.0 19.63 - 2.9 34.2 07 14 4824 0926 Alarm State:  0
Fri Nov 17 12:55:00 PST 2017 ON: 20.00 +20.0 19.66 - 4.1 33.4 05 14 4807 092C Alarm State:  0
Fri Nov 17 12:53:58 PST 2017 ON: 20.03 +20.0 19.67 - 3.4 33.6 05 14 481B 0905 Alarm State:  0
Fri Nov 17 12:52:47 PST 2017 ON: 20.01 +20.0 19.61 - 2.9 33.9 05 14 480A 0911 Alarm State:  0
Fri Nov 17 12:51:46 PST 2017 ON: 19.97 +20.0 19.64 - 4.0 33.3 05 14 472D 0A06 Alarm State:  0
Fri Nov 17 12:50:44 PST 2017 ON: 19.99 +20.0 19.62 - 2.7 33.8 00 14 4831 0909 Alarm State:  0
Fri Nov 17 12:49:43 PST 2017 ON: 20.01 +20.0 19.64 - 2.9 34.0 07 14 4813 090C Alarm State:  0
Fri Nov 17 12:48:41 PST 2017 ON: 19.98 +20.0 19.65 - 3.9 33.4 00 14 4731 0A08 Alarm State:  0
Fri Nov 17 12:47:40 PST 2017 ON: 20.02 +20.0 19.62 - 2.8 33.7 00 14 482C 0926 Alarm State:  0
Fri Nov 17 12:46:38 PST 2017 ON: 19.99 +20.0 19.63 - 3.1 34.0 00 14 4809 0911 Alarm State:  0
Fri Nov 17 12:45:37 PST 2017 ON: 20.01 +20.0 19.66 - 4.2 33.6 0C 14 4712 0924 Alarm State:  0
Fri Nov 17 12:44:35 PST 2017 ON: 19.99 +20.0 19.61 - 2.5 34.0 00 14 4800 0921 Alarm State:  0
Fri Nov 17 12:43:34 PST 2017 ON: 19.98 +20.0 19.65 - 4.1 33.4 05 14 4713 0A24 Alarm State:  0
Fri Nov 17 12:42:32 PST 2017 ON: 20.00 +20.0 19.59 - 2.5 33.9 00 14 4811 0A07 Alarm State:  0
Fri Nov 17 12:41:31 PST 2017 ON: 19.97 +20.0 19.64 - 3.9 33.5 00 14 481B 0A15 Alarm State:  0
Fri Nov 17 12:40:29 PST 2017 ON: 20.01 +20.0 19.57 - 2.1 34.0 00 14 4923 0912 Alarm State:  0
Fri Nov 17 12:39:28 PST 2017 ON: 19.99 +20.0 19.66 - 3.5 34.0 00 14 490D 0919 Alarm State:  0
Fri Nov 17 12:38:26 PST 2017 ON: 20.03 +20.0 19.70 - 4.8 33.0 0D 13 481D 0923 Alarm State:  0
Fri Nov 17 12:37:25 PST 2017 ON: 20.00 +20.0 19.64 - 3.1 33.8 02 14 4823 091A Alarm State:  0
Fri Nov 17 12:36:23 PST 2017 ON: 20.00 +20.0 19.65 - 3.1 34.1 00 14 4818 091C Alarm State:  0
Fri Nov 17 12:35:22 PST 2017 ON: 19.99 +20.0 19.71 - 5.2 32.9 0D 13 4727 0927 Alarm State:  0
Fri Nov 17 12:34:20 PST 2017 ON: 19.98 +20.0 19.60 - 2.7 34.2 02 14 4811 0926 Alarm State:  0
Fri Nov 17 12:33:19 PST 2017 ON: 19.98 +20.0 19.68 - 5.0 33.0 02 14 4720 0A04 Alarm State:  0
Fri Nov 17 12:32:17 PST 2017 ON: 19.99 +20.0 19.62 - 2.6 34.3 07 14 4818 0929 Alarm State:  0
Fri Nov 17 12:31:16 PST 2017 ON: 19.99 +20.0 19.69 - 4.6 33.2 0A 14 472F 092C Alarm State:  0
Fri Nov 17 12:30:14 PST 2017 ON: 19.99 +20.0 19.59 - 2.2 34.2 01 14 482B 0919 Alarm State:  0
Fri Nov 17 12:29:13 PST 2017 ON: 20.00 +20.0 19.63 - 3.5 34.0 05 14 480B 0920 Alarm State:  0
Fri Nov 17 12:28:11 PST 2017 ON: 19.99 +20.0 19.67 - 4.4 33.3 00 14 471F 0924 Alarm State:  0
Fri Nov 17 12:27:10 PST 2017 ON: 20.01 +20.0 19.60 - 2.2 34.0 02 14 481A 090A Alarm State:  0
Fri Nov 17 12:26:08 PST 2017 ON: 19.99 +20.0 19.63 - 3.7 33.8 05 14 4803 090C Alarm State:  0
Fri Nov 17 12:25:07 PST 2017 ON: 20.00 +20.0 19.70 - 4.9 33.0 0A 13 480A 091D Alarm State:  0
Fri Nov 17 12:24:05 PST 2017 ON: 19.99 +20.0 19.58 - 2.4 34.3 0C 14 4830 090F Alarm State:  0
Fri Nov 17 12:23:04 PST 2017 ON: 20.01 +20.0 19.67 - 3.9 33.8 05 14 480B 0915 Alarm State:  0
Fri Nov 17 12:22:02 PST 2017 ON: 20.04 +20.0 19.72 - 5.2 32.8 0D 12 471A 0926 Alarm State:  0
Fri Nov 17 12:21:01 PST 2017 ON: 20.00 +20.0 19.62 - 2.8 34.2 0C 14 471B 091A Alarm State:  0
Fri Nov 17 12:19:59 PST 2017 ON: 20.03 +20.0 19.70 - 4.6 33.3 0D 13 462C 0927 Alarm State:  0
Fri Nov 17 12:18:58 PST 2017 ON: 20.01 +20.0 19.61 - 2.4 34.0 00 14 4720 0927 Alarm State:  0
Fri Nov 17 12:17:56 PST 2017 ON: 19.99 +20.0 19.66 - 4.2 33.4 0C 14 470E 0A1C Alarm State:  0
Fri Nov 17 12:16:55 PST 2017 ON: 20.01 +20.0 19.60 - 2.2 34.2 05 14 4818 0926 Alarm State:  0
Fri Nov 17 12:15:53 PST 2017 ON: 19.99 +20.0 19.66 - 3.9 33.5 00 14 4808 0923 Alarm State:  0
Fri Nov 17 12:14:52 PST 2017 ON: 20.04 +20.0 19.64 - 3.7 33.3 00 14 481B 0926 Alarm State:  0
Fri Nov 17 12:13:50 PST 2017 ON: 19.99 +20.0 19.63 - 2.9 34.0 02 14 472E 0906 Alarm State:  0
Fri Nov 17 12:12:49 PST 2017 ON: 20.00 +20.0 19.64 - 3.9 33.5 02 14 4711 0904 Alarm State:  0
Fri Nov 17 12:11:47 PST 2017 ON: 20.00 +20.0 19.62 - 3.2 33.6 00 14 472D 090A Alarm State:  0
Fri Nov 17 12:10:46 PST 2017 ON: 20.00 +20.0 19.63 - 3.1 33.8 00 14 4714 0912 Alarm State:  0
Fri Nov 17 12:09:44 PST 2017 ON: 19.97 +20.0 19.64 - 4.2 33.4 00 14 4708 0A0D Alarm State:  0
Fri Nov 17 12:08:43 PST 2017 ON: 19.97 +20.0 19.55 - 2.0 34.2 01 14 4812 0906 Alarm State:  0
Fri Nov 17 12:07:41 PST 2017 ON: 19.98 +20.0 19.66 - 4.0 33.6 05 14 4810 0A01 Alarm State:  0
Fri Nov 17 12:06:40 PST 2017 ON: 20.00 +20.0 19.66 - 4.0 33.2 00 14 4831 090B Alarm State:  0
Fri Nov 17 12:05:38 PST 2017 ON: 20.01 +20.0 19.64 - 3.3 33.6 00 14 482D 0908 Alarm State:  0
Fri Nov 17 12:04:37 PST 2017 ON: 19.98 +20.0 19.65 - 3.4 34.1 05 14 4824 092D Alarm State:  0
Fri Nov 17 12:03:35 PST 2017 ON: 20.01 +20.0 19.68 - 4.5 33.2 0D 14 480E 0926 Alarm State:  0
Fri Nov 17 12:02:34 PST 2017 ON: 20.00 +20.0 19.58 - 2.6 34.0 07 14 4819 0918 Alarm State:  0
Fri Nov 17 12:01:32 PST 2017 ON: 20.02 +20.0 19.67 - 4.1 33.5 00 14 4722 0925 Alarm State:  0
Fri Nov 17 12:00:31 PST 2017 ON: 20.04 +20.0 19.67 - 3.8 33.3 00 14 4731 0907 Alarm State:  0
Fri Nov 17 11:59:29 PST 2017 ON: 19.99 +20.0 19.63 - 3.6 34.0 00 14 471F 0906 Alarm State:  0
Fri Nov 17 11:58:28 PST 2017 ON: 20.03 +20.0 19.72 - 5.5 32.4 0A 13 4710 0A00 Alarm State:  0
Fri Nov 17 11:57:26 PST 2017 ON: 19.96 +20.0 19.60 - 2.9 34.2 00 14 4801 091C Alarm State:  0
Fri Nov 17 11:56:25 PST 2017 ON: 20.00 +20.0 19.68 - 4.4 33.4 0D 14 480E 0925 Alarm State:  0
Fri Nov 17 11:55:23 PST 2017 ON: 20.00 +20.0 19.60 - 2.6 33.9 00 14 482E 0923 Alarm State:  0
Fri Nov 17 11:54:22 PST 2017 ON: 19.99 +20.0 19.67 - 4.0 33.3 02 14 4811 0908 Alarm State:  0
Fri Nov 17 11:53:20 PST 2017 ON: 20.03 +20.0 19.68 - 4.0 33.3 0D 14 481D 0918 Alarm State:  0
Fri Nov 17 11:52:19 PST 2017 ON: 20.01 +20.0 19.62 - 3.2 34.1 07 14 480A 0914 Alarm State:  0
Fri Nov 17 11:51:17 PST 2017 ON: 20.02 +20.0 19.68 - 4.2 33.5 0C 14 471D 091B Alarm State:  0
Fri Nov 17 11:50:16 PST 2017 ON: 20.03 +20.0 19.66 - 3.5 33.6 05 14 4724 0907 Alarm State:  0
Fri Nov 17 11:49:14 PST 2017 ON: 20.00 +20.0 19.62 - 4.0 33.5 00 14 4714 092B Alarm State:  0
Fri Nov 17 11:48:13 PST 2017 ON: 20.06 +20.0 19.69 - 4.7 32.8 0A 14 471D 0911 Alarm State:  0
Fri Nov 17 11:47:11 PST 2017 ON: 19.98 +20.0 19.63 - 3.8 33.4 00 14 4727 0926 Alarm State:  0
Fri Nov 17 11:46:10 PST 2017 ON: 20.04 +20.0 19.67 - 4.3 33.0 00 14 4809 0927 Alarm State:  0
Fri Nov 17 11:45:08 PST 2017 ON: 19.97 +20.0 19.64 - 3.6 33.9 00 14 472C 091C Alarm State:  0
Fri Nov 17 11:44:07 PST 2017 ON: 20.03 +20.0 19.71 - 5.2 32.8 0D 13 4729 090A Alarm State:  0
Fri Nov 17 11:43:05 PST 2017 ON: 19.98 +20.0 19.59 - 2.7 34.2 00 14 4812 0908 Alarm State:  0
Fri Nov 17 11:42:04 PST 2017 ON: 20.00 +20.0 19.66 - 4.3 33.4 07 14 4730 0908 Alarm State:  0
Fri Nov 17 11:41:02 PST 2017 ON: 20.00 +20.0 19.62 - 2.9 33.7 00 14 4815 090C Alarm State:  0
Fri Nov 17 11:40:01 PST 2017 ON: 20.00 +20.0 19.64 - 3.8 33.7 00 14 4729 090E Alarm State:  0
Fri Nov 17 11:38:59 PST 2017 ON: 20.01 +20.0 19.66 - 4.2 33.1 00 14 472D 0901 Alarm State:  0
Fri Nov 17 11:37:58 PST 2017 ON: 19.99 +20.0 19.62 - 3.4 33.9 05 14 472C 0914 Alarm State:  0
Fri Nov 17 11:36:56 PST 2017 ON: 20.01 +20.0 19.71 - 5.0 32.7 0D 13 4807 091C Alarm State:  0
Fri Nov 17 11:35:55 PST 2017 ON: 19.97 +20.0 19.59 - 2.6 34.2 00 14 482A 090F Alarm State:  0
Fri Nov 17 11:34:53 PST 2017 ON: 20.01 +20.0 19.68 - 4.3 33.4 0D 14 481C 090A Alarm State:  0
Fri Nov 17 11:33:52 PST 2017 ON: 20.00 +20.0 19.62 - 3.3 33.6 00 14 4831 0911 Alarm State:  0
Fri Nov 17 11:32:50 PST 2017 ON: 20.01 +20.0 19.65 - 3.3 34.1 05 14 4821 0914 Alarm State:  0
Fri Nov 17 11:31:49 PST 2017 ON: 20.00 +20.0 19.66 - 3.9 33.7 05 14 480C 091A Alarm State:  0
Fri Nov 17 11:30:47 PST 2017 ON: 20.03 +20.0 19.70 - 4.6 33.0 0D 13 480A 090D Alarm State:  0
Fri Nov 17 11:29:46 PST 2017 ON: 20.00 +20.0 19.62 - 2.8 33.9 07 14 4732 0909 Alarm State:  0
Fri Nov 17 11:28:44 PST 2017 ON: 20.00 +20.0 19.64 - 3.9 33.5 0A 14 471E 0A06 Alarm State:  0
Fri Nov 17 11:27:43 PST 2017 ON: 20.03 +20.0 19.64 - 3.6 33.5 00 14 4812 0906 Alarm State:  0
Fri Nov 17 11:26:41 PST 2017 ON: 19.99 +20.0 19.63 - 3.8 33.5 07 14 472D 0926 Alarm State:  0
Fri Nov 17 11:25:40 PST 2017 ON: 20.02 +20.0 19.64 - 3.1 33.7 00 14 4821 091B Alarm State:  0
Fri Nov 17 11:24:38 PST 2017 ON: 20.01 +20.0 19.66 - 3.6 34.0 07 14 4805 091E Alarm State:  0
Fri Nov 17 11:23:37 PST 2017 ON: 20.03 +20.0 19.72 - 5.4 32.3 0D 12 472F 091E Alarm State:  0
Fri Nov 17 11:22:35 PST 2017 ON: 19.99 +20.0 19.63 - 3.1 34.2 0C 14 481A 091B Alarm State:  0
Fri Nov 17 11:21:34 PST 2017 ON: 20.02 +20.0 19.71 - 5.1 32.7 0D 13 4815 0905 Alarm State:  0
Fri Nov 17 11:20:32 PST 2017 ON: 20.01 +20.0 19.61 - 2.6 34.2 07 14 482D 090D Alarm State:  0
Fri Nov 17 11:19:31 PST 2017 ON: 20.00 +20.0 19.64 - 3.6 34.0 02 14 480A 0913 Alarm State:  0
Fri Nov 17 11:18:29 PST 2017 ON: 20.02 +20.0 19.70 - 4.9 33.1 0D 13 470D 0926 Alarm State:  0
Fri Nov 17 11:17:28 PST 2017 ON: 19.98 +20.0 19.60 - 2.6 34.3 0C 14 4809 0922 Alarm State:  0
Fri Nov 17 11:16:26 PST 2017 ON: 20.03 +20.0 19.70 - 5.1 32.9 0D 13 471D 091D Alarm State:  0
Fri Nov 17 11:15:25 PST 2017 ON: 20.00 +20.0 19.61 - 2.6 34.0 05 14 4815 0918 Alarm State:  0
Fri Nov 17 11:14:24 PST 2017 ON: 20.02 +20.0 19.64 - 3.2 34.0 0A 14 4732 091F Alarm State:  0
Fri Nov 17 11:13:22 PST 2017 ON: 20.00 +20.0 19.65 - 4.2 33.4 0C 14 4717 0A02 Alarm State:  0
Fri Nov 17 11:12:21 PST 2017 ON: 20.01 +20.0 19.59 - 2.0 34.2 00 14 4816 0918 Alarm State:  0
Fri Nov 17 11:11:19 PST 2017 ON: 20.01 +20.0 19.67 - 4.6 33.1 05 14 4722 0A1C Alarm State:  0
Fri Nov 17 11:10:18 PST 2017 ON: 19.99 +20.0 19.60 - 2.2 34.3 02 14 4827 0926 Alarm State:  0
Fri Nov 17 11:09:16 PST 2017 ON: 20.01 +20.0 19.66 - 4.0 33.7 05 14 4810 0924 Alarm State:  0
Fri Nov 17 11:08:15 PST 2017 ON: 20.02 +20.0 19.67 - 4.1 33.2 00 14 4731 0927 Alarm State:  0
Fri Nov 17 11:07:13 PST 2017 ON: 19.98 +20.0 19.62 - 3.8 33.5 00 14 4805 0A0B Alarm State:  0
Fri Nov 17 11:06:12 PST 2017 ON: 20.02 +20.0 19.69 - 4.6 32.6 05 14 4819 0910 Alarm State:  0
Fri Nov 17 11:05:10 PST 2017 ON: 19.98 +20.0 19.61 - 2.9 34.2 00 14 4824 091B Alarm State:  0
Fri Nov 17 11:04:09 PST 2017 ON: 20.01 +20.0 19.69 - 4.9 33.0 0D 14 4810 0918 Alarm State:  0
Fri Nov 17 11:03:07 PST 2017 ON: 19.99 +20.0 19.58 - 2.3 34.1 00 14 482F 091F Alarm State:  0
Fri Nov 17 11:02:06 PST 2017 ON: 20.02 +20.0 19.66 - 3.7 33.8 00 14 4813 0903 Alarm State:  0
Fri Nov 17 11:01:04 PST 2017 ON: 20.04 +20.0 19.72 - 4.9 32.8 0D 12 4800 0928 Alarm State:  0
Fri Nov 17 11:00:03 PST 2017 ON: 20.00 +20.0 19.61 - 2.9 34.1 00 14 4721 0923 Alarm State:  0
Fri Nov 17 10:59:01 PST 2017 ON: 20.02 +20.0 19.67 - 4.4 33.1 0A 14 470E 0A00 Alarm State:  0
Fri Nov 17 10:57:59 PST 2017 ON: 19.99 +20.0 19.60 - 2.5 33.9 00 14 4805 091A Alarm State:  0
Fri Nov 17 10:56:58 PST 2017 ON: 20.00 +20.0 19.63 - 3.5 34.0 00 14 4721 091C Alarm State:  0
Fri Nov 17 10:55:57 PST 2017 ON: 20.01 +20.0 19.72 - 5.3 32.7 0D 12 470B 091F Alarm State:  0
Fri Nov 17 10:54:55 PST 2017 ON: 19.96 +20.0 19.58 - 2.6 34.3 04 14 4805 090C Alarm State:  0
Fri Nov 17 10:53:54 PST 2017 ON: 20.01 +20.0 19.70 - 5.2 32.8 0D 13 471E 0907 Alarm State:  0
Fri Nov 17 10:52:52 PST 2017 ON: 19.97 +20.0 19.62 - 2.7 34.3 0A 14 4808 090C Alarm State:  0
Fri Nov 17 10:51:50 PST 2017 ON: 20.02 +20.0 19.68 - 4.2 33.4 07 14 471F 090B Alarm State:  0
Fri Nov 17 10:50:49 PST 2017 ON: 20.03 +20.0 19.68 - 4.4 33.1 00 14 471A 0A01 Alarm State:  0
Fri Nov 17 10:49:47 PST 2017 ON: 19.99 +20.0 19.62 - 3.7 33.5 0A 14 4720 0931 Alarm State:  0
Fri Nov 17 10:48:46 PST 2017 ON: 20.02 +20.0 19.62 - 2.5 34.0 05 14 4820 0906 Alarm State:  0
Fri Nov 17 10:47:44 PST 2017 ON: 20.00 +20.0 19.63 - 3.5 34.0 05 14 4802 0911 Alarm State:  0
Fri Nov 17 10:46:43 PST 2017 ON: 20.03 +20.0 19.70 - 4.6 33.3 0D 13 4714 091B Alarm State:  0
Fri Nov 17 10:45:41 PST 2017 ON: 19.99 +20.0 19.59 - 2.5 34.0 00 14 472C 0919 Alarm State:  0
Fri Nov 17 10:44:40 PST 2017 ON: 19.98 +20.0 19.64 - 4.1 33.4 00 14 471B 0A11 Alarm State:  0
Fri Nov 17 10:43:38 PST 2017 ON: 20.01 +20.0 19.63 - 2.8 33.8 00 14 481A 091F Alarm State:  0
Fri Nov 17 10:42:37 PST 2017 ON: 19.98 +20.0 19.63 - 3.4 34.1 05 14 4807 0919 Alarm State:  0
Fri Nov 17 10:41:36 PST 2017 ON: 19.98 +20.0 19.66 - 4.1 33.5 05 14 4811 0929 Alarm State:  0
Fri Nov 17 10:40:34 PST 2017 ON: 19.99 +20.0 19.60 - 2.4 34.0 00 14 4903 0920 Alarm State:  0
Fri Nov 17 10:39:33 PST 2017 ON: 20.01 +20.0 19.64 - 3.5 34.0 05 14 480C 0908 Alarm State:  0
Fri Nov 17 10:38:31 PST 2017 ON: 20.00 +20.0 19.66 - 4.3 33.5 00 14 4726 0A0A Alarm State:  0
Fri Nov 17 10:37:30 PST 2017 ON: 20.00 +20.0 19.58 - 2.3 34.1 04 14 481D 0901 Alarm State:  0
Fri Nov 17 10:36:28 PST 2017 ON: 20.00 +20.0 19.64 - 4.1 33.6 05 14 4800 092E Alarm State:  0
Fri Nov 17 10:35:27 PST 2017 ON: 20.04 +20.0 19.65 - 3.5 33.5 00 14 4812 0907 Alarm State:  0
Fri Nov 17 10:34:25 PST 2017 ON: 19.99 +20.0 19.64 - 3.8 33.5 07 14 4726 090D Alarm State:  0
Fri Nov 17 10:33:24 PST 2017 ON: 20.06 +20.0 19.68 - 4.2 33.1 08 14 4801 0919 Alarm State:  0
Fri Nov 17 10:32:22 PST 2017 ON: 20.01 +20.0 19.62 - 3.1 34.1 00 14 471D 091D Alarm State:  0
Fri Nov 17 10:31:21 PST 2017 ON: 19.99 +20.0 19.65 - 3.9 33.6 05 14 4702 0925 Alarm State:  0
Fri Nov 17 10:30:19 PST 2017 ON: 20.05 +20.0 19.67 - 4.1 33.3 00 14 4706 0A08 Alarm State:  0
Fri Nov 17 10:29:18 PST 2017 ON: 19.97 +20.0 19.66 - 4.2 33.3 07 14 4701 0A28 Alarm State:  0
Fri Nov 17 10:28:16 PST 2017 ON: 20.01 +20.0 19.56 - 1.8 34.2 04 14 480C 091E Alarm State:  0
Fri Nov 17 10:27:15 PST 2017 ON: 20.00 +20.0 19.68 - 4.8 33.0 0A 14 472C 0A14 Alarm State:  0
Fri Nov 17 10:26:13 PST 2017 ON: 20.00 +20.0 19.59 - 2.2 34.4 05 14 4902 090E Alarm State:  0
Fri Nov 17 10:25:12 PST 2017 ON: 20.02 +20.0 19.69 - 4.1 33.7 0D 14 4828 0900 Alarm State:  0
Fri Nov 17 10:24:10 PST 2017 ON: 20.02 +20.0 19.70 - 4.7 33.1 0D 13 4820 0924 Alarm State:  0
Fri Nov 17 10:23:09 PST 2017 ON: 20.03 +20.0 19.60 - 2.6 34.0 07 14 4831 090E Alarm State:  0
Fri Nov 17 10:22:07 PST 2017 ON: 19.99 +20.0 19.67 - 4.0 33.4 00 14 480F 0919 Alarm State:  0
Fri Nov 17 10:21:06 PST 2017 ON: 20.05 +20.0 19.67 - 3.9 33.2 00 14 4818 0920 Alarm State:  0
Fri Nov 17 10:20:04 PST 2017 ON: 19.98 +20.0 19.63 - 3.4 34.1 00 14 4804 0923 Alarm State:  0
Fri Nov 17 10:19:03 PST 2017 ON: 20.01 +20.0 19.70 - 5.1 32.7 0D 13 4728 0923 Alarm State:  0
Fri Nov 17 10:18:01 PST 2017 ON: 19.97 +20.0 19.60 - 2.5 34.3 05 14 481F 090D Alarm State:  0
Fri Nov 17 10:17:00 PST 2017 ON: 19.99 +20.0 19.66 - 3.8 33.8 00 14 4812 0909 Alarm State:  0
Fri Nov 17 10:15:58 PST 2017 ON: 20.01 +20.0 19.68 - 4.0 33.8 0A 14 4808 090C Alarm State:  0
Fri Nov 17 10:14:57 PST 2017 ON: 20.01 +20.0 19.71 - 5.3 32.5 00 13 4710 091E Alarm State:  0
Fri Nov 17 10:13:55 PST 2017 ON: 19.97 +20.0 19.62 - 3.1 34.1 00 14 472E 0925 Alarm State:  0
Fri Nov 17 10:12:54 PST 2017 ON: 20.00 +20.0 19.72 - 5.2 32.5 0A 12 4725 0911 Alarm State:  0
Fri Nov 17 10:11:52 PST 2017 ON: 19.99 +20.0 19.60 - 2.9 34.2 07 14 472D 0929 Alarm State:  0
Fri Nov 17 10:10:51 PST 2017 ON: 19.99 +20.0 19.68 - 4.6 33.2 05 14 471E 0929 Alarm State:  0
Fri Nov 17 10:09:49 PST 2017 ON: 20.00 +20.0 19.58 - 2.1 34.3 09 14 4821 0912 Alarm State:  0
Fri Nov 17 10:08:48 PST 2017 ON: 20.02 +20.0 19.64 - 3.3 33.8 02 14 472B 0920 Alarm State:  0
Fri Nov 17 10:07:46 PST 2017 ON: 20.00 +20.0 19.65 - 4.2 33.5 05 14 4705 0927 Alarm State:  0
Fri Nov 17 10:06:45 PST 2017 ON: 20.02 +20.0 19.63 - 3.1 33.6 00 14 4722 091A Alarm State:  0
Fri Nov 17 10:05:43 PST 2017 ON: 20.00 +20.0 19.63 - 3.4 34.1 07 14 471C 090B Alarm State:  0
Fri Nov 17 10:04:42 PST 2017 ON: 20.03 +20.0 19.71 - 5.2 32.8 0D 13 471D 0922 Alarm State:  0
Fri Nov 17 10:03:40 PST 2017 ON: 20.00 +20.0 19.59 - 2.6 34.3 04 14 4814 0922 Alarm State:  0
Fri Nov 17 10:02:39 PST 2017 ON: 20.03 +20.0 19.69 - 4.3 33.8 0D 14 472C 0922 Alarm State:  0
Fri Nov 17 10:01:37 PST 2017 ON: 20.00 +20.0 19.68 - 4.2 33.4 05 14 4718 0A00 Alarm State:  0
Fri Nov 17 10:00:36 PST 2017 ON: 20.03 +20.0 19.64 - 2.6 33.9 00 14 4810 0921 Alarm State:  0
Fri Nov 17 09:59:34 PST 2017 ON: 19.99 +20.0 19.64 - 3.6 34.0 02 14 471D 0909 Alarm State:  0
Fri Nov 17 09:58:33 PST 2017 ON: 20.02 +20.0 19.69 - 4.6 33.2 0D 14 4702 0911 Alarm State:  0
Fri Nov 17 09:57:31 PST 2017 ON: 19.99 +20.0 19.61 - 2.5 34.1 00 14 4720 090D Alarm State:  0
Fri Nov 17 09:56:30 PST 2017 ON: 19.98 +20.0 19.67 - 4.5 33.1 00 14 470B 0A13 Alarm State:  0
Fri Nov 17 09:55:28 PST 2017 ON: 19.97 +20.0 19.56 - 2.0 34.2 04 14 4816 0909 Alarm State:  0
Fri Nov 17 09:54:27 PST 2017 ON: 19.99 +20.0 19.64 - 3.5 34.0 00 14 4805 090B Alarm State:  0
Fri Nov 17 09:53:25 PST 2017 ON: 20.02 +20.0 19.73 - 5.3 32.4 0D 12 471E 090C Alarm State:  0
Fri Nov 17 09:52:24 PST 2017 ON: 19.97 +20.0 19.61 - 3.0 34.2 05 14 4729 0919 Alarm State:  0
Fri Nov 17 09:51:22 PST 2017 ON: 20.01 +20.0 19.70 - 5.0 33.0 0D 13 4715 0912 Alarm State:  0
Fri Nov 17 09:50:21 PST 2017 ON: 19.99 +20.0 19.61 - 2.7 34.0 00 14 4722 0919 Alarm State:  0
Fri Nov 17 09:49:19 PST 2017 ON: 19.98 +20.0 19.67 - 4.3 33.3 05 14 4716 0A18 Alarm State:  0
Fri Nov 17 09:48:18 PST 2017 ON: 19.98 +20.0 19.59 - 2.1 34.3 07 14 481E 0915 Alarm State:  0
Fri Nov 17 09:47:16 PST 2017 ON: 20.01 +20.0 19.68 - 4.0 33.8 0D 14 480C 0918 Alarm State:  0
Fri Nov 17 09:46:15 PST 2017 ON: 20.03 +20.0 19.69 - 4.8 32.6 0D 14 4732 091C Alarm State:  0
Fri Nov 17 09:45:13 PST 2017 ON: 20.00 +20.0 19.62 - 3.0 34.2 07 14 4807 090D Alarm State:  0
Fri Nov 17 09:44:12 PST 2017 ON: 20.02 +20.0 19.70 - 4.9 33.1 0D 13 4723 090B Alarm State:  0
Fri Nov 17 09:43:11 PST 2017 ON: 20.00 +20.0 19.58 - 2.4 34.2 01 14 4812 0909 Alarm State:  0
Fri Nov 17 09:42:09 PST 2017 ON: 20.00 +20.0 19.66 - 4.4 33.4 00 14 4722 0917 Alarm State:  0
Fri Nov 17 09:41:08 PST 2017 ON: 20.00 +20.0 19.59 - 2.3 33.9 01 14 481A 090A Alarm State:  0
Fri Nov 17 09:40:06 PST 2017 ON: 19.98 +20.0 19.67 - 4.4 33.2 0A 14 4804 0A0F Alarm State:  0
Fri Nov 17 09:39:05 PST 2017 ON: 19.98 +20.0 19.58 - 2.1 34.2 01 14 490C 0914 Alarm State:  0
Fri Nov 17 09:38:03 PST 2017 ON: 19.99 +20.0 19.65 - 3.5 34.0 05 14 482D 0919 Alarm State:  0
Fri Nov 17 09:37:02 PST 2017 ON: 20.01 +20.0 19.71 - 4.7 33.2 0D 13 4814 0919 Alarm State:  0
Fri Nov 17 09:36:00 PST 2017 ON: 20.01 +20.0 19.65 - 3.8 33.5 00 14 4812 0918 Alarm State:  0
Fri Nov 17 09:34:59 PST 2017 ON: 20.00 +20.0 19.64 - 3.2 33.7 00 14 4803 091E Alarm State:  0
Fri Nov 17 09:33:57 PST 2017 ON: 19.99 +20.0 19.65 - 3.7 33.8 0C 14 4726 0925 Alarm State:  0
Fri Nov 17 09:32:56 PST 2017 ON: 20.01 +20.0 19.69 - 5.0 32.5 08 14 472F 090D Alarm State:  0
Fri Nov 17 09:31:54 PST 2017 ON: 19.97 +20.0 19.63 - 3.1 34.1 07 14 4818 090B Alarm State:  0
Fri Nov 17 09:30:53 PST 2017 ON: 20.01 +20.0 19.71 - 5.1 32.7 0D 13 4813 0924 Alarm State:  0
Fri Nov 17 09:29:51 PST 2017 ON: 20.00 +20.0 19.63 - 2.8 34.0 0A 14 481B 0911 Alarm State:  0
Fri Nov 17 09:28:50 PST 2017 ON: 19.98 +20.0 19.63 - 3.8 33.8 05 14 480A 090F Alarm State:  0
Fri Nov 17 09:27:48 PST 2017 ON: 20.02 +20.0 19.64 - 3.8 33.3 00 14 4826 090F Alarm State:  0
Fri Nov 17 09:26:47 PST 2017 ON: 19.98 +20.0 19.63 - 3.4 34.1 05 14 4823 0922 Alarm State:  0
Fri Nov 17 09:25:45 PST 2017 ON: 20.03 +20.0 19.72 - 5.1 32.8 0D 12 4815 0915 Alarm State:  0
Fri Nov 17 09:24:44 PST 2017 ON: 19.99 +20.0 19.62 - 2.9 34.1 07 14 4812 0903 Alarm State:  0
Fri Nov 17 09:23:42 PST 2017 ON: 19.99 +20.0 19.66 - 4.4 33.2 05 14 4723 0A0E Alarm State:  0
Fri Nov 17 09:22:41 PST 2017 ON: 20.00 +20.0 19.59 - 2.3 34.1 04 14 481F 0927 Alarm State:  0
Fri Nov 17 09:21:39 PST 2017 ON: 20.00 +20.0 19.66 - 4.0 33.8 05 14 472A 090B Alarm State:  0
Fri Nov 17 09:20:38 PST 2017 ON: 20.00 +20.0 19.71 - 4.6 33.2 0D 13 470D 0917 Alarm State:  0
Fri Nov 17 09:19:36 PST 2017 ON: 20.02 +20.0 19.61 - 2.9 33.8 00 14 4719 0904 Alarm State:  0
Fri Nov 17 09:18:35 PST 2017 ON: 19.98 +20.0 19.65 - 4.2 33.3 05 14 4700 0A02 Alarm State:  0
Fri Nov 17 09:17:33 PST 2017 ON: 20.02 +20.0 19.62 - 2.7 33.9 05 14 4803 0904 Alarm State:  0
Fri Nov 17 09:16:32 PST 2017 ON: 20.00 +20.0 19.64 - 3.5 34.0 05 14 4717 0906 Alarm State:  0
Fri Nov 17 09:15:30 PST 2017 ON: 20.00 +20.0 19.65 - 4.1 33.4 0C 14 471B 092E Alarm State:  0
Fri Nov 17 09:14:29 PST 2017 ON: 20.02 +20.0 19.64 - 4.0 33.2 00 14 4813 0921 Alarm State:  0
Fri Nov 17 09:13:27 PST 2017 ON: 20.01 +20.0 19.62 - 3.1 34.2 0A 14 4815 0914 Alarm State:  0
Fri Nov 17 09:12:26 PST 2017 ON: 20.01 +20.0 19.68 - 4.8 33.1 0D 14 4808 0912 Alarm State:  0
Fri Nov 17 09:11:24 PST 2017 ON: 20.02 +20.0 19.60 - 2.7 33.9 00 14 4828 090C Alarm State:  0
Fri Nov 17 09:10:23 PST 2017 ON: 20.00 +20.0 19.64 - 3.9 33.6 00 14 480D 0912 Alarm State:  0
Fri Nov 17 09:09:21 PST 2017 ON: 20.05 +20.0 19.69 - 4.4 33.2 0A 14 4813 0924 Alarm State:  0
Fri Nov 17 09:08:20 PST 2017 ON: 20.01 +20.0 19.62 - 3.2 33.7 02 14 4800 0926 Alarm State:  0
Fri Nov 17 09:07:18 PST 2017 ON: 20.00 +20.0 19.65 - 4.0 33.6 07 14 471D 092C Alarm State:  0
Fri Nov 17 09:06:17 PST 2017 ON: 20.02 +20.0 19.63 - 3.2 33.7 00 14 4813 0919 Alarm State:  0
Fri Nov 17 09:05:15 PST 2017 ON: 20.03 +20.0 19.64 - 3.3 33.9 07 14 4724 0928 Alarm State:  0
Fri Nov 17 09:04:14 PST 2017 ON: 20.00 +20.0 19.66 - 4.4 33.3 0D 14 4709 0A07 Alarm State:  0
Fri Nov 17 09:03:12 PST 2017 ON: 20.00 +20.0 19.60 - 2.4 34.2 0A 14 480E 0911 Alarm State:  0
Fri Nov 17 09:02:11 PST 2017 ON: 20.02 +20.0 19.67 - 4.4 33.3 0C 14 4726 0917 Alarm State:  0
Fri Nov 17 09:01:09 PST 2017 ON: 20.01 +20.0 19.62 - 2.8 33.8 00 14 480B 0911 Alarm State:  0
Fri Nov 17 09:00:08 PST 2017 ON: 20.00 +20.0 19.64 - 4.3 33.3 00 14 4729 0A0D Alarm State:  0
Fri Nov 17 08:59:06 PST 2017 ON: 19.99 +20.0 19.60 - 2.5 33.9 00 14 4822 0902 Alarm State:  0
Fri Nov 17 08:58:05 PST 2017 ON: 19.99 +20.0 19.66 - 3.9 33.7 07 14 4805 0929 Alarm State:  0
Fri Nov 17 08:57:03 PST 2017 ON: 20.01 +20.0 19.69 - 4.9 32.9 0D 14 480D 0A0E Alarm State:  0
Fri Nov 17 08:56:02 PST 2017 ON: 19.98 +20.0 19.61 - 2.8 34.1 05 14 4828 0A0B Alarm State:  0
Fri Nov 17 08:55:00 PST 2017 ON: 19.98 +20.0 19.67 - 4.6 33.1 05 14 4819 0A2A Alarm State:  0
Fri Nov 17 08:53:59 PST 2017 ON: 19.97 +20.0 19.58 - 2.1 34.2 00 14 4922 092F Alarm State:  0
Fri Nov 17 08:52:57 PST 2017 ON: 19.99 +20.0 19.65 - 4.0 33.6 00 14 490B 0902 Alarm State:  0
Fri Nov 17 08:51:56 PST 2017 ON: 20.01 +20.0 19.66 - 4.0 33.2 00 14 4901 0926 Alarm State:  0
Fri Nov 17 08:50:54 PST 2017 ON: 19.98 +20.0 19.66 - 3.8 33.7 00 14 4825 0920 Alarm State:  0
Fri Nov 17 08:49:53 PST 2017 ON: 20.01 +20.0 19.69 - 5.0 32.8 0D 14 4825 090F Alarm State:  0
Fri Nov 17 08:48:51 PST 2017 ON: 19.99 +20.0 19.63 - 2.8 34.0 00 14 4822 090B Alarm State:  0
Fri Nov 17 08:47:50 PST 2017 ON: 20.01 +20.0 19.65 - 3.4 33.9 00 14 4800 0914 Alarm State:  0
Fri Nov 17 08:46:49 PST 2017 ON: 19.99 +20.0 19.67 - 4.4 33.3 00 14 4706 0926 Alarm State:  0
Fri Nov 17 08:45:47 PST 2017 ON: 20.02 +20.0 19.61 - 3.1 33.7 00 14 4716 0903 Alarm State:  0
Fri Nov 17 08:44:46 PST 2017 ON: 19.98 +20.0 19.66 - 4.3 33.4 00 14 462C 092A Alarm State:  0
Fri Nov 17 08:43:44 PST 2017 ON: 20.02 +20.0 19.61 - 2.8 33.8 00 14 4725 0924 Alarm State:  0
Fri Nov 17 08:42:43 PST 2017 ON: 19.97 +20.0 19.65 - 4.2 33.4 05 14 4714 0A1A Alarm State:  0
Fri Nov 17 08:41:41 PST 2017 ON: 20.02 +20.0 19.62 - 2.4 34.0 05 14 4819 091C Alarm State:  0
Fri Nov 17 08:40:40 PST 2017 ON: 20.00 +20.0 19.65 - 4.1 33.3 07 14 4810 0A18 Alarm State:  0
Fri Nov 17 08:39:38 PST 2017 ON: 20.03 +20.0 19.66 - 3.6 33.4 00 14 490B 0909 Alarm State:  0
Fri Nov 17 08:38:37 PST 2017 ON: 19.99 +20.0 19.62 - 3.0 34.2 05 14 4910 0920 Alarm State:  0
Fri Nov 17 08:37:35 PST 2017 ON: 20.02 +20.0 19.63 - 3.1 34.1 0C 14 4908 0921 Alarm State:  0
Fri Nov 17 08:36:34 PST 2017 ON: 20.02 +20.0 19.67 - 3.9 33.9 05 14 4814 0908 Alarm State:  0
Fri Nov 17 08:35:32 PST 2017 ON: 20.02 +20.0 19.68 - 5.1 33.0 0C 14 4719 091D Alarm State:  0
Fri Nov 17 08:34:31 PST 2017 ON: 20.00 +20.0 19.60 - 2.5 34.2 05 14 480B 0908 Alarm State:  0
Fri Nov 17 08:33:29 PST 2017 ON: 20.02 +20.0 19.67 - 4.6 33.3 05 14 471C 090F Alarm State:  0
Fri Nov 17 08:32:28 PST 2017 ON: 20.05 +20.0 19.66 - 4.0 33.3 05 14 472B 091A Alarm State:  0
Fri Nov 17 08:31:26 PST 2017 ON: 19.98 +20.0 19.63 - 3.6 33.7 07 14 472B 0A03 Alarm State:  0
Fri Nov 17 08:30:25 PST 2017 ON: 20.05 +20.0 19.69 - 4.8 32.9 08 14 4801 0913 Alarm State:  0
Fri Nov 17 08:29:23 PST 2017 ON: 19.99 +20.0 19.64 - 3.3 34.1 05 14 471A 091E Alarm State:  0
Fri Nov 17 08:28:22 PST 2017 ON: 20.01 +20.0 19.69 - 5.4 32.7 02 14 4628 092A Alarm State:  0
Fri Nov 17 08:27:20 PST 2017 ON: 19.96 +20.0 19.60 - 2.7 34.2 04 14 4727 090A Alarm State:  0
Fri Nov 17 08:26:19 PST 2017 ON: 19.99 +20.0 19.70 - 5.3 32.8 0D 14 4712 0A06 Alarm State:  0
Fri Nov 17 08:25:17 PST 2017 ON: 19.98 +20.0 19.61 - 2.9 34.2 0C 14 480D 0924 Alarm State:  0
Fri Nov 17 08:24:16 PST 2017 ON: 20.02 +20.0 19.70 - 4.8 33.3 0D 13 4731 091E Alarm State:  0
Fri Nov 17 08:23:14 PST 2017 ON: 20.03 +20.0 19.67 - 3.8 33.5 05 14 4711 0A04 Alarm State:  0
Fri Nov 17 08:22:13 PST 2017 ON: 19.97 +20.0 19.64 - 4.2 33.2 00 14 4706 0A19 Alarm State:  0
Fri Nov 17 08:21:11 PST 2017 ON: 20.00 +20.0 19.59 - 2.2 34.0 00 14 480F 0917 Alarm State:  0
Fri Nov 17 08:20:10 PST 2017 ON: 19.99 +20.0 19.63 - 3.7 33.8 00 14 4800 0915 Alarm State:  0
Fri Nov 17 08:19:08 PST 2017 ON: 20.02 +20.0 19.68 - 4.5 33.2 0D 14 4804 090A Alarm State:  0
Fri Nov 17 08:18:07 PST 2017 ON: 20.02 +20.0 19.62 - 2.4 34.1 00 14 481D 090D Alarm State:  0
Fri Nov 17 08:17:05 PST 2017 ON: 20.01 +20.0 19.64 - 3.8 33.9 05 14 471A 0922 Alarm State:  0
Fri Nov 17 08:16:04 PST 2017 ON: 19.97 +20.0 19.65 - 4.7 33.1 00 14 4628 0A01 Alarm State:  0
Fri Nov 17 08:15:02 PST 2017 ON: 19.99 +20.0 19.59 - 2.5 34.2 09 14 4800 0905 Alarm State:  0
Fri Nov 17 08:14:01 PST 2017 ON: 20.00 +20.0 19.69 - 4.9 33.1 0D 14 4718 0907 Alarm State:  0
Fri Nov 17 08:12:59 PST 2017 ON: 19.99 +20.0 19.59 - 2.6 34.1 07 14 4800 090E Alarm State:  0
Fri Nov 17 08:11:58 PST 2017 ON: 19.98 +20.0 19.66 - 4.7 33.2 00 14 470D 0A19 Alarm State:  0
Fri Nov 17 08:10:56 PST 2017 ON: 19.99 +20.0 19.60 - 2.5 34.0 00 14 4811 0924 Alarm State:  0
Fri Nov 17 08:09:55 PST 2017 ON: 19.97 +20.0 19.63 - 3.7 33.9 00 14 4807 091B Alarm State:  0
Fri Nov 17 08:08:53 PST 2017 ON: 20.01 +20.0 19.68 - 4.2 33.5 0D 14 480C 090D Alarm State:  0
Fri Nov 17 08:07:52 PST 2017 ON: 20.02 +20.0 19.64 - 3.9 33.2 00 14 4818 091D Alarm State:  0
Fri Nov 17 08:06:50 PST 2017 ON: 20.03 +20.0 19.65 - 3.4 34.1 05 14 4809 0917 Alarm State:  0
Fri Nov 17 08:05:49 PST 2017 ON: 20.02 +20.0 19.69 - 4.8 33.3 0D 14 4720 0918 Alarm State:  0
Fri Nov 17 08:04:47 PST 2017 ON: 20.05 +20.0 19.67 - 4.7 32.8 02 14 4709 0928 Alarm State:  0
Fri Nov 17 08:03:46 PST 2017 ON: 19.97 +20.0 19.62 - 3.6 33.7 00 14 4713 0A05 Alarm State:  0
Fri Nov 17 08:02:44 PST 2017 ON: 20.05 +20.0 19.69 - 4.3 33.0 0D 14 4730 0928 Alarm State:  0
Fri Nov 17 08:01:43 PST 2017 ON: 19.98 +20.0 19.62 - 3.7 33.7 07 14 4809 0931 Alarm State:  0
Fri Nov 17 08:00:41 PST 2017 ON: 20.05 +20.0 19.69 - 4.7 32.9 0D 14 4822 0922 Alarm State:  0
Fri Nov 17 07:59:40 PST 2017 ON: 20.00 +20.0 19.61 - 2.7 34.0 02 14 4820 0919 Alarm State:  0
Fri Nov 17 07:58:39 PST 2017 ON: 20.03 +20.0 19.68 - 4.2 33.6 07 14 4726 0902 Alarm State:  0
Fri Nov 17 07:57:37 PST 2017 ON: 20.02 +20.0 19.70 - 5.1 33.0 0A 13 4714 0928 Alarm State:  0
Fri Nov 17 07:56:36 PST 2017 ON: 20.02 +20.0 19.62 - 2.7 34.1 07 14 472D 0908 Alarm State:  0
Fri Nov 17 07:55:34 PST 2017 ON: 20.00 +20.0 19.66 - 4.7 33.3 05 14 4709 0917 Alarm State:  0
Fri Nov 17 07:54:33 PST 2017 ON: 20.01 +20.0 19.60 - 3.0 33.7 00 14 4805 0904 Alarm State:  0
Fri Nov 17 07:53:31 PST 2017 ON: 19.98 +20.0 19.63 - 3.6 33.8 00 14 4809 0912 Alarm State:  0
Fri Nov 17 07:52:30 PST 2017 ON: 20.03 +20.0 19.70 - 4.7 33.3 0D 13 4810 091F Alarm State:  0
Fri Nov 17 07:51:28 PST 2017 ON: 20.01 +20.0 19.66 - 4.0 33.3 02 14 4729 0901 Alarm State:  0
Fri Nov 17 07:50:27 PST 2017 ON: 19.98 +20.0 19.61 - 3.4 34.0 07 14 472A 0914 Alarm State:  0
Fri Nov 17 07:49:25 PST 2017 ON: 20.00 +20.0 19.69 - 4.1 33.7 0A 14 4807 091C Alarm State:  0
Fri Nov 17 07:48:24 PST 2017 ON: 20.01 +20.0 19.70 - 5.2 32.6 03 13 4725 091A Alarm State:  0
Fri Nov 17 07:47:22 PST 2017 ON: 19.97 +20.0 19.61 - 3.3 34.1 05 14 480E 0912 Alarm State:  0
Fri Nov 17 07:46:21 PST 2017 ON: 19.99 +20.0 19.71 - 5.6 32.2 00 13 4807 0927 Alarm State:  0
Fri Nov 17 07:45:19 PST 2017 ON: 19.97 +20.0 19.60 - 3.1 34.2 02 14 4900 0916 Alarm State:  0
Fri Nov 17 07:44:18 PST 2017 ON: 20.00 +20.0 19.69 - 5.1 33.0 0D 14 4830 0923 Alarm State:  0
Fri Nov 17 07:43:16 PST 2017 ON: 19.99 +20.0 19.58 - 2.4 34.2 09 14 4919 0928 Alarm State:  0
Fri Nov 17 07:42:15 PST 2017 ON: 20.01 +20.0 19.66 - 4.4 33.6 05 14 4827 0909 Alarm State:  0
Fri Nov 17 07:41:13 PST 2017 ON: 20.02 +20.0 19.71 - 5.2 32.6 08 13 4817 0910 Alarm State:  0
Fri Nov 17 07:40:12 PST 2017 ON: 19.99 +20.0 19.62 - 2.7 34.2 07 14 4832 090F Alarm State:  0
Fri Nov 17 07:39:10 PST 2017 ON: 20.02 +20.0 19.67 - 4.3 33.5 0C 14 4816 0914 Alarm State:  0
Fri Nov 17 07:38:09 PST 2017 ON: 20.04 +20.0 19.69 - 4.9 32.7 05 14 480F 090C Alarm State:  0
Fri Nov 17 07:37:07 PST 2017 ON: 20.00 +20.0 19.62 - 3.2 34.0 05 14 480F 0926 Alarm State:  0
Fri Nov 17 07:36:06 PST 2017 ON: 20.01 +20.0 19.66 - 4.8 33.2 0A 14 472B 092C Alarm State:  0
Fri Nov 17 07:35:04 PST 2017 ON: 19.99 +20.0 19.58 - 2.1 34.2 04 14 4830 091B Alarm State:  0
Fri Nov 17 07:34:03 PST 2017 ON: 20.02 +20.0 19.65 - 4.2 33.9 0C 14 4807 0923 Alarm State:  0
Fri Nov 17 07:33:01 PST 2017 ON: 19.99 +20.0 19.70 - 5.4 32.8 0D 14 4724 0B03 Alarm State:  0
Fri Nov 17 07:32:00 PST 2017 ON: 19.98 +20.0 19.58 - 2.7 34.3 04 14 482C 0A04 Alarm State:  0
Fri Nov 17 07:30:58 PST 2017 ON: 20.03 +20.0 19.69 - 4.4 33.5 0D 14 4821 0920 Alarm State:  0
Fri Nov 17 07:29:57 PST 2017 ON: 20.00 +20.0 19.68 - 4.5 33.4 0A 14 4817 0925 Alarm State:  0
Fri Nov 17 07:28:55 PST 2017 ON: 20.04 +20.0 19.67 - 4.9 32.4 00 14 480E 0923 Alarm State:  0
Fri Nov 17 07:27:54 PST 2017 ON: 19.97 +20.0 19.63 - 3.4 34.0 00 14 481C 0906 Alarm State:  0
Fri Nov 17 07:26:52 PST 2017 ON: 20.01 +20.0 19.70 - 4.8 33.1 0D 13 480E 0926 Alarm State:  0
Fri Nov 17 07:25:51 PST 2017 ON: 20.01 +20.0 19.64 - 3.0 33.8 02 14 4803 0924 Alarm State:  0
Fri Nov 17 07:24:49 PST 2017 ON: 19.98 +20.0 19.64 - 3.9 33.8 00 14 4719 0905 Alarm State:  0
Fri Nov 17 07:23:48 PST 2017 ON: 20.01 +20.0 19.70 - 5.6 32.0 0A 13 470F 0925 Alarm State:  0
Fri Nov 17 07:22:46 PST 2017 ON: 19.96 +20.0 19.59 - 3.5 33.8 00 14 472C 0925 Alarm State:  0
Fri Nov 17 07:21:45 PST 2017 ON: 20.02 +20.0 19.69 - 4.5 33.0 05 14 480F 091D Alarm State:  0
Fri Nov 17 07:20:43 PST 2017 ON: 19.97 +20.0 19.61 - 3.3 34.2 02 14 481C 0926 Alarm State:  0
Fri Nov 17 07:19:42 PST 2017 ON: 20.01 +20.0 19.69 - 4.7 33.3 0D 14 4810 0917 Alarm State:  0
Fri Nov 17 07:18:40 PST 2017 ON: 20.01 +20.0 19.62 - 3.1 33.7 00 14 4811 0903 Alarm State:  0
Fri Nov 17 07:17:39 PST 2017 ON: 19.99 +20.0 19.67 - 4.4 33.2 00 14 4728 092D Alarm State:  0
Fri Nov 17 07:16:37 PST 2017 ON: 20.00 +20.0 19.59 - 2.6 33.9 00 14 4826 090A Alarm State:  0
Fri Nov 17 07:15:36 PST 2017 ON: 19.98 +20.0 19.65 - 4.0 33.8 05 14 4806 0915 Alarm State:  0
Fri Nov 17 07:14:34 PST 2017 ON: 20.01 +20.0 19.69 - 5.3 32.9 0D 14 4803 0911 Alarm State:  0
Fri Nov 17 07:13:33 PST 2017 ON: 19.98 +20.0 19.60 - 2.8 34.1 00 14 4825 0907 Alarm State:  0
Fri Nov 17 07:12:31 PST 2017 ON: 20.00 +20.0 19.67 - 4.9 33.1 05 14 4812 0930 Alarm State:  0
Fri Nov 17 07:11:30 PST 2017 ON: 19.99 +20.0 19.58 - 2.7 33.9 00 14 4917 0923 Alarm State:  0
Fri Nov 17 07:10:28 PST 2017 ON: 20.00 +20.0 19.63 - 3.7 34.0 05 14 4829 0902 Alarm State:  0
Fri Nov 17 07:09:27 PST 2017 ON: 19.99 +20.0 19.68 - 5.1 33.0 0D 14 480D 0A07 Alarm State:  0
Fri Nov 17 07:08:25 PST 2017 ON: 20.01 +20.0 19.61 - 2.6 34.0 00 14 4901 0920 Alarm State:  0
Fri Nov 17 07:07:24 PST 2017 ON: 19.99 +20.0 19.64 - 4.0 33.7 00 14 480C 0906 Alarm State:  0
Fri Nov 17 07:06:22 PST 2017 ON: 20.04 +20.0 19.70 - 5.3 32.4 0A 13 472C 090A Alarm State:  0
Fri Nov 17 07:05:21 PST 2017 ON: 19.98 +20.0 19.61 - 3.1 34.1 00 14 4805 091C Alarm State:  0
Fri Nov 17 07:04:19 PST 2017 ON: 20.00 +20.0 19.68 - 4.6 33.2 07 14 4729 091A Alarm State:  0
Fri Nov 17 07:03:18 PST 2017 ON: 19.99 +20.0 19.60 - 2.5 34.1 00 14 4828 090A Alarm State:  0
Fri Nov 17 07:02:16 PST 2017 ON: 19.99 +20.0 19.64 - 4.1 33.6 00 14 480D 090A Alarm State:  0
Fri Nov 17 07:01:15 PST 2017 ON: 20.02 +20.0 19.66 - 4.3 33.1 00 14 4803 0924 Alarm State:  0
Fri Nov 17 07:00:13 PST 2017 ON: 20.01 +20.0 19.64 - 3.4 33.9 00 14 4719 0901 Alarm State:  0
Fri Nov 17 06:59:12 PST 2017 ON: 19.97 +20.0 19.66 - 4.6 33.2 02 14 4701 092D Alarm State:  0
Fri Nov 17 06:58:10 PST 2017 ON: 19.99 +20.0 19.58 - 2.5 33.9 00 14 4807 0904 Alarm State:  0
Fri Nov 17 06:57:09 PST 2017 ON: 19.98 +20.0 19.66 - 4.1 33.5 00 14 4732 092E Alarm State:  0
Fri Nov 17 06:56:07 PST 2017 ON: 20.00 +20.0 19.66 - 4.3 33.1 00 14 4826 0905 Alarm State:  0
Fri Nov 17 06:55:06 PST 2017 ON: 20.00 +20.0 19.62 - 2.8 34.1 00 14 481E 0906 Alarm State:  0
Fri Nov 17 06:54:04 PST 2017 ON: 20.01 +20.0 19.67 - 4.3 33.8 00 14 4726 091A Alarm State:  0
Fri Nov 17 06:53:03 PST 2017 ON: 19.99 +20.0 19.69 - 5.4 32.9 0D 14 470E 0927 Alarm State:  0
Fri Nov 17 06:52:01 PST 2017 ON: 19.96 +20.0 19.60 - 2.8 34.2 02 14 480E 090D Alarm State:  0
Fri Nov 17 06:51:00 PST 2017 ON: 20.01 +20.0 19.70 - 5.0 33.0 0D 13 472B 0906 Alarm State:  0
Fri Nov 17 06:49:58 PST 2017 ON: 20.00 +20.0 19.59 - 2.8 33.9 00 14 480B 090F Alarm State:  0
Fri Nov 17 06:48:57 PST 2017 ON: 20.01 +20.0 19.66 - 4.1 33.8 05 14 4720 0924 Alarm State:  0
Fri Nov 17 06:47:55 PST 2017 ON: 20.04 +20.0 19.73 - 6.0 32.3 0D 12 4630 0A03 Alarm State:  0
Fri Nov 17 06:46:54 PST 2017 ON: 20.02 +20.0 19.65 - 3.8 34.0 05 14 470B 0A0D Alarm State:  0
Fri Nov 17 06:45:52 PST 2017 ON: 20.01 +20.0 19.70 - 5.7 32.4 0D 14 4704 0A20 Alarm State:  0
Fri Nov 17 06:44:51 PST 2017 ON: 19.99 +20.0 19.61 - 3.4 33.8 07 14 472A 0A0B Alarm State:  0
Fri Nov 17 06:43:49 PST 2017 ON: 20.04 +20.0 19.70 - 4.7 33.0 0A 13 480A 0909 Alarm State:  0
Fri Nov 17 06:42:48 PST 2017 ON: 20.03 +20.0 19.64 - 3.1 33.9 0A 14 4729 0918 Alarm State:  0
Fri Nov 17 06:41:46 PST 2017 ON: 20.01 +20.0 19.67 - 4.8 33.3 05 14 462B 0928 Alarm State:  0
Fri Nov 17 06:40:45 PST 2017 ON: 20.00 +20.0 19.60 - 2.7 34.1 07 14 472A 091A Alarm State:  0
Fri Nov 17 06:39:43 PST 2017 ON: 20.03 +20.0 19.70 - 5.3 32.9 0D 13 4630 0928 Alarm State:  0
Fri Nov 17 06:38:42 PST 2017 ON: 19.99 +20.0 19.60 - 2.9 33.9 00 14 471F 091E Alarm State:  0
Fri Nov 17 06:37:40 PST 2017 ON: 20.01 +20.0 19.64 - 4.3 33.6 02 14 4708 091E Alarm State:  0
Fri Nov 17 06:36:39 PST 2017 ON: 20.02 +20.0 19.70 - 5.6 32.4 05 13 4700 090B Alarm State:  0
Fri Nov 17 06:35:37 PST 2017 ON: 19.99 +20.0 19.60 - 3.4 34.1 01 14 4713 0910 Alarm State:  0
Fri Nov 17 06:34:36 PST 2017 ON: 19.99 +20.0 19.69 - 5.5 32.8 08 14 4705 0A0F Alarm State:  0
Fri Nov 17 06:33:34 PST 2017 ON: 19.98 +20.0 19.58 - 2.8 34.2 00 14 480F 090C Alarm State:  0
Fri Nov 17 06:32:33 PST 2017 ON: 19.99 +20.0 19.67 - 4.7 33.3 05 14 4807 0903 Alarm State:  0
Fri Nov 17 06:31:31 PST 2017 ON: 20.01 +20.0 19.59 - 2.8 33.8 00 14 481C 0912 Alarm State:  0
Fri Nov 17 06:30:30 PST 2017 ON: 19.98 +20.0 19.64 - 4.4 33.4 00 14 4725 0925 Alarm State:  0
Fri Nov 17 06:29:28 PST 2017 ON: 20.03 +20.0 19.67 - 4.7 32.8 00 14 472A 0911 Alarm State:  0
Fri Nov 17 06:28:27 PST 2017 ON: 19.97 +20.0 19.62 - 3.8 33.7 00 14 472E 092E Alarm State:  0
Fri Nov 17 06:27:25 PST 2017 ON: 20.03 +20.0 19.66 - 4.1 33.2 00 14 4816 0927 Alarm State:  0
Fri Nov 17 06:26:24 PST 2017 ON: 19.98 +20.0 19.63 - 3.7 33.9 00 14 472F 0901 Alarm State:  0
Fri Nov 17 06:25:22 PST 2017 ON: 20.00 +20.0 19.70 - 5.1 33.0 08 13 4712 092C Alarm State:  0
Fri Nov 17 06:24:21 PST 2017 ON: 19.98 +20.0 19.59 - 2.5 34.0 01 14 480D 091D Alarm State:  0
Fri Nov 17 06:23:19 PST 2017 ON: 19.99 +20.0 19.65 - 4.1 33.8 05 14 4723 0929 Alarm State:  0
Fri Nov 17 06:22:18 PST 2017 ON: 20.01 +20.0 19.72 - 5.5 32.5 0A 13 4709 0A07 Alarm State:  0
Fri Nov 17 06:21:16 PST 2017 ON: 19.96 +20.0 19.61 - 3.1 34.1 00 14 4728 0930 Alarm State:  0
Fri Nov 17 06:20:15 PST 2017 ON: 20.02 +20.0 19.70 - 4.8 33.2 0D 13 4716 0927 Alarm State:  0
Fri Nov 17 06:19:13 PST 2017 ON: 20.01 +20.0 19.63 - 3.4 33.6 02 14 4713 0902 Alarm State:  0
Fri Nov 17 06:18:12 PST 2017 ON: 19.98 +20.0 19.64 - 4.3 33.3 07 14 462F 0931 Alarm State:  0
Fri Nov 17 06:17:10 PST 2017 ON: 20.01 +20.0 19.62 - 3.2 33.6 00 14 4731 0906 Alarm State:  0
Fri Nov 17 06:16:09 PST 2017 ON: 20.02 +20.0 19.66 - 3.8 33.9 07 14 4727 0928 Alarm State:  0
Fri Nov 17 06:15:07 PST 2017 ON: 20.04 +20.0 19.72 - 5.6 32.2 0D 13 472A 0A1A Alarm State:  0
Fri Nov 17 06:14:06 PST 2017 ON: 19.96 +20.0 19.58 - 3.1 34.2 04 14 481D 0A00 Alarm State:  0
Fri Nov 17 06:13:04 PST 2017 ON: 20.03 +20.0 19.69 - 4.5 33.4 0D 14 4826 0912 Alarm State:  0
Fri Nov 17 06:12:03 PST 2017 ON: 20.01 +20.0 19.65 - 4.4 32.9 00 14 481C 090F Alarm State:  0
Fri Nov 17 06:11:01 PST 2017 ON: 20.00 +20.0 19.62 - 3.5 34.0 05 14 4811 090B Alarm State:  0
Fri Nov 17 06:10:00 PST 2017 ON: 20.01 +20.0 19.72 - 5.8 32.2 0D 13 4728 0A0C Alarm State:  0
Fri Nov 17 06:08:59 PST 2017 ON: 19.97 +20.0 19.61 - 3.1 34.2 05 14 481E 0A01 Alarm State:  0
Fri Nov 17 06:07:57 PST 2017 ON: 20.01 +20.0 19.70 - 4.3 33.8 0D 13 4810 091E Alarm State:  0
Fri Nov 17 06:06:56 PST 2017 ON: 19.98 +20.0 19.69 - 5.1 32.9 0D 14 4714 0930 Alarm State:  0
Fri Nov 17 06:05:44 PST 2017 ON: 19.99 +20.0 19.59 - 2.5 33.9 01 14 4820 0905 Alarm State:  0
Fri Nov 17 06:04:43 PST 2017 ON: 19.99 +20.0 19.65 - 3.5 34.0 05 14 4810 090A Alarm State:  0
Fri Nov 17 06:03:41 PST 2017 ON: 19.98 +20.0 19.68 - 4.9 33.1 08 14 4801 0A0A Alarm State:  0
Fri Nov 17 06:02:40 PST 2017 ON: 20.00 +20.0 19.58 - 2.1 34.3 07 14 490A 0913 Alarm State:  0
Fri Nov 17 06:01:38 PST 2017 ON: 20.01 +20.0 19.68 - 4.5 33.5 0D 14 4818 091B Alarm State:  0
Fri Nov 17 06:00:37 PST 2017 ON: 20.05 +20.0 19.71 - 5.3 32.5 0A 13 4731 0920 Alarm State:  0
Fri Nov 17 05:59:35 PST 2017 ON: 20.00 +20.0 19.63 - 3.1 34.2 0A 14 480B 0906 Alarm State:  0
Fri Nov 17 05:58:34 PST 2017 ON: 20.02 +20.0 19.69 - 5.4 32.9 0D 14 472C 0926 Alarm State:  0
Fri Nov 17 05:57:32 PST 2017 ON: 20.00 +20.0 19.57 - 2.3 34.2 07 14 482A 0917 Alarm State:  0
Fri Nov 17 05:56:31 PST 2017 ON: 19.99 +20.0 19.66 - 4.5 33.4 00 14 4812 091C Alarm State:  0
Fri Nov 17 05:55:29 PST 2017 ON: 20.02 +20.0 19.67 - 4.5 33.1 02 14 4817 090E Alarm State:  0
Fri Nov 17 05:54:28 PST 2017 ON: 20.00 +20.0 19.60 - 2.7 33.8 00 14 4821 091A Alarm State:  0
Fri Nov 17 05:53:26 PST 2017 ON: 19.99 +20.0 19.66 - 4.5 33.3 05 14 4806 0A1A Alarm State:  0
Fri Nov 17 05:52:25 PST 2017 ON: 19.98 +20.0 19.59 - 2.2 34.1 00 14 490D 0920 Alarm State:  0
Fri Nov 17 05:51:23 PST 2017 ON: 20.00 +20.0 19.64 - 3.5 33.9 00 14 482B 0926 Alarm State:  0
Fri Nov 17 05:50:22 PST 2017 ON: 20.00 +20.0 19.71 - 4.7 33.1 0D 13 480D 0902 Alarm State:  0
Fri Nov 17 05:49:20 PST 2017 ON: 20.00 +20.0 19.69 - 4.6 34.0 0A 14 471F 0916 Alarm State:  0
Fri Nov 17 05:48:19 PST 2017 ON: 20.01 +20.0 19.63 - 3.1 33.7 02 14 4731 0907 Alarm State:  0
Fri Nov 17 05:47:17 PST 2017 ON: 19.98 +20.0 19.64 - 3.9 33.3 00 14 472E 092D Alarm State:  0
Fri Nov 17 05:46:16 PST 2017 ON: 20.03 +20.0 19.65 - 3.4 33.5 05 14 4829 0911 Alarm State:  0
Fri Nov 17 05:45:14 PST 2017 ON: 20.00 +20.0 19.64 - 3.4 34.1 05 14 4820 0907 Alarm State:  0
Fri Nov 17 05:44:13 PST 2017 ON: 20.03 +20.0 19.68 - 4.4 33.4 0D 14 4812 0904 Alarm State:  0
Fri Nov 17 05:43:11 PST 2017 ON: 20.06 +20.0 19.70 - 5.4 32.5 0A 13 4726 0914 Alarm State:  0
Fri Nov 17 05:42:10 PST 2017 ON: 19.97 +20.0 19.62 - 3.4 34.1 00 14 472C 0905 Alarm State:  0
Fri Nov 17 05:41:08 PST 2017 ON: 20.00 +20.0 19.69 - 5.1 32.9 08 14 471B 0928 Alarm State:  0
Fri Nov 17 05:40:07 PST 2017 ON: 19.96 +20.0 19.59 - 2.2 34.2 07 14 4818 0913 Alarm State:  0
Fri Nov 17 05:39:05 PST 2017 ON: 20.00 +20.0 19.67 - 4.3 33.1 02 14 4805 090F Alarm State:  0
Fri Nov 17 05:38:04 PST 2017 ON: 20.03 +20.0 19.66 - 3.7 33.4 00 14 480D 091D Alarm State:  0
Fri Nov 17 05:37:02 PST 2017 ON: 20.01 +20.0 19.64 - 3.6 33.7 00 14 4710 0908 Alarm State:  0
Fri Nov 17 05:36:01 PST 2017 ON: 19.99 +20.0 19.63 - 4.0 33.4 07 14 462F 0931 Alarm State:  0
Fri Nov 17 05:34:59 PST 2017 ON: 20.01 +20.0 19.67 - 4.1 33.2 00 14 4721 0920 Alarm State:  0
Fri Nov 17 05:33:58 PST 2017 ON: 19.99 +20.0 19.62 - 3.6 33.8 05 14 472D 0A01 Alarm State:  0
Fri Nov 17 05:32:56 PST 2017 ON: 20.02 +20.0 19.70 - 4.6 33.2 0A 13 4811 0905 Alarm State:  0
Fri Nov 17 05:31:55 PST 2017 ON: 20.04 +20.0 19.65 - 3.5 33.5 00 14 4805 0912 Alarm State:  0
Fri Nov 17 05:30:53 PST 2017 ON: 19.98 +20.0 19.63 - 4.0 33.5 07 14 472B 0A08 Alarm State:  0
Fri Nov 17 05:29:52 PST 2017 ON: 20.03 +20.0 19.66 - 3.7 33.4 00 14 4824 0928 Alarm State:  0
Fri Nov 17 05:28:50 PST 2017 ON: 20.02 +20.0 19.61 - 2.9 34.0 02 14 4825 0920 Alarm State:  0
Fri Nov 17 05:27:49 PST 2017 ON: 19.98 +20.0 19.66 - 4.1 33.6 00 14 480B 0A00 Alarm State:  0
Fri Nov 17 05:26:47 PST 2017 ON: 20.04 +20.0 19.67 - 4.1 33.1 00 14 4820 0912 Alarm State:  0
Fri Nov 17 05:25:46 PST 2017 ON: 20.00 +20.0 19.65 - 3.3 33.9 00 14 4802 0915 Alarm State:  0
Fri Nov 17 05:24:44 PST 2017 ON: 19.99 +20.0 19.64 - 3.9 33.7 05 14 4724 0A13 Alarm State:  0
Fri Nov 17 05:23:43 PST 2017 ON: 19.99 +20.0 19.69 - 5.1 32.5 08 14 4805 0A13 Alarm State:  0
Fri Nov 17 05:22:41 PST 2017 ON: 19.97 +20.0 19.60 - 2.7 34.2 00 14 4832 092D Alarm State:  0
Fri Nov 17 05:21:40 PST 2017 ON: 20.00 +20.0 19.67 - 4.2 33.6 00 14 4822 0928 Alarm State:  0
Fri Nov 17 05:20:38 PST 2017 ON: 20.00 +20.0 19.68 - 4.5 33.4 05 14 4807 0907 Alarm State:  0
Fri Nov 17 05:19:37 PST 2017 ON: 20.02 +20.0 19.70 - 5.1 33.1 0D 13 470C 091C Alarm State:  0
Fri Nov 17 05:18:35 PST 2017 ON: 20.00 +20.0 19.59 - 2.8 34.1 07 14 4721 0900 Alarm State:  0
Fri Nov 17 05:17:34 PST 2017 ON: 20.00 +20.0 19.68 - 5.0 33.0 0C 14 4701 0A09 Alarm State:  0
Fri Nov 17 05:16:32 PST 2017 ON: 19.99 +20.0 19.60 - 2.5 34.1 02 14 4805 091A Alarm State:  0
Fri Nov 17 05:15:31 PST 2017 ON: 20.01 +20.0 19.63 - 3.6 34.0 00 14 4809 0915 Alarm State:  0
Fri Nov 17 05:14:29 PST 2017 ON: 20.03 +20.0 19.70 - 4.8 33.2 0D 13 471B 091F Alarm State:  0
Fri Nov 17 05:13:28 PST 2017 ON: 20.02 +20.0 19.66 - 4.3 33.0 00 14 471F 091E Alarm State:  0
Fri Nov 17 05:12:26 PST 2017 ON: 20.00 +20.0 19.62 - 3.6 33.8 00 14 4722 0A02 Alarm State:  0
Fri Nov 17 05:11:25 PST 2017 ON: 20.02 +20.0 19.67 - 4.7 32.8 00 14 4805 090B Alarm State:  0
Fri Nov 17 05:10:23 PST 2017 ON: 19.98 +20.0 19.64 - 3.4 34.0 00 14 4802 091E Alarm State:  0
Fri Nov 17 05:09:22 PST 2017 ON: 19.99 +20.0 19.70 - 5.1 32.9 0D 14 4802 0A05 Alarm State:  0
Fri Nov 17 05:08:20 PST 2017 ON: 19.98 +20.0 19.60 - 2.7 34.1 00 14 482F 091C Alarm State:  0
Fri Nov 17 05:07:19 PST 2017 ON: 20.00 +20.0 19.66 - 4.2 33.4 07 14 4817 0921 Alarm State:  0
Fri Nov 17 05:06:17 PST 2017 ON: 20.02 +20.0 19.64 - 4.1 33.2 00 14 481A 0913 Alarm State:  0
Fri Nov 17 05:05:16 PST 2017 ON: 20.01 +20.0 19.65 - 3.7 33.8 00 14 480A 0910 Alarm State:  0
Fri Nov 17 05:04:14 PST 2017 ON: 20.03 +20.0 19.69 - 5.1 32.5 0D 14 4803 0921 Alarm State:  0
Fri Nov 17 05:03:13 PST 2017 ON: 20.01 +20.0 19.63 - 3.5 33.9 07 14 4809 0A00 Alarm State:  0
Fri Nov 17 05:02:11 PST 2017 ON: 20.04 +20.0 19.70 - 5.1 32.8 0D 13 4804 0916 Alarm State:  0
Fri Nov 17 05:01:10 PST 2017 ON: 20.00 +20.0 19.62 - 3.4 33.6 00 14 472B 090D Alarm State:  0
Fri Nov 17 05:00:08 PST 2017 ON: 19.99 +20.0 19.62 - 3.7 33.7 00 14 4801 0931 Alarm State:  0
Fri Nov 17 04:59:07 PST 2017 ON: 20.01 +20.0 19.67 - 4.0 33.3 00 14 4819 0904 Alarm State:  0
Fri Nov 17 04:58:05 PST 2017 ON: 20.01 +20.0 19.65 - 3.4 33.7 00 14 480E 0906 Alarm State:  0
Fri Nov 17 04:57:04 PST 2017 ON: 19.98 +20.0 19.65 - 4.2 33.4 05 14 472B 0A01 Alarm State:  0
Fri Nov 17 04:56:02 PST 2017 ON: 20.01 +20.0 19.60 - 2.8 33.7 00 14 482B 0916 Alarm State:  0
Fri Nov 17 04:55:01 PST 2017 ON: 20.01 +20.0 19.66 - 3.7 34.0 05 14 480B 0919 Alarm State:  0
Fri Nov 17 04:53:59 PST 2017 ON: 19.99 +20.0 19.66 - 4.2 33.5 05 14 4804 0913 Alarm State:  0
Fri Nov 17 04:52:58 PST 2017 ON: 20.02 +20.0 19.70 - 4.9 33.0 0D 13 4810 091F Alarm State:  0
Fri Nov 17 04:51:56 PST 2017 ON: 19.99 +20.0 19.62 - 2.8 34.1 07 14 4829 0926 Alarm State:  0
Fri Nov 17 04:50:55 PST 2017 ON: 20.01 +20.0 19.66 - 4.4 33.4 0C 14 4803 092D Alarm State:  0
Fri Nov 17 04:49:53 PST 2017 ON: 20.02 +20.0 19.63 - 3.3 33.7 05 14 481C 0901 Alarm State:  0
Fri Nov 17 04:48:52 PST 2017 ON: 20.00 +20.0 19.63 - 3.7 34.0 05 14 480A 0929 Alarm State:  0
Fri Nov 17 04:47:50 PST 2017 ON: 20.03 +20.0 19.72 - 5.4 32.9 0D 12 472A 091D Alarm State:  0
Fri Nov 17 04:46:49 PST 2017 ON: 20.00 +20.0 19.61 - 2.9 34.0 02 14 4809 0923 Alarm State:  0
Fri Nov 17 04:45:47 PST 2017 ON: 20.00 +20.0 19.65 - 4.5 33.2 05 14 4727 0A00 Alarm State:  0
Fri Nov 17 04:44:46 PST 2017 ON: 19.99 +20.0 19.61 - 2.6 33.9 00 14 4822 0918 Alarm State:  0
Fri Nov 17 04:43:44 PST 2017 ON: 20.02 +20.0 19.66 - 4.6 32.9 00 14 472A 0901 Alarm State:  0
Fri Nov 17 04:42:43 PST 2017 ON: 19.97 +20.0 19.62 - 3.5 33.8 07 14 472A 090F Alarm State:  0
Fri Nov 17 04:41:41 PST 2017 ON: 20.02 +20.0 19.68 - 4.5 33.0 08 14 4806 0918 Alarm State:  0
Fri Nov 17 04:40:40 PST 2017 ON: 19.99 +20.0 19.65 - 3.4 34.0 02 14 472F 0A0D Alarm State:  0
Fri Nov 17 04:39:38 PST 2017 ON: 19.99 +20.0 19.70 - 5.3 32.7 0D 14 4732 0A28 Alarm State:  0
Fri Nov 17 04:38:37 PST 2017 ON: 19.96 +20.0 19.56 - 2.4 34.4 09 14 4908 0920 Alarm State:  0
Fri Nov 17 04:37:35 PST 2017 ON: 20.01 +20.0 19.69 - 5.1 32.8 0D 14 482E 090E Alarm State:  0
Fri Nov 17 04:36:34 PST 2017 ON: 20.02 +20.0 19.62 - 2.5 34.2 07 14 490D 0914 Alarm State:  0
Fri Nov 17 04:35:32 PST 2017 ON: 20.00 +20.0 19.66 - 3.8 33.9 00 14 4815 0920 Alarm State:  0
Fri Nov 17 04:34:31 PST 2017 ON: 20.04 +20.0 19.70 - 4.6 33.3 0D 13 4724 0906 Alarm State:  0
Fri Nov 17 04:33:29 PST 2017 ON: 20.04 +20.0 19.66 - 4.3 33.2 05 14 471D 0904 Alarm State:  0
Fri Nov 17 04:32:28 PST 2017 ON: 20.01 +20.0 19.65 - 3.9 33.7 05 14 4713 0920 Alarm State:  0
Fri Nov 17 04:31:26 PST 2017 ON: 20.04 +20.0 19.69 - 4.7 32.7 0D 14 4720 0927 Alarm State:  0
Fri Nov 17 04:30:25 PST 2017 ON: 19.98 +20.0 19.60 - 3.3 34.0 05 14 4803 092C Alarm State:  0
Fri Nov 17 04:29:23 PST 2017 ON: 20.03 +20.0 19.68 - 4.5 33.6 0D 14 4814 0906 Alarm State:  0
Fri Nov 17 04:28:22 PST 2017 ON: 20.01 +20.0 19.70 - 5.0 33.0 0A 13 471D 0917 Alarm State:  0
Fri Nov 17 04:27:20 PST 2017 ON: 20.01 +20.0 19.59 - 2.8 34.1 07 14 4805 091A Alarm State:  0
Fri Nov 17 04:26:19 PST 2017 ON: 20.01 +20.0 19.67 - 4.2 33.3 00 14 471A 0925 Alarm State:  0
Fri Nov 17 04:25:17 PST 2017 ON: 20.06 +20.0 19.65 - 3.6 33.5 00 14 4725 0911 Alarm State:  0
Fri Nov 17 04:24:16 PST 2017 ON: 19.99 +20.0 19.64 - 4.0 33.4 02 14 4719 0A0C Alarm State:  0
Fri Nov 17 04:23:14 PST 2017 ON: 20.04 +20.0 19.66 - 3.7 33.4 07 14 480B 0904 Alarm State:  0
Fri Nov 17 04:22:13 PST 2017 ON: 19.98 +20.0 19.62 - 3.7 33.8 00 14 4730 092A Alarm State:  0
Fri Nov 17 04:21:11 PST 2017 ON: 20.02 +20.0 19.69 - 4.7 32.8 00 14 4800 0917 Alarm State:  0
Fri Nov 17 04:20:10 PST 2017 ON: 19.97 +20.0 19.61 - 2.9 34.1 07 14 4808 0921 Alarm State:  0
Fri Nov 17 04:19:08 PST 2017 ON: 19.99 +20.0 19.66 - 4.7 33.2 05 14 4722 0927 Alarm State:  0
Fri Nov 17 04:18:07 PST 2017 ON: 19.99 +20.0 19.59 - 2.2 34.2 07 14 481F 0913 Alarm State:  0
Fri Nov 17 04:17:05 PST 2017 ON: 20.01 +20.0 19.67 - 4.1 33.8 02 14 4721 0921 Alarm State:  0
Fri Nov 17 04:16:04 PST 2017 ON: 19.98 +20.0 19.66 - 4.5 33.3 0A 14 4700 0A02 Alarm State:  0
Fri Nov 17 04:15:02 PST 2017 ON: 20.00 +20.0 19.61 - 2.6 33.9 02 14 4732 0925 Alarm State:  0
Fri Nov 17 04:14:01 PST 2017 ON: 19.99 +20.0 19.67 - 4.2 33.4 00 14 4725 0923 Alarm State:  0
Fri Nov 17 04:12:59 PST 2017 ON: 20.03 +20.0 19.61 - 2.7 33.8 00 14 481E 0909 Alarm State:  0
Fri Nov 17 04:11:58 PST 2017 ON: 20.02 +20.0 19.66 - 3.7 34.0 07 14 4807 090D Alarm State:  0
Fri Nov 17 04:10:56 PST 2017 ON: 20.01 +20.0 19.71 - 5.8 32.2 05 13 471E 0A10 Alarm State:  0
Fri Nov 17 04:09:55 PST 2017 ON: 19.97 +20.0 19.61 - 3.0 34.1 00 14 4816 0921 Alarm State:  0
Fri Nov 17 04:08:53 PST 2017 ON: 20.01 +20.0 19.68 - 4.6 33.2 0D 14 481A 0902 Alarm State:  0
Fri Nov 17 04:07:52 PST 2017 ON: 20.02 +20.0 19.66 - 4.4 33.0 00 14 4807 090C Alarm State:  0
Fri Nov 17 04:06:51 PST 2017 ON: 19.98 +20.0 19.65 - 3.5 33.8 07 14 4732 0926 Alarm State:  0
Fri Nov 17 04:05:49 PST 2017 ON: 20.03 +20.0 19.72 - 4.9 33.1 0A 12 4800 090E Alarm State:  0
Fri Nov 17 04:04:48 PST 2017 ON: 20.02 +20.0 19.63 - 2.9 34.1 07 14 4721 090D Alarm State:  0
Fri Nov 17 04:03:46 PST 2017 ON: 20.00 +20.0 19.70 - 5.5 32.7 0D 14 4629 0A1D Alarm State:  0
Fri Nov 17 04:02:45 PST 2017 ON: 19.98 +20.0 19.57 - 2.6 34.3 09 14 472E 0929 Alarm State:  0
Fri Nov 17 04:01:43 PST 2017 ON: 20.04 +20.0 19.71 - 5.3 32.8 0D 13 471B 0923 Alarm State:  0
Fri Nov 17 04:00:42 PST 2017 ON: 19.98 +20.0 19.61 - 2.7 34.2 00 14 4810 0929 Alarm State:  0
Fri Nov 17 03:59:40 PST 2017 ON: 19.99 +20.0 19.66 - 4.3 33.4 00 14 4726 0904 Alarm State:  0
Fri Nov 17 03:58:39 PST 2017 ON: 20.03 +20.0 19.70 - 4.8 32.7 05 13 4720 091A Alarm State:  0
Fri Nov 17 03:57:37 PST 2017 ON: 19.98 +20.0 19.63 - 3.3 34.1 02 14 471B 0908 Alarm State:  0
Fri Nov 17 03:56:36 PST 2017 ON: 20.02 +20.0 19.70 - 4.9 33.1 0D 14 470B 0A03 Alarm State:  0
Fri Nov 17 03:55:34 PST 2017 ON: 20.01 +20.0 19.60 - 2.5 34.1 05 14 4803 0920 Alarm State:  0
Fri Nov 17 03:54:33 PST 2017 ON: 19.98 +20.0 19.65 - 4.1 33.5 00 14 471E 091F Alarm State:  0
Fri Nov 17 03:53:31 PST 2017 ON: 20.01 +20.0 19.64 - 3.7 33.4 00 14 4810 0914 Alarm State:  0
Fri Nov 17 03:52:30 PST 2017 ON: 19.98 +20.0 19.62 - 3.6 33.8 05 14 4810 0931 Alarm State:  0
Fri Nov 17 03:51:28 PST 2017 ON: 20.02 +20.0 19.71 - 4.8 33.1 0D 13 4815 0915 Alarm State:  0
Fri Nov 17 03:50:27 PST 2017 ON: 20.04 +20.0 19.66 - 3.9 33.3 00 14 4815 0916 Alarm State:  0
Fri Nov 17 03:49:25 PST 2017 ON: 20.03 +20.0 19.64 - 3.1 34.2 05 14 4814 090A Alarm State:  0
Fri Nov 17 03:48:24 PST 2017 ON: 19.99 +20.0 19.64 - 3.9 33.8 05 14 4731 0911 Alarm State:  0
Fri Nov 17 03:47:22 PST 2017 ON: 19.99 +20.0 19.69 - 4.5 33.5 0D 14 471A 0917 Alarm State:  0
Fri Nov 17 03:46:21 PST 2017 ON: 20.02 +20.0 19.68 - 4.8 32.5 02 14 4716 0A12 Alarm State:  0
Fri Nov 17 03:45:19 PST 2017 ON: 19.97 +20.0 19.62 - 3.5 33.6 0D 14 4802 0931 Alarm State:  0
Fri Nov 17 03:44:18 PST 2017 ON: 20.03 +20.0 19.66 - 3.5 33.5 00 14 482A 0919 Alarm State:  0
Fri Nov 17 03:43:16 PST 2017 ON: 20.01 +20.0 19.65 - 3.8 33.7 05 14 481B 0911 Alarm State:  0
Fri Nov 17 03:42:15 PST 2017 ON: 20.02 +20.0 19.69 - 4.5 33.3 0D 14 4819 0925 Alarm State:  0
Fri Nov 17 03:41:13 PST 2017 ON: 20.03 +20.0 19.66 - 4.1 33.3 00 14 4806 0904 Alarm State:  0
Fri Nov 17 03:40:12 PST 2017 ON: 19.99 +20.0 19.63 - 3.1 33.9 02 14 4727 0903 Alarm State:  0
Fri Nov 17 03:39:10 PST 2017 ON: 19.99 +20.0 19.66 - 4.2 33.3 02 14 470E 0931 Alarm State:  0
Fri Nov 17 03:38:09 PST 2017 ON: 20.01 +20.0 19.63 - 2.9 33.7 00 14 480F 0913 Alarm State:  0
Fri Nov 17 03:37:07 PST 2017 ON: 19.98 +20.0 19.62 - 4.0 33.5 05 14 472B 0911 Alarm State:  0
Fri Nov 17 03:36:06 PST 2017 ON: 20.00 +20.0 19.68 - 4.8 32.7 08 14 4806 091D Alarm State:  0
Fri Nov 17 03:35:04 PST 2017 ON: 19.99 +20.0 19.61 - 2.8 34.0 00 14 4813 0907 Alarm State:  0
Fri Nov 17 03:34:03 PST 2017 ON: 19.99 +20.0 19.66 - 3.9 33.5 00 14 4805 0906 Alarm State:  0
Fri Nov 17 03:33:01 PST 2017 ON: 20.02 +20.0 19.68 - 4.5 33.0 05 14 4810 0917 Alarm State:  0
Fri Nov 17 03:32:00 PST 2017 ON: 20.01 +20.0 19.61 - 3.0 33.9 05 14 4729 091E Alarm State:  0
Fri Nov 17 03:30:58 PST 2017 ON: 19.99 +20.0 19.65 - 4.3 33.3 00 14 470C 0926 Alarm State:  0
Fri Nov 17 03:29:57 PST 2017 ON: 20.03 +20.0 19.62 - 3.0 33.7 07 14 4801 0918 Alarm State:  0
Fri Nov 17 03:28:55 PST 2017 ON: 20.00 +20.0 19.65 - 4.0 33.7 05 14 4719 091A Alarm State:  0
Fri Nov 17 03:27:54 PST 2017 ON: 20.04 +20.0 19.70 - 4.9 32.5 08 13 4725 0926 Alarm State:  0
Fri Nov 17 03:26:52 PST 2017 ON: 20.00 +20.0 19.62 - 3.4 33.8 0A 14 4803 092A Alarm State:  0
Fri Nov 17 03:25:51 PST 2017 ON: 20.02 +20.0 19.69 - 4.6 32.8 05 14 4813 0928 Alarm State:  0
Fri Nov 17 03:24:49 PST 2017 ON: 20.00 +20.0 19.61 - 2.8 34.0 02 14 4816 0914 Alarm State:  0
Fri Nov 17 03:23:48 PST 2017 ON: 20.00 +20.0 19.63 - 3.7 33.8 00 14 481F 092D Alarm State:  0
Fri Nov 17 03:22:46 PST 2017 ON: 20.01 +20.0 19.70 - 4.8 33.1 0D 13 4823 0914 Alarm State:  0
Fri Nov 17 03:21:45 PST 2017 ON: 20.01 +20.0 19.66 - 3.9 33.2 00 14 4826 090A Alarm State:  0
Fri Nov 17 03:20:43 PST 2017 ON: 20.00 +20.0 19.62 - 3.2 34.1 0A 14 481C 0901 Alarm State:  0
Fri Nov 17 03:19:42 PST 2017 ON: 20.00 +20.0 19.67 - 3.9 34.0 05 14 480F 0907 Alarm State:  0
Fri Nov 17 03:18:40 PST 2017 ON: 20.02 +20.0 19.69 - 5.3 32.8 0D 14 471E 091A Alarm State:  0
Fri Nov 17 03:17:39 PST 2017 ON: 20.00 +20.0 19.62 - 2.8 34.1 07 14 480A 091D Alarm State:  0
Fri Nov 17 03:16:37 PST 2017 ON: 20.00 +20.0 19.65 - 4.4 33.4 0A 14 4721 091C Alarm State:  0
Fri Nov 17 03:15:36 PST 2017 ON: 20.04 +20.0 19.66 - 3.8 33.3 00 14 472C 0900 Alarm State:  0
Fri Nov 17 03:14:34 PST 2017 ON: 19.98 +20.0 19.65 - 3.9 33.6 00 14 4712 092A Alarm State:  0
Fri Nov 17 03:13:33 PST 2017 ON: 20.03 +20.0 19.69 - 5.4 32.4 03 14 470B 091C Alarm State:  0
Fri Nov 17 03:12:31 PST 2017 ON: 19.98 +20.0 19.63 - 3.5 34.1 0C 14 470D 0907 Alarm State:  0
Fri Nov 17 03:11:30 PST 2017 ON: 20.01 +20.0 19.71 - 4.8 33.2 0D 13 4631 092C Alarm State:  0
Fri Nov 17 03:10:28 PST 2017 ON: 20.01 +20.0 19.60 - 2.7 34.0 04 14 4718 091C Alarm State:  0
Fri Nov 17 03:09:27 PST 2017 ON: 19.99 +20.0 19.65 - 4.5 33.3 0C 14 4622 0928 Alarm State:  0
Fri Nov 17 03:08:26 PST 2017 ON: 20.02 +20.0 19.60 - 2.6 33.9 00 14 471D 090E Alarm State:  0
Fri Nov 17 03:07:24 PST 2017 ON: 20.02 +20.0 19.68 - 4.2 33.6 05 14 462F 091A Alarm State:  0
Fri Nov 17 03:06:23 PST 2017 ON: 20.00 +20.0 19.63 - 3.2 33.6 00 14 4718 0916 Alarm State:  0
Fri Nov 17 03:05:21 PST 2017 ON: 19.98 +20.0 19.64 - 4.2 33.4 05 14 4705 0A12 Alarm State:  0
Fri Nov 17 03:04:20 PST 2017 ON: 19.99 +20.0 19.60 - 2.7 33.8 00 14 480C 0910 Alarm State:  0
Fri Nov 17 03:03:18 PST 2017 ON: 19.98 +20.0 19.65 - 3.7 33.8 00 14 4730 090E Alarm State:  0
Fri Nov 17 03:02:17 PST 2017 ON: 20.02 +20.0 19.70 - 4.8 32.6 0D 13 480F 0918 Alarm State:  0
Fri Nov 17 03:01:15 PST 2017 ON: 19.99 +20.0 19.60 - 2.8 34.2 05 14 481E 0925 Alarm State:  0
Fri Nov 17 03:00:14 PST 2017 ON: 20.01 +20.0 19.67 - 4.6 33.2 0A 14 4802 0926 Alarm State:  0
Fri Nov 17 02:59:12 PST 2017 ON: 20.01 +20.0 19.60 - 2.4 34.1 05 14 4829 0919 Alarm State:  0
Fri Nov 17 02:58:11 PST 2017 ON: 20.00 +20.0 19.66 - 4.1 33.5 07 14 4803 0922 Alarm State:  0
Fri Nov 17 02:57:09 PST 2017 ON: 20.03 +20.0 19.68 - 4.7 33.0 0A 14 4808 0912 Alarm State:  0
Fri Nov 17 02:56:08 PST 2017 ON: 19.98 +20.0 19.61 - 2.8 34.0 00 14 4806 090D Alarm State:  0
Fri Nov 17 02:55:06 PST 2017 ON: 19.97 +20.0 19.66 - 4.6 33.0 00 14 4726 0A0F Alarm State:  0
Fri Nov 17 02:54:05 PST 2017 ON: 19.97 +20.0 19.59 - 1.9 34.3 00 14 482F 0909 Alarm State:  0
Fri Nov 17 02:53:03 PST 2017 ON: 20.00 +20.0 19.66 - 3.8 33.9 05 14 4810 0911 Alarm State:  0
Fri Nov 17 02:52:02 PST 2017 ON: 20.01 +20.0 19.68 - 4.2 33.6 0A 14 471F 0924 Alarm State:  0
Fri Nov 17 02:51:00 PST 2017 ON: 20.04 +20.0 19.68 - 4.6 32.8 00 14 471C 0922 Alarm State:  0
Fri Nov 17 02:49:59 PST 2017 ON: 19.99 +20.0 19.62 - 3.4 34.1 05 14 4718 0915 Alarm State:  0
Fri Nov 17 02:48:57 PST 2017 ON: 20.04 +20.0 19.73 - 5.5 32.7 0D 12 4707 090D Alarm State:  0
Fri Nov 17 02:47:56 PST 2017 ON: 19.96 +20.0 19.59 - 2.8 34.1 00 14 4717 0917 Alarm State:  0
Fri Nov 17 02:46:54 PST 2017 ON: 19.98 +20.0 19.65 - 4.9 33.0 05 14 4706 0A15 Alarm State:  0
Fri Nov 17 02:45:53 PST 2017 ON: 19.99 +20.0 19.59 - 2.4 34.3 0C 14 4811 0917 Alarm State:  0
Fri Nov 17 02:44:51 PST 2017 ON: 20.03 +20.0 19.71 - 5.0 32.9 0D 13 472D 0917 Alarm State:  0
Fri Nov 17 02:43:50 PST 2017 ON: 20.01 +20.0 19.61 - 2.9 33.8 02 14 4726 0913 Alarm State:  0
Fri Nov 17 02:42:48 PST 2017 ON: 20.01 +20.0 19.65 - 3.8 33.7 07 14 4710 0918 Alarm State:  0
Fri Nov 17 02:41:47 PST 2017 ON: 20.04 +20.0 19.70 - 4.7 33.6 0D 13 470B 0910 Alarm State:  0
Fri Nov 17 02:40:45 PST 2017 ON: 20.01 +20.0 19.71 - 5.6 32.7 08 13 460C 0A25 Alarm State:  0
Fri Nov 17 02:39:44 PST 2017 ON: 19.97 +20.0 19.57 - 2.5 34.2 07 14 4706 0A10 Alarm State:  0
Fri Nov 17 02:38:42 PST 2017 ON: 19.97 +20.0 19.69 - 5.0 32.9 0D 14 4700 0A2A Alarm State:  0
Fri Nov 17 02:37:41 PST 2017 ON: 19.96 +20.0 19.57 - 2.1 34.3 00 14 4808 0930 Alarm State:  0
Fri Nov 17 02:36:39 PST 2017 ON: 20.00 +20.0 19.66 - 4.0 33.7 05 14 480A 0921 Alarm State:  0
Fri Nov 17 02:35:38 PST 2017 ON: 20.04 +20.0 19.71 - 5.4 32.4 0A 13 4732 0919 Alarm State:  0
Fri Nov 17 02:34:36 PST 2017 ON: 20.01 +20.0 19.63 - 3.2 34.2 05 14 480D 091F Alarm State:  0
Fri Nov 17 02:33:35 PST 2017 ON: 20.03 +20.0 19.70 - 5.0 33.0 0D 13 4729 091F Alarm State:  0
Fri Nov 17 02:32:33 PST 2017 ON: 19.99 +20.0 19.59 - 2.6 34.0 00 14 480A 0923 Alarm State:  0
Fri Nov 17 02:31:32 PST 2017 ON: 19.99 +20.0 19.66 - 3.9 33.8 00 14 4724 0929 Alarm State:  0
Fri Nov 17 02:30:30 PST 2017 ON: 20.02 +20.0 19.72 - 5.3 32.6 08 12 4724 091A Alarm State:  0
Fri Nov 17 02:29:29 PST 2017 ON: 19.97 +20.0 19.61 - 2.9 34.3 02 14 4806 0919 Alarm State:  0
Fri Nov 17 02:28:27 PST 2017 ON: 20.03 +20.0 19.69 - 4.9 33.1 0D 14 4725 0914 Alarm State:  0
Fri Nov 17 02:27:26 PST 2017 ON: 20.03 +20.0 19.64 - 3.7 33.4 00 14 4801 0927 Alarm State:  0
Fri Nov 17 02:26:24 PST 2017 ON: 19.98 +20.0 19.64 - 3.7 33.8 07 14 4726 091E Alarm State:  0
Fri Nov 17 02:25:23 PST 2017 ON: 20.03 +20.0 19.69 - 4.6 32.8 08 14 4731 0923 Alarm State:  0
Fri Nov 17 02:24:21 PST 2017 ON: 19.97 +20.0 19.62 - 3.3 34.1 00 14 480A 0912 Alarm State:  0
Fri Nov 17 02:23:20 PST 2017 ON: 20.01 +20.0 19.72 - 5.2 32.9 0D 12 4725 090A Alarm State:  0
Fri Nov 17 02:22:18 PST 2017 ON: 20.00 +20.0 19.61 - 2.8 34.0 07 14 472F 091C Alarm State:  0
Fri Nov 17 02:21:17 PST 2017 ON: 19.99 +20.0 19.66 - 4.4 33.4 02 14 4718 091E Alarm State:  0
Fri Nov 17 02:20:15 PST 2017 ON: 20.03 +20.0 19.62 - 3.4 33.6 00 14 480D 090C Alarm State:  0
Fri Nov 17 02:19:14 PST 2017 ON: 20.00 +20.0 19.60 - 3.4 34.0 07 14 4816 091D Alarm State:  0
Fri Nov 17 02:18:12 PST 2017 ON: 20.01 +20.0 19.68 - 4.9 33.0 0D 14 4818 0908 Alarm State:  0
Fri Nov 17 02:17:11 PST 2017 ON: 20.02 +20.0 19.58 - 2.6 34.0 04 14 4906 0901 Alarm State:  0
Fri Nov 17 02:16:09 PST 2017 ON: 19.98 +20.0 19.64 - 3.7 34.0 05 14 481D 0908 Alarm State:  0
Fri Nov 17 02:15:08 PST 2017 ON: 20.02 +20.0 19.72 - 5.2 33.0 0D 12 472A 090A Alarm State:  0
Fri Nov 17 02:14:06 PST 2017 ON: 20.00 +20.0 19.59 - 2.8 34.1 07 14 4801 0920 Alarm State:  0
Fri Nov 17 02:13:05 PST 2017 ON: 19.99 +20.0 19.68 - 4.9 33.1 0A 14 470D 0A09 Alarm State:  0
Fri Nov 17 02:12:03 PST 2017 ON: 20.01 +20.0 19.60 - 2.4 34.2 05 14 4804 0925 Alarm State:  0
Fri Nov 17 02:11:02 PST 2017 ON: 20.00 +20.0 19.65 - 3.9 33.9 05 14 4716 0908 Alarm State:  0
Fri Nov 17 02:10:00 PST 2017 ON: 20.03 +20.0 19.69 - 5.0 33.0 0D 14 4702 0913 Alarm State:  0
Fri Nov 17 02:08:59 PST 2017 ON: 20.03 +20.0 19.61 - 2.5 34.1 02 14 4729 090E Alarm State:  0
Fri Nov 17 02:07:57 PST 2017 ON: 20.00 +20.0 19.66 - 4.1 33.6 00 14 462E 091F Alarm State:  0
Fri Nov 17 02:06:56 PST 2017 ON: 20.04 +20.0 19.68 - 5.1 32.6 00 14 4615 0925 Alarm State:  0
Fri Nov 17 02:05:54 PST 2017 ON: 19.97 +20.0 19.63 - 3.7 33.7 00 14 461B 0A08 Alarm State:  0
Fri Nov 17 02:04:53 PST 2017 ON: 20.01 +20.0 19.70 - 4.8 32.6 08 14 4703 0A08 Alarm State:  0
Fri Nov 17 02:03:52 PST 2017 ON: 19.98 +20.0 19.62 - 3.2 34.1 0C 14 4723 0924 Alarm State:  0
Fri Nov 17 02:02:50 PST 2017 ON: 20.00 +20.0 19.68 - 4.2 33.5 0D 14 480D 0917 Alarm State:  0
Fri Nov 17 02:01:49 PST 2017 ON: 20.05 +20.0 19.68 - 4.6 32.8 00 14 472E 0912 Alarm State:  0
Fri Nov 17 02:00:47 PST 2017 ON: 20.02 +20.0 19.61 - 3.1 33.9 07 14 472B 090C Alarm State:  0
Fri Nov 17 01:59:46 PST 2017 ON: 19.97 +20.0 19.64 - 4.5 33.2 05 14 4721 0A03 Alarm State:  0
Fri Nov 17 01:58:44 PST 2017 ON: 20.01 +20.0 19.59 - 2.2 34.2 04 14 4827 0902 Alarm State:  0
Fri Nov 17 01:57:43 PST 2017 ON: 19.99 +20.0 19.64 - 3.8 33.9 00 14 4805 090F Alarm State:  0
Fri Nov 17 01:56:41 PST 2017 ON: 20.01 +20.0 19.71 - 5.6 32.7 08 13 4711 091B Alarm State:  0
Fri Nov 17 01:55:40 PST 2017 ON: 19.99 +20.0 19.61 - 3.0 34.2 05 14 4723 092A Alarm State:  0
Fri Nov 17 01:54:38 PST 2017 ON: 20.01 +20.0 19.70 - 5.4 32.8 0D 13 4702 0903 Alarm State:  0
Fri Nov 17 01:53:37 PST 2017 ON: 20.02 +20.0 19.63 - 2.9 34.1 02 14 471C 0905 Alarm State:  0
Fri Nov 17 01:52:35 PST 2017 ON: 20.01 +20.0 19.69 - 4.8 33.1 0D 14 4703 0A09 Alarm State:  0
Fri Nov 17 01:51:34 PST 2017 ON: 20.00 +20.0 19.61 - 2.6 33.9 00 14 4806 090F Alarm State:  0
Fri Nov 17 01:50:32 PST 2017 ON: 19.99 +20.0 19.63 - 3.5 33.9 00 14 480B 092C Alarm State:  0
Fri Nov 17 01:49:31 PST 2017 ON: 20.03 +20.0 19.69 - 4.8 33.2 0D 14 4804 091E Alarm State:  0
Fri Nov 17 01:48:29 PST 2017 ON: 20.00 +20.0 19.68 - 4.8 32.7 05 14 4802 091D Alarm State:  0
Fri Nov 17 01:47:28 PST 2017 ON: 19.97 +20.0 19.58 - 2.9 34.3 00 14 4821 091B Alarm State:  0
Fri Nov 17 01:46:26 PST 2017 ON: 20.03 +20.0 19.70 - 5.1 33.0 0D 13 4815 0910 Alarm State:  0
Fri Nov 17 01:45:25 PST 2017 ON: 19.99 +20.0 19.61 - 2.7 33.9 05 14 481C 091F Alarm State:  0
Fri Nov 17 01:44:23 PST 2017 ON: 20.01 +20.0 19.65 - 4.0 33.7 05 14 4731 0926 Alarm State:  0
Fri Nov 17 01:43:22 PST 2017 ON: 20.03 +20.0 19.70 - 4.6 33.0 0A 13 4807 090A Alarm State:  0
Fri Nov 17 01:42:20 PST 2017 ON: 20.00 +20.0 19.59 - 2.5 34.1 01 14 4801 0920 Alarm State:  0
Fri Nov 17 01:41:19 PST 2017 ON: 20.02 +20.0 19.67 - 4.2 33.6 07 14 4713 0905 Alarm State:  0
Fri Nov 17 01:40:17 PST 2017 ON: 20.02 +20.0 19.67 - 4.6 32.9 00 14 4709 0A00 Alarm State:  0
Fri Nov 17 01:39:16 PST 2017 ON: 19.97 +20.0 19.64 - 3.9 33.6 00 14 470C 0A0D Alarm State:  0
Fri Nov 17 01:38:14 PST 2017 ON: 20.01 +20.0 19.63 - 2.9 33.8 00 14 480D 0913 Alarm State:  0
Fri Nov 17 01:37:03 PST 2017 ON: 19.99 +20.0 19.64 - 3.7 34.0 05 14 471A 091D Alarm State:  0
Fri Nov 17 01:36:01 PST 2017 ON: 20.04 +20.0 19.70 - 5.0 33.1 0D 13 4708 091E Alarm State:  0
Fri Nov 17 01:35:00 PST 2017 ON: 20.02 +20.0 19.63 - 3.2 33.8 02 14 471B 0908 Alarm State:  0
Fri Nov 17 01:33:58 PST 2017 ON: 19.98 +20.0 19.65 - 4.1 33.5 07 14 4713 0928 Alarm State:  0
Fri Nov 17 01:32:57 PST 2017 ON: 20.02 +20.0 19.63 - 3.5 33.6 00 14 4815 090F Alarm State:  0
Fri Nov 17 01:31:55 PST 2017 ON: 19.97 +20.0 19.63 - 3.7 33.9 05 14 4815 0923 Alarm State:  0
Fri Nov 17 01:30:54 PST 2017 ON: 20.01 +20.0 19.71 - 5.5 32.6 0A 13 4814 0A0B Alarm State:  0
Fri Nov 17 01:29:52 PST 2017 ON: 19.98 +20.0 19.60 - 2.6 34.2 07 14 4905 0927 Alarm State:  0
Fri Nov 17 01:28:51 PST 2017 ON: 20.00 +20.0 19.67 - 4.2 33.5 0C 14 4829 0927 Alarm State:  0
Fri Nov 17 01:27:50 PST 2017 ON: 20.03 +20.0 19.68 - 4.6 33.4 0D 14 482D 0914 Alarm State:  0
Fri Nov 17 01:26:48 PST 2017 ON: 20.04 +20.0 19.69 - 4.6 33.3 0D 14 481A 091C Alarm State:  0
Fri Nov 17 01:25:47 PST 2017 ON: 20.01 +20.0 19.63 - 2.6 34.0 00 14 4828 090D Alarm State:  0
Fri Nov 17 01:24:45 PST 2017 ON: 20.00 +20.0 19.67 - 4.3 33.6 00 14 472A 0921 Alarm State:  0
Fri Nov 17 01:23:44 PST 2017 ON: 20.02 +20.0 19.71 - 5.0 32.8 03 13 4724 0918 Alarm State:  0
Fri Nov 17 01:22:42 PST 2017 ON: 19.98 +20.0 19.64 - 3.4 34.1 0A 14 4723 0908 Alarm State:  0
Fri Nov 17 01:21:41 PST 2017 ON: 20.03 +20.0 19.73 - 5.8 32.2 0D 12 470B 0A09 Alarm State:  0
Fri Nov 17 01:20:39 PST 2017 ON: 19.98 +20.0 19.59 - 2.9 34.2 09 14 472E 092C Alarm State:  0
Fri Nov 17 01:19:38 PST 2017 ON: 20.04 +20.0 19.71 - 5.2 32.9 0D 13 4726 091D Alarm State:  0
Fri Nov 17 01:18:36 PST 2017 ON: 20.01 +20.0 19.62 - 2.8 34.3 0A 14 4818 0912 Alarm State:  0
Fri Nov 17 01:17:35 PST 2017 ON: 20.01 +20.0 19.68 - 5.1 33.1 00 14 472F 0919 Alarm State:  0
Fri Nov 17 01:16:33 PST 2017 ON: 20.02 +20.0 19.64 - 3.2 33.7 00 14 4730 091B Alarm State:  0
Fri Nov 17 01:15:32 PST 2017 ON: 20.01 +20.0 19.65 - 3.8 33.7 07 14 471D 0919 Alarm State:  0
Fri Nov 17 01:14:30 PST 2017 ON: 20.02 +20.0 19.69 - 4.7 32.7 05 14 4723 0900 Alarm State:  0
Fri Nov 17 01:13:29 PST 2017 ON: 20.00 +20.0 19.62 - 3.0 34.2 00 14 472C 0913 Alarm State:  0
Fri Nov 17 01:12:27 PST 2017 ON: 20.00 +20.0 19.69 - 4.8 33.3 0D 14 470A 091C Alarm State:  0
Fri Nov 17 01:11:26 PST 2017 ON: 19.99 +20.0 19.59 - 2.4 34.1 01 14 472D 0919 Alarm State:  0
Fri Nov 17 01:10:24 PST 2017 ON: 19.99 +20.0 19.67 - 4.5 33.2 02 14 4719 0A1E Alarm State:  0
Fri Nov 17 01:09:23 PST 2017 ON: 19.99 +20.0 19.62 - 3.1 33.6 00 14 4817 0929 Alarm State:  0
Fri Nov 17 01:08:21 PST 2017 ON: 19.98 +20.0 19.62 - 3.5 34.0 05 14 4813 0918 Alarm State:  0
Fri Nov 17 01:07:20 PST 2017 ON: 20.00 +20.0 19.68 - 4.2 33.6 0A 14 480A 090E Alarm State:  0
Fri Nov 17 01:06:18 PST 2017 ON: 20.03 +20.0 19.68 - 4.7 32.8 00 14 472D 0A15 Alarm State:  0
Fri Nov 17 01:05:17 PST 2017 ON: 19.96 +20.0 19.61 - 3.7 33.5 0C 14 480D 0A0C Alarm State:  0
Fri Nov 17 01:04:15 PST 2017 ON: 20.04 +20.0 19.63 - 3.1 33.7 00 14 490C 0918 Alarm State:  0
Fri Nov 17 01:03:14 PST 2017 ON: 20.00 +20.0 19.65 - 3.6 33.9 07 14 482A 0914 Alarm State:  0
Fri Nov 17 01:02:12 PST 2017 ON: 20.03 +20.0 19.71 - 5.1 32.6 08 13 481A 090B Alarm State:  0
Fri Nov 17 01:01:11 PST 2017 ON: 20.01 +20.0 19.61 - 2.9 34.1 07 14 481D 0901 Alarm State:  0
Fri Nov 17 01:00:09 PST 2017 ON: 19.98 +20.0 19.67 - 4.7 33.2 00 14 472A 090C Alarm State:  0
Fri Nov 17 00:59:08 PST 2017 ON: 20.01 +20.0 19.64 - 3.3 33.5 00 14 481E 0907 Alarm State:  0
Fri Nov 17 00:58:06 PST 2017 ON: 19.98 +20.0 19.63 - 3.5 34.0 00 14 4812 091B Alarm State:  0
Fri Nov 17 00:57:05 PST 2017 ON: 19.99 +20.0 19.68 - 4.3 33.3 0A 14 4809 090D Alarm State:  0
Fri Nov 17 00:56:03 PST 2017 ON: 20.04 +20.0 19.68 - 4.5 33.0 0D 14 4801 0923 Alarm State:  0
Fri Nov 17 00:55:02 PST 2017 ON: 20.01 +20.0 19.63 - 3.3 33.8 07 14 471D 0927 Alarm State:  0
Fri Nov 17 00:54:00 PST 2017 ON: 20.00 +20.0 19.64 - 4.1 33.4 00 14 4715 0A20 Alarm State:  0
Fri Nov 17 00:52:59 PST 2017 ON: 20.02 +20.0 19.64 - 3.1 33.7 00 14 4817 0900 Alarm State:  0
Fri Nov 17 00:51:57 PST 2017 ON: 19.99 +20.0 19.64 - 4.0 33.6 05 14 480D 0924 Alarm State:  0
Fri Nov 17 00:50:56 PST 2017 ON: 20.04 +20.0 19.64 - 3.8 33.3 00 14 482E 091B Alarm State:  0
Fri Nov 17 00:49:54 PST 2017 ON: 19.99 +20.0 19.61 - 3.2 34.1 00 14 481A 091E Alarm State:  0
Fri Nov 17 00:48:53 PST 2017 ON: 19.99 +20.0 19.65 - 4.4 33.3 00 14 4809 0926 Alarm State:  0
Fri Nov 17 00:47:51 PST 2017 ON: 20.01 +20.0 19.62 - 2.9 33.7 00 14 4825 091C Alarm State:  0
Fri Nov 17 00:46:50 PST 2017 ON: 20.00 +20.0 19.66 - 3.6 34.0 00 14 4800 0901 Alarm State:  0
Fri Nov 17 00:45:48 PST 2017 ON: 19.99 +20.0 19.68 - 4.9 33.1 0A 14 4719 0A08 Alarm State:  0
Fri Nov 17 00:44:47 PST 2017 ON: 19.98 +20.0 19.60 - 2.3 34.2 07 14 481D 0916 Alarm State:  0
Fri Nov 17 00:43:45 PST 2017 ON: 20.01 +20.0 19.67 - 4.4 33.3 0C 14 4817 0A0F Alarm State:  0
Fri Nov 17 00:42:44 PST 2017 ON: 20.00 +20.0 19.60 - 2.4 34.0 00 14 4913 0920 Alarm State:  0
Fri Nov 17 00:41:42 PST 2017 ON: 20.02 +20.0 19.66 - 3.7 34.1 02 14 4822 090C Alarm State:  0
Fri Nov 17 00:40:41 PST 2017 ON: 20.03 +20.0 19.66 - 4.2 33.8 07 14 4805 0918 Alarm State:  0
Fri Nov 17 00:39:39 PST 2017 ON: 20.01 +20.0 19.72 - 5.6 32.4 0D 12 4716 0923 Alarm State:  0
Fri Nov 17 00:38:38 PST 2017 ON: 19.98 +20.0 19.60 - 2.9 34.2 05 14 480A 0928 Alarm State:  0
Fri Nov 17 00:37:36 PST 2017 ON: 19.99 +20.0 19.68 - 4.6 33.3 0D 14 4800 091F Alarm State:  0
Fri Nov 17 00:36:35 PST 2017 ON: 20.01 +20.0 19.64 - 3.5 33.6 00 14 4819 0907 Alarm State:  0
Fri Nov 17 00:35:33 PST 2017 ON: 20.00 +20.0 19.63 - 3.6 34.0 05 14 4801 090C Alarm State:  0
Fri Nov 17 00:34:32 PST 2017 ON: 19.99 +20.0 19.67 - 4.5 33.3 05 14 4711 0914 Alarm State:  0
Fri Nov 17 00:33:30 PST 2017 ON: 20.02 +20.0 19.64 - 3.3 33.6 00 14 471D 0922 Alarm State:  0
Fri Nov 17 00:32:29 PST 2017 ON: 19.97 +20.0 19.65 - 4.3 33.3 07 14 4704 0A1E Alarm State:  0
Fri Nov 17 00:31:27 PST 2017 ON: 20.02 +20.0 19.60 - 2.5 33.9 05 14 480F 091E Alarm State:  0
Fri Nov 17 00:30:26 PST 2017 ON: 20.01 +20.0 19.65 - 3.5 34.1 05 14 4812 0912 Alarm State:  0
Fri Nov 17 00:29:24 PST 2017 ON: 20.00 +20.0 19.68 - 4.8 33.2 0D 14 4802 0911 Alarm State:  0
Fri Nov 17 00:28:23 PST 2017 ON: 20.03 +20.0 19.61 - 2.5 34.1 0A 14 482F 090E Alarm State:  0
Fri Nov 17 00:27:21 PST 2017 ON: 20.00 +20.0 19.66 - 3.8 33.9 00 14 4807 091F Alarm State:  0
Fri Nov 17 00:26:20 PST 2017 ON: 19.99 +20.0 19.69 - 5.0 33.1 0D 14 4719 0A02 Alarm State:  0
Fri Nov 17 00:25:18 PST 2017 ON: 19.97 +20.0 19.58 - 2.2 34.2 07 14 4818 0914 Alarm State:  0
Fri Nov 17 00:24:17 PST 2017 ON: 19.99 +20.0 19.67 - 4.3 33.4 00 14 4732 0918 Alarm State:  0
Fri Nov 17 00:23:15 PST 2017 ON: 20.03 +20.0 19.68 - 4.8 32.6 0D 14 4805 0905 Alarm State:  0
Fri Nov 17 00:22:14 PST 2017 ON: 19.99 +20.0 19.62 - 3.6 33.9 05 14 4806 0916 Alarm State:  0
Fri Nov 17 00:21:12 PST 2017 ON: 20.05 +20.0 19.69 - 4.8 33.1 0D 14 480E 0903 Alarm State:  0
Fri Nov 17 00:20:11 PST 2017 ON: 20.03 +20.0 19.65 - 4.2 33.2 00 14 4724 090F Alarm State:  0
Fri Nov 17 00:19:09 PST 2017 ON: 19.98 +20.0 19.64 - 3.9 33.4 02 14 4728 092A Alarm State:  0
Fri Nov 17 00:18:08 PST 2017 ON: 20.03 +20.0 19.64 - 3.2 33.6 00 14 481C 0920 Alarm State:  0
Fri Nov 17 00:17:06 PST 2017 ON: 19.99 +20.0 19.65 - 3.6 34.0 00 14 4802 0927 Alarm State:  0
Fri Nov 17 00:16:05 PST 2017 ON: 20.01 +20.0 19.69 - 4.5 33.4 0A 14 4716 0904 Alarm State:  0
Fri Nov 17 00:15:03 PST 2017 ON: 20.02 +20.0 19.63 - 3.4 33.5 00 14 4720 091E Alarm State:  0
Fri Nov 17 00:14:02 PST 2017 ON: 19.96 +20.0 19.65 - 4.2 33.4 00 14 4713 0A12 Alarm State:  0
Fri Nov 17 00:13:00 PST 2017 ON: 20.01 +20.0 19.61 - 2.5 33.9 00 14 481A 0926 Alarm State:  0
Fri Nov 17 00:11:59 PST 2017 ON: 20.00 +20.0 19.67 - 4.3 33.5 05 14 4726 092E Alarm State:  0
Fri Nov 17 00:10:57 PST 2017 ON: 20.02 +20.0 19.62 - 3.3 33.6 00 14 4817 0907 Alarm State:  0
Fri Nov 17 00:09:56 PST 2017 ON: 20.00 +20.0 19.65 - 3.9 33.8 05 14 4806 092A Alarm State:  0
Fri Nov 17 00:08:54 PST 2017 ON: 20.05 +20.0 19.67 - 4.8 32.7 00 14 4813 090E Alarm State:  0
Fri Nov 17 00:07:53 PST 2017 ON: 19.97 +20.0 19.61 - 3.5 34.0 00 14 4813 092D Alarm State:  0
Fri Nov 17 00:06:52 PST 2017 ON: 20.00 +20.0 19.71 - 5.4 32.5 05 13 4806 091F Alarm State:  0
Fri Nov 17 00:05:50 PST 2017 ON: 19.99 +20.0 19.61 - 2.9 34.2 0A 14 4822 0921 Alarm State:  0
Fri Nov 17 00:04:49 PST 2017 ON: 20.00 +20.0 19.66 - 4.2 33.7 05 14 4809 0921 Alarm State:  0
Fri Nov 17 00:03:47 PST 2017 ON: 20.04 +20.0 19.71 - 5.3 32.9 0D 13 4722 0903 Alarm State:  0
Fri Nov 17 00:02:45 PST 2017 ON: 20.01 +20.0 19.62 - 3.0 34.1 00 14 4804 0906 Alarm State:  0
Fri Nov 17 00:01:44 PST 2017 ON: 19.99 +20.0 19.67 - 4.7 33.2 00 14 4729 0A0B Alarm State:  0
Fri Nov 17 00:00:43 PST 2017 ON: 19.99 +20.0 19.59 - 2.3 34.0 00 14 482F 090A Alarm State:  0
Thu Nov 16 23:59:41 PST 2017 ON: 19.98 +20.0 19.66 - 4.0 33.5 00 14 4823 0909 Alarm State:  0
Thu Nov 16 23:58:40 PST 2017 ON: 20.02 +20.0 19.68 - 4.5 32.9 05 14 4830 0918 Alarm State:  0
Thu Nov 16 23:57:38 PST 2017 ON: 20.01 +20.0 19.61 - 2.9 34.1 07 14 482C 0911 Alarm State:  0
Thu Nov 16 23:56:37 PST 2017 ON: 20.03 +20.0 19.66 - 3.2 34.0 07 14 480B 091F Alarm State:  0
Thu Nov 16 23:55:35 PST 2017 ON: 20.01 +20.0 19.67 - 4.2 33.6 05 14 4712 0907 Alarm State:  0
Thu Nov 16 23:54:34 PST 2017 ON: 20.04 +20.0 19.67 - 4.7 32.8 00 14 471F 0914 Alarm State:  0
Thu Nov 16 23:53:32 PST 2017 ON: 19.95 +20.0 19.61 - 3.7 33.6 07 14 472F 0925 Alarm State:  0
Thu Nov 16 23:52:31 PST 2017 ON: 20.02 +20.0 19.68 - 4.5 32.9 00 14 481D 0912 Alarm State:  0
Thu Nov 16 23:51:29 PST 2017 ON: 19.98 +20.0 19.64 - 3.6 34.0 0A 14 4819 0905 Alarm State:  0
Thu Nov 16 23:50:28 PST 2017 ON: 20.01 +20.0 19.72 - 5.5 32.9 0D 12 4802 0903 Alarm State:  0
Thu Nov 16 23:49:26 PST 2017 ON: 20.01 +20.0 19.62 - 3.2 34.1 0C 14 4810 0911 Alarm State:  0
Thu Nov 16 23:48:25 PST 2017 ON: 20.03 +20.0 19.70 - 5.4 32.8 0D 13 4728 0917 Alarm State:  0
Thu Nov 16 23:47:23 PST 2017 ON: 20.02 +20.0 19.61 - 2.8 33.9 00 14 4732 0902 Alarm State:  0
Thu Nov 16 23:46:22 PST 2017 ON: 20.02 +20.0 19.67 - 4.2 33.4 07 14 471F 0927 Alarm State:  0
Thu Nov 16 23:45:20 PST 2017 ON: 19.99 +20.0 19.61 - 3.0 33.7 00 14 4818 090D Alarm State:  0
Thu Nov 16 23:44:19 PST 2017 ON: 20.00 +20.0 19.66 - 3.7 34.0 00 14 4809 090F Alarm State:  0
Thu Nov 16 23:43:17 PST 2017 ON: 20.01 +20.0 19.71 - 5.3 32.8 0D 13 4728 090E Alarm State:  0
Thu Nov 16 23:42:16 PST 2017 ON: 19.98 +20.0 19.60 - 2.7 34.1 00 14 4804 091B Alarm State:  0
Thu Nov 16 23:41:14 PST 2017 ON: 20.01 +20.0 19.68 - 4.5 33.5 05 14 470F 0928 Alarm State:  0
Thu Nov 16 23:40:13 PST 2017 ON: 20.03 +20.0 19.68 - 4.8 32.7 05 14 4716 091C Alarm State:  0
Thu Nov 16 23:39:11 PST 2017 ON: 19.98 +20.0 19.63 - 3.7 33.7 00 14 472C 0930 Alarm State:  0
Thu Nov 16 23:38:10 PST 2017 ON: 20.04 +20.0 19.68 - 4.9 32.7 00 14 480C 0A02 Alarm State:  0
Thu Nov 16 23:37:08 PST 2017 ON: 19.96 +20.0 19.61 - 3.8 33.5 05 14 481A 0A04 Alarm State:  0
Thu Nov 16 23:36:07 PST 2017 ON: 20.02 +20.0 19.64 - 3.0 33.7 00 14 4912 091B Alarm State:  0
Thu Nov 16 23:35:05 PST 2017 ON: 20.00 +20.0 19.66 - 4.0 33.5 0A 14 481D 0928 Alarm State:  0
Thu Nov 16 23:34:04 PST 2017 ON: 20.03 +20.0 19.68 - 4.4 33.2 08 14 4818 091E Alarm State:  0
Thu Nov 16 23:33:02 PST 2017 ON: 20.01 +20.0 19.62 - 3.4 33.8 00 14 4721 0904 Alarm State:  0
Thu Nov 16 23:32:01 PST 2017 ON: 19.99 +20.0 19.65 - 4.4 33.3 05 14 470E 092B Alarm State:  0
Thu Nov 16 23:30:59 PST 2017 ON: 20.00 +20.0 19.62 - 2.7 33.8 00 14 4813 0905 Alarm State:  0
Thu Nov 16 23:29:58 PST 2017 ON: 19.99 +20.0 19.65 - 3.5 34.1 05 14 4806 090D Alarm State:  0
Thu Nov 16 23:28:56 PST 2017 ON: 20.01 +20.0 19.69 - 5.2 32.8 0D 14 471F 0A0C Alarm State:  0
Thu Nov 16 23:27:55 PST 2017 ON: 19.98 +20.0 19.60 - 2.6 34.2 05 14 4821 0915 Alarm State:  0
Thu Nov 16 23:26:53 PST 2017 ON: 20.01 +20.0 19.66 - 4.3 33.5 05 14 4815 090A Alarm State:  0
Thu Nov 16 23:25:52 PST 2017 ON: 20.04 +20.0 19.66 - 4.2 33.1 00 14 480E 0902 Alarm State:  0
Thu Nov 16 23:24:50 PST 2017 ON: 19.98 +20.0 19.65 - 3.8 33.9 05 14 472F 0926 Alarm State:  0
Thu Nov 16 23:23:49 PST 2017 ON: 20.00 +20.0 19.71 - 5.3 32.8 0D 13 4730 091C Alarm State:  0
Thu Nov 16 23:22:47 PST 2017 ON: 19.99 +20.0 19.59 - 2.5 34.1 01 14 4814 0926 Alarm State:  0
Thu Nov 16 23:21:46 PST 2017 ON: 20.00 +20.0 19.67 - 4.0 33.8 05 14 4731 0908 Alarm State:  0
Thu Nov 16 23:20:44 PST 2017 ON: 20.00 +20.0 19.71 - 5.2 32.9 0D 13 4720 090E Alarm State:  0
Thu Nov 16 23:19:43 PST 2017 ON: 20.02 +20.0 19.60 - 2.8 33.9 02 14 480D 0916 Alarm State:  0
Thu Nov 16 23:18:41 PST 2017 ON: 20.00 +20.0 19.63 - 3.9 33.6 07 14 472F 0912 Alarm State:  0
Thu Nov 16 23:17:40 PST 2017 ON: 20.01 +20.0 19.67 - 4.4 32.9 00 14 4812 0914 Alarm State:  0
Thu Nov 16 23:16:38 PST 2017 ON: 19.99 +20.0 19.62 - 3.1 34.1 05 14 4811 0921 Alarm State:  0
Thu Nov 16 23:15:37 PST 2017 ON: 19.99 +20.0 19.67 - 4.6 33.3 02 14 480D 091E Alarm State:  0
Thu Nov 16 23:14:35 PST 2017 ON: 20.00 +20.0 19.61 - 2.9 33.8 00 14 482E 091B Alarm State:  0
Thu Nov 16 23:13:34 PST 2017 ON: 20.04 +20.0 19.66 - 3.7 33.6 07 14 4806 0903 Alarm State:  0
Thu Nov 16 23:12:33 PST 2017 ON: 19.99 +20.0 19.64 - 4.2 33.3 07 14 4724 092F Alarm State:  0
Thu Nov 16 23:11:31 PST 2017 ON: 20.04 +20.0 19.66 - 3.8 33.3 00 14 4815 0923 Alarm State:  0
Thu Nov 16 23:10:30 PST 2017 ON: 20.01 +20.0 19.64 - 3.7 33.8 07 14 4804 091B Alarm State:  0
Thu Nov 16 23:09:28 PST 2017 ON: 20.00 +20.0 19.70 - 5.2 32.5 0A 13 4808 0908 Alarm State:  0
Thu Nov 16 23:08:27 PST 2017 ON: 19.98 +20.0 19.63 - 3.3 34.1 00 14 4819 090B Alarm State:  0
Thu Nov 16 23:07:25 PST 2017 ON: 20.02 +20.0 19.71 - 5.6 32.7 0D 13 4803 0906 Alarm State:  0
Thu Nov 16 23:06:24 PST 2017 ON: 19.99 +20.0 19.61 - 2.8 34.2 05 14 481E 0907 Alarm State:  0
Thu Nov 16 23:05:22 PST 2017 ON: 20.02 +20.0 19.68 - 4.7 33.3 00 14 472D 0910 Alarm State:  0
Thu Nov 16 23:04:21 PST 2017 ON: 20.03 +20.0 19.62 - 3.5 33.5 00 14 480F 091F Alarm State:  0
Thu Nov 16 23:03:19 PST 2017 ON: 19.98 +20.0 19.65 - 4.2 33.5 07 14 4725 091E Alarm State:  0
Thu Nov 16 23:02:18 PST 2017 ON: 20.01 +20.0 19.63 - 3.6 33.4 00 14 4819 090F Alarm State:  0
Thu Nov 16 23:01:16 PST 2017 ON: 19.97 +20.0 19.63 - 4.0 33.5 05 14 4811 0A00 Alarm State:  0
Thu Nov 16 23:00:15 PST 2017 ON: 20.01 +20.0 19.62 - 3.1 33.6 00 14 490F 0917 Alarm State:  0
Thu Nov 16 22:59:13 PST 2017 ON: 20.02 +20.0 19.65 - 3.7 34.1 05 14 482A 091A Alarm State:  0
Thu Nov 16 22:58:12 PST 2017 ON: 20.02 +20.0 19.68 - 4.5 33.3 0A 14 4815 091C Alarm State:  0
Thu Nov 16 22:57:10 PST 2017 ON: 20.01 +20.0 19.62 - 2.9 33.8 00 14 482B 091E Alarm State:  0
Thu Nov 16 22:56:09 PST 2017 ON: 20.01 +20.0 19.64 - 3.5 33.8 00 14 472B 0909 Alarm State:  0
Thu Nov 16 22:55:07 PST 2017 ON: 20.00 +20.0 19.65 - 4.3 33.4 07 14 4632 091A Alarm State:  0
Thu Nov 16 22:54:06 PST 2017 ON: 20.02 +20.0 19.64 - 4.0 33.3 00 14 4714 0A00 Alarm State:  0
Thu Nov 16 22:53:04 PST 2017 ON: 20.00 +20.0 19.65 - 4.1 33.5 05 14 4710 0A0E Alarm State:  0
Thu Nov 16 22:52:03 PST 2017 ON: 20.04 +20.0 19.67 - 4.0 33.4 00 14 4806 0927 Alarm State:  0
Thu Nov 16 22:51:01 PST 2017 ON: 19.97 +20.0 19.63 - 3.9 33.6 05 14 4812 0A04 Alarm State:  0
Thu Nov 16 22:50:00 PST 2017 ON: 20.01 +20.0 19.64 - 3.0 33.8 00 14 490E 0920 Alarm State:  0
Thu Nov 16 22:48:58 PST 2017 ON: 20.01 +20.0 19.67 - 3.6 34.1 0C 14 481F 0906 Alarm State:  0
Thu Nov 16 22:47:57 PST 2017 ON: 20.02 +20.0 19.71 - 5.6 32.7 0D 13 4724 0914 Alarm State:  0
Thu Nov 16 22:46:55 PST 2017 ON: 20.01 +20.0 19.62 - 3.0 34.2 07 14 4805 091A Alarm State:  0
Thu Nov 16 22:45:54 PST 2017 ON: 20.03 +20.0 19.68 - 5.0 33.1 0C 14 471F 0920 Alarm State:  0
Thu Nov 16 22:44:52 PST 2017 ON: 19.99 +20.0 19.59 - 2.8 33.9 04 14 4810 0929 Alarm State:  0
Thu Nov 16 22:43:51 PST 2017 ON: 19.99 +20.0 19.66 - 4.6 33.3 00 14 4728 092F Alarm State:  0
Thu Nov 16 22:42:49 PST 2017 ON: 20.00 +20.0 19.62 - 2.7 33.8 02 14 481D 091B Alarm State:  0
Thu Nov 16 22:41:48 PST 2017 ON: 20.00 +20.0 19.67 - 4.6 33.1 05 14 472B 0929 Alarm State:  0
Thu Nov 16 22:40:46 PST 2017 ON: 20.01 +20.0 19.66 - 3.9 33.4 00 14 4815 0908 Alarm State:  0
Thu Nov 16 22:39:45 PST 2017 ON: 20.01 +20.0 19.60 - 3.0 34.0 02 14 4801 090B Alarm State:  0
Thu Nov 16 22:38:43 PST 2017 ON: 20.01 +20.0 19.66 - 4.3 33.6 05 14 4711 0919 Alarm State:  0
Thu Nov 16 22:37:42 PST 2017 ON: 20.03 +20.0 19.69 - 5.4 32.2 08 14 4707 0914 Alarm State:  0
Thu Nov 16 22:36:40 PST 2017 ON: 19.98 +20.0 19.62 - 3.8 33.5 00 14 471A 0924 Alarm State:  0
Thu Nov 16 22:35:39 PST 2017 ON: 20.01 +20.0 19.68 - 4.4 33.0 05 14 4807 0910 Alarm State:  0
Thu Nov 16 22:34:37 PST 2017 ON: 19.99 +20.0 19.65 - 3.4 34.1 05 14 4814 0902 Alarm State:  0
Thu Nov 16 22:33:36 PST 2017 ON: 20.02 +20.0 19.71 - 5.6 32.7 0D 13 472B 0A05 Alarm State:  0
Thu Nov 16 22:32:34 PST 2017 ON: 19.98 +20.0 19.57 - 2.8 34.1 07 14 481D 092A Alarm State:  0
Thu Nov 16 22:31:33 PST 2017 ON: 20.01 +20.0 19.67 - 5.0 33.1 05 14 4807 0929 Alarm State:  0
Thu Nov 16 22:30:31 PST 2017 ON: 20.02 +20.0 19.60 - 2.7 33.9 00 14 4903 091D Alarm State:  0
Thu Nov 16 22:29:30 PST 2017 ON: 19.97 +20.0 19.65 - 4.1 33.4 00 14 4820 0920 Alarm State:  0
Thu Nov 16 22:28:28 PST 2017 ON: 20.02 +20.0 19.69 - 4.9 32.9 0A 14 4827 0900 Alarm State:  0
Thu Nov 16 22:27:27 PST 2017 ON: 20.00 +20.0 19.63 - 3.7 34.0 05 14 4817 0924 Alarm State:  0
Thu Nov 16 22:26:25 PST 2017 ON: 20.03 +20.0 19.74 - 5.6 32.8 0D 12 4728 0A01 Alarm State:  0
Thu Nov 16 22:25:24 PST 2017 ON: 19.98 +20.0 19.57 - 2.6 34.2 00 14 4813 092B Alarm State:  0
Thu Nov 16 22:24:23 PST 2017 ON: 19.99 +20.0 19.68 - 4.8 33.1 00 14 4729 092B Alarm State:  0
Thu Nov 16 22:23:21 PST 2017 ON: 19.99 +20.0 19.59 - 2.4 34.0 00 14 4826 090D Alarm State:  0
Thu Nov 16 22:22:20 PST 2017 ON: 20.00 +20.0 19.65 - 4.3 33.5 07 14 4803 0915 Alarm State:  0
Thu Nov 16 22:21:18 PST 2017 ON: 20.04 +20.0 19.69 - 4.7 32.9 08 14 4805 0906 Alarm State:  0
Thu Nov 16 22:20:17 PST 2017 ON: 20.01 +20.0 19.64 - 3.6 34.0 05 14 4728 092A Alarm State:  0
Thu Nov 16 22:19:15 PST 2017 ON: 20.00 +20.0 19.72 - 5.5 32.7 0D 12 471A 091D Alarm State:  0
Thu Nov 16 22:18:14 PST 2017 ON: 19.99 +20.0 19.59 - 3.0 33.9 00 14 4804 0924 Alarm State:  0
Thu Nov 16 22:17:12 PST 2017 ON: 20.00 +20.0 19.65 - 4.1 33.5 0C 14 4729 091D Alarm State:  0
Thu Nov 16 22:16:11 PST 2017 ON: 20.02 +20.0 19.67 - 4.2 33.2 00 14 4815 0914 Alarm State:  0
Thu Nov 16 22:15:09 PST 2017 ON: 19.98 +20.0 19.63 - 3.3 34.1 00 14 481F 0926 Alarm State:  0
Thu Nov 16 22:14:08 PST 2017 ON: 20.00 +20.0 19.67 - 4.2 33.7 00 14 4810 0922 Alarm State:  0
Thu Nov 16 22:13:06 PST 2017 ON: 20.01 +20.0 19.71 - 5.3 32.8 0A 13 4804 0917 Alarm State:  0
Thu Nov 16 22:12:05 PST 2017 ON: 19.98 +20.0 19.60 - 2.6 34.2 05 14 482B 090E Alarm State:  0
Thu Nov 16 22:11:03 PST 2017 ON: 20.03 +20.0 19.66 - 4.3 33.7 0C 14 4809 0913 Alarm State:  0
Thu Nov 16 22:10:02 PST 2017 ON: 20.03 +20.0 19.69 - 5.4 32.7 0D 14 471F 0923 Alarm State:  0
Thu Nov 16 22:09:00 PST 2017 ON: 19.98 +20.0 19.60 - 2.7 34.0 02 14 480A 0926 Alarm State:  0
Thu Nov 16 22:07:59 PST 2017 ON: 19.98 +20.0 19.66 - 4.2 33.4 00 14 4809 091E Alarm State:  0
Thu Nov 16 22:06:57 PST 2017 ON: 20.03 +20.0 19.66 - 3.7 33.3 00 14 4831 0918 Alarm State:  0
Thu Nov 16 22:05:56 PST 2017 ON: 20.00 +20.0 19.65 - 3.4 34.0 07 14 4824 090C Alarm State:  0
Thu Nov 16 22:04:54 PST 2017 ON: 20.01 +20.0 19.70 - 5.3 32.8 0D 13 4812 090D Alarm State:  0
Thu Nov 16 22:03:53 PST 2017 ON: 19.99 +20.0 19.61 - 2.9 34.0 02 14 4827 0912 Alarm State:  0
Thu Nov 16 22:02:51 PST 2017 ON: 20.00 +20.0 19.66 - 4.4 33.4 05 14 480D 091D Alarm State:  0
Thu Nov 16 22:01:50 PST 2017 ON: 20.02 +20.0 19.65 - 4.1 33.1 00 14 4824 091C Alarm State:  0
Thu Nov 16 22:00:48 PST 2017 ON: 20.00 +20.0 19.62 - 3.3 34.1 0C 14 4825 0910 Alarm State:  0
Thu Nov 16 21:59:47 PST 2017 ON: 20.02 +20.0 19.71 - 5.3 32.9 0D 13 480F 0913 Alarm State:  0
Thu Nov 16 21:58:45 PST 2017 ON: 20.01 +20.0 19.62 - 2.8 33.9 00 14 481A 0901 Alarm State:  0
Thu Nov 16 21:57:44 PST 2017 ON: 19.99 +20.0 19.67 - 4.3 33.6 05 14 4727 090C Alarm State:  0
Thu Nov 16 21:56:42 PST 2017 ON: 20.01 +20.0 19.67 - 4.5 32.8 00 14 4732 0913 Alarm State:  0
Thu Nov 16 21:55:41 PST 2017 ON: 20.00 +20.0 19.60 - 3.2 34.1 0C 14 4801 0925 Alarm State:  0
Thu Nov 16 21:54:39 PST 2017 ON: 20.00 +20.0 19.70 - 5.4 32.8 0D 14 4725 0A1B Alarm State:  0
Thu Nov 16 21:53:38 PST 2017 ON: 20.00 +20.0 19.60 - 2.6 34.2 07 14 4828 0927 Alarm State:  0
Thu Nov 16 21:52:36 PST 2017 ON: 20.02 +20.0 19.68 - 4.6 33.2 0D 14 4819 0927 Alarm State:  0
Thu Nov 16 21:51:35 PST 2017 ON: 20.00 +20.0 19.62 - 2.9 33.8 00 14 4902 0903 Alarm State:  0
Thu Nov 16 21:50:33 PST 2017 ON: 19.99 +20.0 19.62 - 3.5 34.0 00 14 4822 0909 Alarm State:  0
Thu Nov 16 21:49:32 PST 2017 ON: 20.00 +20.0 19.69 - 5.2 32.8 0D 14 472D 0916 Alarm State:  0
Thu Nov 16 21:48:30 PST 2017 ON: 20.00 +20.0 19.60 - 2.7 34.0 05 14 4827 090B Alarm State:  0
Thu Nov 16 21:47:29 PST 2017 ON: 20.01 +20.0 19.64 - 3.8 33.9 05 14 4815 0914 Alarm State:  0
Thu Nov 16 21:46:27 PST 2017 ON: 20.04 +20.0 19.70 - 4.7 33.3 0D 13 480E 090E Alarm State:  0
Thu Nov 16 21:45:26 PST 2017 ON: 19.99 +20.0 19.60 - 3.1 33.7 02 14 481C 0924 Alarm State:  0
Thu Nov 16 21:44:24 PST 2017 ON: 19.99 +20.0 19.65 - 4.2 33.3 07 14 472E 092C Alarm State:  0
Thu Nov 16 21:43:23 PST 2017 ON: 20.02 +20.0 19.65 - 3.3 33.5 00 14 481F 0922 Alarm State:  0
Thu Nov 16 21:42:21 PST 2017 ON: 20.00 +20.0 19.63 - 3.5 34.0 05 14 4804 0922 Alarm State:  0
Thu Nov 16 21:41:20 PST 2017 ON: 20.02 +20.0 19.70 - 5.2 32.9 0D 13 4723 0927 Alarm State:  0
Thu Nov 16 21:40:18 PST 2017 ON: 20.00 +20.0 19.59 - 2.5 34.1 01 14 481D 090A Alarm State:  0
Thu Nov 16 21:39:17 PST 2017 ON: 19.98 +20.0 19.64 - 3.9 33.8 00 14 4811 090B Alarm State:  0
Thu Nov 16 21:38:16 PST 2017 ON: 20.00 +20.0 19.72 - 5.1 32.7 08 12 480E 0901 Alarm State:  0
Thu Nov 16 21:37:14 PST 2017 ON: 20.01 +20.0 19.63 - 2.9 34.1 07 14 4814 091B Alarm State:  0
Thu Nov 16 21:36:13 PST 2017 ON: 20.00 +20.0 19.65 - 4.3 33.5 05 14 471E 0925 Alarm State:  0
Thu Nov 16 21:35:11 PST 2017 ON: 20.03 +20.0 19.66 - 4.1 33.2 00 14 4730 0904 Alarm State:  0
Thu Nov 16 21:34:10 PST 2017 ON: 20.00 +20.0 19.63 - 3.8 33.7 00 14 472F 0928 Alarm State:  0
Thu Nov 16 21:33:08 PST 2017 ON: 20.02 +20.0 19.70 - 4.7 32.8 0D 13 4812 0902 Alarm State:  0
Thu Nov 16 21:32:07 PST 2017 ON: 19.99 +20.0 19.62 - 3.3 34.1 05 14 480F 091F Alarm State:  0
Thu Nov 16 21:31:05 PST 2017 ON: 20.00 +20.0 19.72 - 5.7 32.6 0D 13 472C 0A26 Alarm State:  0
Thu Nov 16 21:30:04 PST 2017 ON: 19.96 +20.0 19.60 - 3.0 34.2 05 14 482C 092F Alarm State:  0
Thu Nov 16 21:29:02 PST 2017 ON: 20.03 +20.0 19.70 - 5.1 33.1 0D 13 4828 091C Alarm State:  0
Thu Nov 16 21:28:01 PST 2017 ON: 20.03 +20.0 19.64 - 3.6 33.4 00 14 481B 091A Alarm State:  0
Thu Nov 16 21:26:59 PST 2017 ON: 20.02 +20.0 19.67 - 4.0 33.5 07 14 4803 0915 Alarm State:  0
Thu Nov 16 21:25:58 PST 2017 ON: 20.04 +20.0 19.69 - 4.2 33.3 08 14 4810 0920 Alarm State:  0
Thu Nov 16 21:24:56 PST 2017 ON: 20.04 +20.0 19.65 - 4.0 33.5 02 14 4713 090C Alarm State:  0
Thu Nov 16 21:23:55 PST 2017 ON: 19.99 +20.0 19.64 - 4.1 33.3 0C 14 470E 092A Alarm State:  0
Thu Nov 16 21:22:53 PST 2017 ON: 20.03 +20.0 19.65 - 3.3 33.6 00 14 4807 090E Alarm State:  0
Thu Nov 16 21:21:52 PST 2017 ON: 20.00 +20.0 19.63 - 3.7 34.0 0A 14 4723 090C Alarm State:  0
Thu Nov 16 21:20:50 PST 2017 ON: 20.00 +20.0 19.69 - 5.3 32.9 0D 14 470F 0911 Alarm State:  0
Thu Nov 16 21:19:49 PST 2017 ON: 19.98 +20.0 19.60 - 2.8 34.0 01 14 4726 091A Alarm State:  0
Thu Nov 16 21:18:47 PST 2017 ON: 20.01 +20.0 19.65 - 3.9 33.8 00 14 4715 091C Alarm State:  0
Thu Nov 16 21:17:46 PST 2017 ON: 20.00 +20.0 19.70 - 5.1 33.0 0D 13 4707 0917 Alarm State:  0
Thu Nov 16 21:16:44 PST 2017 ON: 19.98 +20.0 19.60 - 2.9 33.9 00 14 472C 0916 Alarm State:  0
Thu Nov 16 21:15:43 PST 2017 ON: 19.97 +20.0 19.65 - 4.2 33.4 05 14 4730 0A0B Alarm State:  0
Thu Nov 16 21:14:41 PST 2017 ON: 19.99 +20.0 19.57 - 2.1 34.1 00 14 4905 0910 Alarm State:  0
Thu Nov 16 21:13:40 PST 2017 ON: 20.01 +20.0 19.66 - 3.5 34.0 05 14 4816 091B Alarm State:  0
Thu Nov 16 21:12:38 PST 2017 ON: 20.01 +20.0 19.66 - 4.2 33.8 0C 14 4718 0904 Alarm State:  0
Thu Nov 16 21:11:37 PST 2017 ON: 20.05 +20.0 19.69 - 5.2 32.5 05 14 462B 0A13 Alarm State:  0
Thu Nov 16 21:10:35 PST 2017 ON: 19.98 +20.0 19.64 - 4.1 33.4 0D 14 4705 0A12 Alarm State:  0
Thu Nov 16 21:09:34 PST 2017 ON: 19.99 +20.0 19.59 - 2.6 33.9 01 14 480C 090C Alarm State:  0
Thu Nov 16 21:08:32 PST 2017 ON: 19.99 +20.0 19.66 - 4.6 33.1 00 14 4730 0A06 Alarm State:  0
Thu Nov 16 21:07:31 PST 2017 ON: 19.98 +20.0 19.59 - 2.1 34.2 02 14 4908 0902 Alarm State:  0
Thu Nov 16 21:06:29 PST 2017 ON: 19.98 +20.0 19.61 - 3.2 34.1 00 14 4903 0906 Alarm State:  0
Thu Nov 16 21:05:28 PST 2017 ON: 20.01 +20.0 19.66 - 3.8 34.0 05 14 480E 0911 Alarm State:  0
Thu Nov 16 21:04:26 PST 2017 ON: 20.01 +20.0 19.68 - 4.4 33.7 0C 14 470C 0925 Alarm State:  0
Thu Nov 16 21:03:25 PST 2017 ON: 20.01 +20.0 19.65 - 4.5 33.3 05 14 461B 092E Alarm State:  0
Thu Nov 16 21:02:23 PST 2017 ON: 20.02 +20.0 19.63 - 2.9 33.8 00 14 4713 0927 Alarm State:  0
Thu Nov 16 21:01:22 PST 2017 ON: 19.98 +20.0 19.65 - 4.1 33.4 07 14 470F 0A24 Alarm State:  0
Thu Nov 16 21:00:20 PST 2017 ON: 20.01 +20.0 19.58 - 2.6 33.9 00 14 4819 0900 Alarm State:  0
Thu Nov 16 20:59:19 PST 2017 ON: 19.98 +20.0 19.64 - 4.0 33.6 00 14 480B 0926 Alarm State:  0
Thu Nov 16 20:58:17 PST 2017 ON: 20.02 +20.0 19.67 - 4.3 33.0 00 14 4812 090E Alarm State:  0
Thu Nov 16 20:57:16 PST 2017 ON: 19.99 +20.0 19.64 - 3.8 33.9 00 14 472D 090F Alarm State:  0
Thu Nov 16 20:56:14 PST 2017 ON: 20.02 +20.0 19.70 - 5.3 32.7 0D 13 472E 0922 Alarm State:  0
Thu Nov 16 20:55:13 PST 2017 ON: 20.01 +20.0 19.65 - 3.2 34.1 07 14 4807 0905 Alarm State:  0
Thu Nov 16 20:54:11 PST 2017 ON: 20.02 +20.0 19.69 - 4.9 33.1 0D 14 4725 0A03 Alarm State:  0
Thu Nov 16 20:53:10 PST 2017 ON: 19.98 +20.0 19.58 - 2.7 34.2 04 14 481E 0921 Alarm State:  0
Thu Nov 16 20:52:08 PST 2017 ON: 20.01 +20.0 19.69 - 5.4 32.7 0D 14 4805 0925 Alarm State:  0
Thu Nov 16 20:51:07 PST 2017 ON: 19.98 +20.0 19.61 - 2.8 34.3 02 14 4908 090C Alarm State:  0
Thu Nov 16 20:50:05 PST 2017 ON: 20.01 +20.0 19.70 - 4.9 33.1 0D 13 4828 0904 Alarm State:  0
Thu Nov 16 20:49:04 PST 2017 ON: 20.03 +20.0 19.65 - 3.6 33.6 00 14 481C 090F Alarm State:  0
Thu Nov 16 20:48:02 PST 2017 ON: 20.02 +20.0 19.68 - 4.3 33.3 02 14 471A 0923 Alarm State:  0
Thu Nov 16 20:47:01 PST 2017 ON: 20.00 +20.0 19.62 - 3.3 34.1 07 14 4720 0916 Alarm State:  0
Thu Nov 16 20:45:59 PST 2017 ON: 20.05 +20.0 19.72 - 5.5 32.8 08 13 470B 0A16 Alarm State:  0
Thu Nov 16 20:44:58 PST 2017 ON: 19.98 +20.0 19.60 - 3.2 34.2 00 14 4725 0A18 Alarm State:  0
Thu Nov 16 20:43:56 PST 2017 ON: 19.99 +20.0 19.72 - 5.9 32.2 0D 13 471C 0B0C Alarm State:  0
Thu Nov 16 20:42:55 PST 2017 ON: 19.95 +20.0 19.57 - 2.8 34.2 01 14 4821 0A08 Alarm State:  0
Thu Nov 16 20:41:53 PST 2017 ON: 20.00 +20.0 19.67 - 4.7 32.9 00 14 4832 0912 Alarm State:  0
Thu Nov 16 20:40:52 PST 2017 ON: 20.01 +20.0 19.63 - 3.1 33.8 02 14 4913 0918 Alarm State:  0
Thu Nov 16 20:39:50 PST 2017 ON: 20.01 +20.0 19.63 - 3.1 33.8 02 14 4912 0916 Alarm State:  0
Thu Nov 16 20:38:49 PST 2017 ON: 20.02 +20.0 19.65 - 3.3 34.0 07 14 4823 0900 Alarm State:  0
Thu Nov 16 20:37:48 PST 2017 ON: 20.02 +20.0 19.68 - 4.4 33.5 07 14 472F 0912 Alarm State:  0
Thu Nov 16 20:36:46 PST 2017 ON: 20.02 +20.0 19.64 - 4.1 33.2 00 14 4804 0907 Alarm State:  0
Thu Nov 16 20:35:45 PST 2017 ON: 19.97 +20.0 19.63 - 4.0 33.5 00 14 4723 0A05 Alarm State:  0
Thu Nov 16 20:34:43 PST 2017 ON: 20.03 +20.0 19.68 - 4.3 33.0 0D 14 4806 0914 Alarm State:  0
Thu Nov 16 20:33:42 PST 2017 ON: 19.98 +20.0 19.64 - 3.8 33.8 00 14 472C 090A Alarm State:  0
Thu Nov 16 20:32:40 PST 2017 ON: 20.02 +20.0 19.70 - 5.3 32.4 05 13 4731 091B Alarm State:  0
Thu Nov 16 20:31:39 PST 2017 ON: 19.99 +20.0 19.62 - 3.6 33.9 07 14 4814 0921 Alarm State:  0
Thu Nov 16 20:30:37 PST 2017 ON: 20.02 +20.0 19.71 - 4.9 32.9 0D 13 481B 0924 Alarm State:  0
Thu Nov 16 20:29:36 PST 2017 ON: 20.02 +20.0 19.63 - 3.4 33.6 00 14 4813 0923 Alarm State:  0
Thu Nov 16 20:28:34 PST 2017 ON: 19.98 +20.0 19.64 - 3.6 33.9 00 14 480F 091A Alarm State:  0
Thu Nov 16 20:27:33 PST 2017 ON: 20.01 +20.0 19.69 - 4.9 33.1 0A 14 4814 0927 Alarm State:  0
Thu Nov 16 20:26:31 PST 2017 ON: 20.01 +20.0 19.60 - 2.6 33.9 00 14 4823 0915 Alarm State:  0
Thu Nov 16 20:25:30 PST 2017 ON: 20.00 +20.0 19.66 - 4.0 33.6 07 14 4728 0924 Alarm State:  0
Thu Nov 16 20:24:28 PST 2017 ON: 20.01 +20.0 19.69 - 4.9 32.6 0D 14 4713 0924 Alarm State:  0
Thu Nov 16 20:23:27 PST 2017 ON: 19.99 +20.0 19.62 - 3.4 34.1 0A 14 470F 0919 Alarm State:  0
Thu Nov 16 20:22:25 PST 2017 ON: 20.01 +20.0 19.70 - 5.3 32.8 0D 14 4704 0A0D Alarm State:  0
Thu Nov 16 20:21:24 PST 2017 ON: 19.99 +20.0 19.58 - 2.6 34.2 07 14 4805 091F Alarm State:  0
Thu Nov 16 20:20:22 PST 2017 ON: 20.01 +20.0 19.67 - 4.5 33.3 07 14 472B 0919 Alarm State:  0
Thu Nov 16 20:19:21 PST 2017 ON: 20.01 +20.0 19.63 - 3.0 33.7 00 14 481A 0915 Alarm State:  0
Thu Nov 16 20:18:19 PST 2017 ON: 20.00 +20.0 19.66 - 4.0 33.4 00 14 4732 0915 Alarm State:  0
Thu Nov 16 20:17:18 PST 2017 ON: 20.02 +20.0 19.70 - 4.5 33.1 0A 13 480D 091D Alarm State:  0
Thu Nov 16 20:16:16 PST 2017 ON: 20.00 +20.0 19.62 - 3.1 33.9 02 14 4723 0923 Alarm State:  0
Thu Nov 16 20:15:15 PST 2017 ON: 19.98 +20.0 19.66 - 4.9 33.0 0A 14 4709 0A26 Alarm State:  0
Thu Nov 16 20:14:13 PST 2017 ON: 19.96 +20.0 19.57 - 2.1 34.3 00 14 4813 091D Alarm State:  0
Thu Nov 16 20:13:12 PST 2017 ON: 20.01 +20.0 19.69 - 5.1 32.9 0D 14 4730 091E Alarm State:  0
Thu Nov 16 20:12:10 PST 2017 ON: 20.00 +20.0 19.60 - 2.8 33.9 00 14 4818 0923 Alarm State:  0
Thu Nov 16 20:11:09 PST 2017 ON: 20.02 +20.0 19.65 - 3.8 33.9 00 14 4816 0920 Alarm State:  0
Thu Nov 16 20:10:07 PST 2017 ON: 20.04 +20.0 19.71 - 5.3 32.9 0D 13 4803 091A Alarm State:  0
Thu Nov 16 20:09:06 PST 2017 ON: 19.99 +20.0 19.60 - 2.7 34.2 07 14 481D 091E Alarm State:  0
Thu Nov 16 20:08:04 PST 2017 ON: 20.02 +20.0 19.63 - 3.3 33.8 02 14 472B 0926 Alarm State:  0
Thu Nov 16 20:07:03 PST 2017 ON: 19.97 +20.0 19.65 - 4.4 33.3 07 14 470B 0A29 Alarm State:  0
Thu Nov 16 20:06:01 PST 2017 ON: 19.99 +20.0 19.58 - 2.2 34.1 00 14 4813 0A03 Alarm State:  0
Thu Nov 16 20:05:00 PST 2017 ON: 19.99 +20.0 19.67 - 5.2 32.7 05 14 472C 0B06 Alarm State:  0
Thu Nov 16 20:03:58 PST 2017 ON: 19.95 +20.0 19.59 - 2.6 34.4 0A 14 4903 0A03 Alarm State:  0
Thu Nov 16 20:02:57 PST 2017 ON: 20.03 +20.0 19.70 - 4.5 33.6 0D 13 482E 0922 Alarm State:  0
Thu Nov 16 20:01:55 PST 2017 ON: 20.02 +20.0 19.69 - 4.4 33.5 0A 14 480B 090B Alarm State:  0
Thu Nov 16 20:00:54 PST 2017 ON: 20.03 +20.0 19.67 - 4.5 33.0 02 14 472C 090E Alarm State:  0
Thu Nov 16 19:59:52 PST 2017 ON: 19.98 +20.0 19.62 - 3.8 33.7 00 14 4731 091D Alarm State:  0
Thu Nov 16 19:58:51 PST 2017 ON: 20.03 +20.0 19.69 - 5.0 32.3 05 14 4818 091D Alarm State:  0
Thu Nov 16 19:57:49 PST 2017 ON: 19.99 +20.0 19.61 - 3.2 34.1 05 14 4900 091F Alarm State:  0
Thu Nov 16 19:56:48 PST 2017 ON: 20.03 +20.0 19.70 - 5.0 32.9 08 13 4902 0900 Alarm State:  0
Thu Nov 16 19:55:46 PST 2017 ON: 20.02 +20.0 19.63 - 3.2 33.9 05 14 482E 0923 Alarm State:  0
Thu Nov 16 19:54:45 PST 2017 ON: 20.00 +20.0 19.61 - 3.4 34.1 00 14 4826 0924 Alarm State:  0
Thu Nov 16 19:53:43 PST 2017 ON: 20.03 +20.0 19.69 - 4.8 33.3 0D 14 4732 0905 Alarm State:  0
Thu Nov 16 19:52:42 PST 2017 ON: 20.02 +20.0 19.65 - 3.9 33.4 00 14 472A 090C Alarm State:  0
Thu Nov 16 19:51:40 PST 2017 ON: 19.96 +20.0 19.60 - 3.7 33.6 07 14 472D 0926 Alarm State:  0
Thu Nov 16 19:50:39 PST 2017 ON: 20.00 +20.0 19.67 - 3.9 33.2 00 14 481E 090C Alarm State:  0
Thu Nov 16 19:49:37 PST 2017 ON: 19.98 +20.0 19.60 - 2.9 34.0 02 14 4823 0925 Alarm State:  0
Thu Nov 16 19:48:36 PST 2017 ON: 19.99 +20.0 19.66 - 4.1 33.5 05 14 481B 0922 Alarm State:  0
Thu Nov 16 19:47:34 PST 2017 ON: 20.02 +20.0 19.71 - 5.2 32.7 0D 13 481A 0908 Alarm State:  0
Thu Nov 16 19:46:33 PST 2017 ON: 20.02 +20.0 19.62 - 3.1 33.7 02 14 4812 0907 Alarm State:  0
Thu Nov 16 19:45:31 PST 2017 ON: 20.01 +20.0 19.66 - 4.1 33.5 07 14 472C 090D Alarm State:  0
Thu Nov 16 19:44:30 PST 2017 ON: 20.04 +20.0 19.65 - 4.2 33.2 00 14 4807 0913 Alarm State:  0
Thu Nov 16 19:43:28 PST 2017 ON: 20.02 +20.0 19.66 - 3.9 33.6 02 14 471F 0915 Alarm State:  0
Thu Nov 16 19:42:27 PST 2017 ON: 20.02 +20.0 19.70 - 5.2 32.5 08 13 471B 0927 Alarm State:  0
Thu Nov 16 19:41:25 PST 2017 ON: 19.98 +20.0 19.63 - 3.1 34.1 07 14 472E 0905 Alarm State:  0
Thu Nov 16 19:40:24 PST 2017 ON: 19.99 +20.0 19.67 - 4.2 33.3 00 14 4807 0923 Alarm State:  0
Thu Nov 16 19:39:22 PST 2017 ON: 20.02 +20.0 19.69 - 4.8 32.8 08 14 480E 0907 Alarm State:  0
Thu Nov 16 19:38:21 PST 2017 ON: 20.01 +20.0 19.65 - 3.3 34.1 07 14 4800 090A Alarm State:  0
Thu Nov 16 19:37:19 PST 2017 ON: 20.01 +20.0 19.69 - 4.5 33.1 0D 14 4714 0914 Alarm State:  0
Thu Nov 16 19:36:18 PST 2017 ON: 20.04 +20.0 19.66 - 4.4 33.0 00 14 471A 0922 Alarm State:  0
Thu Nov 16 19:35:16 PST 2017 ON: 20.01 +20.0 19.66 - 4.0 33.5 00 14 4713 0A0C Alarm State:  0
Thu Nov 16 19:34:15 PST 2017 ON: 20.02 +20.0 19.70 - 5.3 32.4 05 14 4715 0A1A Alarm State:  0
Thu Nov 16 19:33:13 PST 2017 ON: 19.97 +20.0 19.64 - 3.7 33.7 00 14 4728 0A1A Alarm State:  0
Thu Nov 16 19:32:12 PST 2017 ON: 20.01 +20.0 19.68 - 4.3 33.0 08 14 481B 090B Alarm State:  0
Thu Nov 16 19:31:10 PST 2017 ON: 19.97 +20.0 19.59 - 2.8 34.1 00 14 4820 0922 Alarm State:  0
Thu Nov 16 19:30:09 PST 2017 ON: 20.00 +20.0 19.66 - 4.5 33.3 05 14 4804 0923 Alarm State:  0
Thu Nov 16 19:29:07 PST 2017 ON: 20.02 +20.0 19.62 - 3.5 33.6 05 14 481D 0924 Alarm State:  0
Thu Nov 16 19:28:06 PST 2017 ON: 20.01 +20.0 19.66 - 3.8 33.9 07 14 4809 091D Alarm State:  0
Thu Nov 16 19:27:04 PST 2017 ON: 20.04 +20.0 19.72 - 5.6 32.6 0D 12 4729 0917 Alarm State:  0
Thu Nov 16 19:26:03 PST 2017 ON: 20.00 +20.0 19.61 - 2.9 34.2 05 14 4802 091D Alarm State:  0
Thu Nov 16 19:25:01 PST 2017 ON: 20.01 +20.0 19.68 - 4.9 33.1 0A 14 471C 0923 Alarm State:  0
Thu Nov 16 19:24:00 PST 2017 ON: 19.99 +20.0 19.59 - 2.6 34.1 00 14 4811 0919 Alarm State:  0
Thu Nov 16 19:22:58 PST 2017 ON: 20.00 +20.0 19.67 - 4.9 33.1 00 14 471F 0929 Alarm State:  0
Thu Nov 16 19:21:57 PST 2017 ON: 20.00 +20.0 19.61 - 3.0 33.7 00 14 4818 0928 Alarm State:  0
Thu Nov 16 19:20:55 PST 2017 ON: 19.98 +20.0 19.62 - 3.7 33.8 00 14 480F 091C Alarm State:  0
Thu Nov 16 19:19:54 PST 2017 ON: 20.03 +20.0 19.68 - 4.7 33.0 0D 14 4807 090B Alarm State:  0
Thu Nov 16 19:18:52 PST 2017 ON: 20.01 +20.0 19.62 - 3.5 33.7 07 14 4729 090B Alarm State:  0
Thu Nov 16 19:17:51 PST 2017 ON: 19.99 +20.0 19.63 - 4.1 33.4 05 14 4721 092C Alarm State:  0
Thu Nov 16 19:16:49 PST 2017 ON: 20.01 +20.0 19.61 - 2.9 33.8 00 14 4827 0909 Alarm State:  0
Thu Nov 16 19:15:48 PST 2017 ON: 20.01 +20.0 19.65 - 3.6 34.0 05 14 4809 0918 Alarm State:  0
Thu Nov 16 19:14:46 PST 2017 ON: 20.02 +20.0 19.68 - 4.7 33.3 05 14 4725 0920 Alarm State:  0
Thu Nov 16 19:13:45 PST 2017 ON: 20.00 +20.0 19.62 - 3.3 33.6 00 14 480C 0926 Alarm State:  0
Thu Nov 16 19:12:43 PST 2017 ON: 19.99 +20.0 19.64 - 3.9 33.6 00 14 4730 091E Alarm State:  0
Thu Nov 16 19:11:42 PST 2017 ON: 20.02 +20.0 19.67 - 4.5 32.9 00 14 4811 0928 Alarm State:  0
Thu Nov 16 19:10:40 PST 2017 ON: 19.99 +20.0 19.64 - 3.3 34.1 00 14 4800 091E Alarm State:  0
Thu Nov 16 19:09:39 PST 2017 ON: 19.99 +20.0 19.69 - 4.9 33.1 0D 14 4711 0929 Alarm State:  0
Thu Nov 16 19:08:37 PST 2017 ON: 19.99 +20.0 19.61 - 2.8 33.9 05 14 4811 0918 Alarm State:  0
Thu Nov 16 19:07:36 PST 2017 ON: 20.00 +20.0 19.64 - 4.2 33.6 05 14 4805 0911 Alarm State:  0
Thu Nov 16 19:06:34 PST 2017 ON: 20.03 +20.0 19.67 - 4.3 33.1 00 14 4810 0916 Alarm State:  0
Thu Nov 16 19:05:33 PST 2017 ON: 20.01 +20.0 19.61 - 3.3 34.1 05 14 4806 090D Alarm State:  0
Thu Nov 16 19:04:31 PST 2017 ON: 20.02 +20.0 19.66 - 4.1 33.8 0C 14 4722 0913 Alarm State:  0
Thu Nov 16 19:03:30 PST 2017 ON: 20.02 +20.0 19.72 - 5.7 32.4 08 12 470E 091E Alarm State:  0
Thu Nov 16 19:02:28 PST 2017 ON: 19.99 +20.0 19.61 - 3.4 33.8 00 14 472F 0918 Alarm State:  0
Thu Nov 16 19:01:27 PST 2017 ON: 20.03 +20.0 19.71 - 5.3 32.4 03 13 4804 091E Alarm State:  0
Thu Nov 16 19:00:25 PST 2017 ON: 19.99 +20.0 19.60 - 3.1 34.1 05 14 4805 090E Alarm State:  0
Thu Nov 16 18:59:24 PST 2017 ON: 19.99 +20.0 19.67 - 4.5 33.3 00 14 4728 0911 Alarm State:  0
Thu Nov 16 18:58:22 PST 2017 ON: 20.00 +20.0 19.60 - 3.3 33.6 00 14 4814 0908 Alarm State:  0
Thu Nov 16 18:57:21 PST 2017 ON: 19.99 +20.0 19.65 - 3.7 34.0 00 14 472B 090F Alarm State:  0
Thu Nov 16 18:56:19 PST 2017 ON: 20.00 +20.0 19.70 - 5.2 32.9 0D 13 470E 090B Alarm State:  0
Thu Nov 16 18:55:18 PST 2017 ON: 20.00 +20.0 19.61 - 2.9 34.0 02 14 472E 090D Alarm State:  0
Thu Nov 16 18:54:16 PST 2017 ON: 19.98 +20.0 19.66 - 4.3 33.5 05 14 471B 090F Alarm State:  0
Thu Nov 16 18:53:15 PST 2017 ON: 20.03 +20.0 19.65 - 4.0 33.3 00 14 4804 090D Alarm State:  0
Thu Nov 16 18:52:13 PST 2017 ON: 19.99 +20.0 19.64 - 3.8 33.8 0D 14 4805 0922 Alarm State:  0
Thu Nov 16 18:51:12 PST 2017 ON: 20.03 +20.0 19.70 - 4.9 33.0 0A 14 4817 0A01 Alarm State:  0
Thu Nov 16 18:50:10 PST 2017 ON: 20.01 +20.0 19.60 - 2.5 34.1 07 14 4905 0928 Alarm State:  0
Thu Nov 16 18:49:09 PST 2017 ON: 20.01 +20.0 19.62 - 3.5 33.9 0A 14 480C 090E Alarm State:  0
Thu Nov 16 18:48:07 PST 2017 ON: 20.01 +20.0 19.66 - 4.3 33.5 00 14 4716 091E Alarm State:  0
Thu Nov 16 18:47:06 PST 2017 ON: 20.01 +20.0 19.70 - 5.0 32.6 05 14 471A 0A0D Alarm State:  0
Thu Nov 16 18:46:04 PST 2017 ON: 19.97 +20.0 19.61 - 3.7 33.6 00 14 4731 0A02 Alarm State:  0
Thu Nov 16 18:45:03 PST 2017 ON: 20.02 +20.0 19.70 - 4.7 33.0 0D 13 4814 0907 Alarm State:  0
Thu Nov 16 18:44:01 PST 2017 ON: 20.01 +20.0 19.66 - 3.7 33.4 02 14 4801 090D Alarm State:  0
Thu Nov 16 18:43:00 PST 2017 ON: 19.98 +20.0 19.64 - 3.7 34.0 05 14 471F 090B Alarm State:  0
Thu Nov 16 18:41:58 PST 2017 ON: 20.03 +20.0 19.71 - 5.3 33.0 0D 13 4717 090A Alarm State:  0
Thu Nov 16 18:40:57 PST 2017 ON: 20.00 +20.0 19.61 - 2.9 33.9 0A 14 4801 0907 Alarm State:  0
Thu Nov 16 18:39:55 PST 2017 ON: 20.01 +20.0 19.65 - 4.4 33.4 05 14 471C 0A02 Alarm State:  0
Thu Nov 16 18:38:54 PST 2017 ON: 20.03 +20.0 19.65 - 3.7 33.4 00 14 4816 091D Alarm State:  0
Thu Nov 16 18:37:52 PST 2017 ON: 19.96 +20.0 19.62 - 3.7 33.6 00 14 4824 092A Alarm State:  0
Thu Nov 16 18:36:51 PST 2017 ON: 20.03 +20.0 19.68 - 4.6 32.9 00 14 482F 0925 Alarm State:  0
Thu Nov 16 18:35:49 PST 2017 ON: 19.99 +20.0 19.63 - 3.5 34.1 0A 14 481F 0924 Alarm State:  0
Thu Nov 16 18:34:48 PST 2017 ON: 20.00 +20.0 19.69 - 4.8 33.3 0D 14 472F 0901 Alarm State:  0
Thu Nov 16 18:33:46 PST 2017 ON: 20.02 +20.0 19.65 - 3.4 33.6 00 14 4802 091B Alarm State:  0
Thu Nov 16 18:32:45 PST 2017 ON: 19.98 +20.0 19.64 - 4.0 33.6 07 14 4728 0A0F Alarm State:  0
Thu Nov 16 18:31:43 PST 2017 ON: 20.03 +20.0 19.66 - 3.7 33.4 00 14 481B 0908 Alarm State:  0
Thu Nov 16 18:30:42 PST 2017 ON: 20.00 +20.0 19.62 - 3.5 34.1 05 14 4816 0923 Alarm State:  0
Thu Nov 16 18:29:41 PST 2017 ON: 20.00 +20.0 19.69 - 5.1 33.0 0D 14 472F 0926 Alarm State:  0
Thu Nov 16 18:28:39 PST 2017 ON: 20.00 +20.0 19.62 - 3.4 33.5 00 14 480F 090C Alarm State:  0
Thu Nov 16 18:27:38 PST 2017 ON: 19.99 +20.0 19.63 - 3.9 33.9 05 14 4801 0905 Alarm State:  0
Thu Nov 16 18:26:36 PST 2017 ON: 20.02 +20.0 19.74 - 5.6 32.5 0D 11 472F 0922 Alarm State:  0
Thu Nov 16 18:25:35 PST 2017 ON: 19.99 +20.0 19.60 - 3.2 34.2 0C 14 481E 091E Alarm State:  0
Thu Nov 16 18:24:33 PST 2017 ON: 20.01 +20.0 19.70 - 5.1 33.1 0D 13 480D 0912 Alarm State:  0
Thu Nov 16 18:23:32 PST 2017 ON: 20.00 +20.0 19.60 - 2.7 33.9 00 14 4902 0904 Alarm State:  0
Thu Nov 16 18:22:30 PST 2017 ON: 20.01 +20.0 19.66 - 4.0 33.5 07 14 4826 092D Alarm State:  0
Thu Nov 16 18:21:29 PST 2017 ON: 20.02 +20.0 19.64 - 3.4 33.6 00 14 4903 0906 Alarm State:  0
Thu Nov 16 18:20:27 PST 2017 ON: 20.00 +20.0 19.64 - 3.5 33.8 00 14 4809 091A Alarm State:  0
Thu Nov 16 18:19:16 PST 2017 ON: 19.99 +20.0 19.64 - 4.1 33.6 07 14 4728 0919 Alarm State:  0
Thu Nov 16 18:18:14 PST 2017 ON: 20.03 +20.0 19.69 - 4.5 33.0 00 14 4818 090C Alarm State:  0
Thu Nov 16 18:17:13 PST 2017 ON: 19.97 +20.0 19.63 - 3.2 34.1 05 14 4824 091C Alarm State:  0
Thu Nov 16 18:16:11 PST 2017 ON: 20.01 +20.0 19.70 - 5.0 33.0 0A 13 4809 0920 Alarm State:  0
Thu Nov 16 18:15:10 PST 2017 ON: 19.99 +20.0 19.61 - 2.9 33.8 00 14 4829 0924 Alarm State:  0
Thu Nov 16 18:14:08 PST 2017 ON: 19.97 +20.0 19.66 - 4.3 33.4 00 14 4816 092F Alarm State:  0
Thu Nov 16 18:13:07 PST 2017 ON: 20.03 +20.0 19.64 - 3.2 33.6 00 14 490F 0917 Alarm State:  0
Thu Nov 16 18:12:05 PST 2017 ON: 20.02 +20.0 19.66 - 3.8 33.9 07 14 4821 0923 Alarm State:  0
Thu Nov 16 18:11:04 PST 2017 ON: 20.01 +20.0 19.70 - 5.5 32.6 0D 13 4807 0901 Alarm State:  0
Thu Nov 16 18:10:02 PST 2017 ON: 19.99 +20.0 19.61 - 3.1 34.2 02 14 4810 090C Alarm State:  0
Thu Nov 16 18:09:01 PST 2017 ON: 20.01 +20.0 19.70 - 4.5 33.5 0A 13 472F 090D Alarm State:  0
Thu Nov 16 18:07:59 PST 2017 ON: 20.01 +20.0 19.74 - 5.5 32.7 0D 11 4708 0915 Alarm State:  0
Thu Nov 16 18:06:58 PST 2017 ON: 20.01 +20.0 19.63 - 3.2 34.0 0A 14 4708 0A04 Alarm State:  0
Thu Nov 16 18:05:56 PST 2017 ON: 19.99 +20.0 19.67 - 4.9 33.1 0D 14 462A 0B00 Alarm State:  0
Thu Nov 16 18:04:55 PST 2017 ON: 19.98 +20.0 19.57 - 2.5 34.2 00 14 4802 0928 Alarm State:  0
Thu Nov 16 18:03:53 PST 2017 ON: 20.01 +20.0 19.69 - 5.2 32.9 0D 14 4720 0924 Alarm State:  0
Thu Nov 16 18:02:52 PST 2017 ON: 19.99 +20.0 19.58 - 2.4 34.1 01 14 481C 091F Alarm State:  0
Thu Nov 16 18:01:50 PST 2017 ON: 19.99 +20.0 19.65 - 3.8 34.0 05 14 4804 0928 Alarm State:  0
Thu Nov 16 18:00:49 PST 2017 ON: 19.99 +20.0 19.69 - 4.9 33.1 0D 14 471A 090D Alarm State:  0
Thu Nov 16 17:59:47 PST 2017 ON: 20.00 +20.0 19.58 - 2.5 33.9 01 14 4813 0901 Alarm State:  0
Thu Nov 16 17:58:46 PST 2017 ON: 20.00 +20.0 19.66 - 4.0 33.9 07 14 4720 0911 Alarm State:  0
Thu Nov 16 17:57:44 PST 2017 ON: 20.03 +20.0 19.70 - 5.6 32.7 0A 13 4706 091A Alarm State:  0
Thu Nov 16 17:56:43 PST 2017 ON: 20.00 +20.0 19.60 - 2.8 34.1 07 14 4719 091D Alarm State:  0
Thu Nov 16 17:55:41 PST 2017 ON: 19.98 +20.0 19.67 - 4.9 33.1 05 14 4705 0A1E Alarm State:  0
Thu Nov 16 17:54:40 PST 2017 ON: 19.98 +20.0 19.59 - 2.4 34.1 00 14 480D 0923 Alarm State:  0
Thu Nov 16 17:53:38 PST 2017 ON: 20.02 +20.0 19.66 - 3.4 33.9 07 14 472E 0928 Alarm State:  0
Thu Nov 16 17:52:37 PST 2017 ON: 19.99 +20.0 19.66 - 4.7 33.2 0C 14 470D 0A03 Alarm State:  0
Thu Nov 16 17:51:35 PST 2017 ON: 20.00 +20.0 19.58 - 2.5 34.2 01 14 4818 090B Alarm State:  0
Thu Nov 16 17:50:34 PST 2017 ON: 20.02 +20.0 19.68 - 4.6 33.5 00 14 472A 0915 Alarm State:  0
Thu Nov 16 17:49:32 PST 2017 ON: 20.01 +20.0 19.71 - 5.5 32.5 0A 13 4706 0924 Alarm State:  0
Thu Nov 16 17:48:31 PST 2017 ON: 19.98 +20.0 19.61 - 2.9 34.2 00 14 4725 0924 Alarm State:  0
Thu Nov 16 17:47:29 PST 2017 ON: 20.02 +20.0 19.70 - 5.0 33.1 0D 13 4711 0921 Alarm State:  0
Thu Nov 16 17:46:28 PST 2017 ON: 20.01 +20.0 19.62 - 3.0 33.9 07 14 4732 0922 Alarm State:  0
Thu Nov 16 17:45:26 PST 2017 ON: 20.01 +20.0 19.62 - 3.6 33.9 00 14 4718 0906 Alarm State:  0
Thu Nov 16 17:44:25 PST 2017 ON: 20.00 +20.0 19.66 - 4.8 33.0 07 14 4703 0A08 Alarm State:  0
Thu Nov 16 17:43:23 PST 2017 ON: 19.98 +20.0 19.59 - 2.4 34.3 07 14 480E 0906 Alarm State:  0
Thu Nov 16 17:42:22 PST 2017 ON: 20.00 +20.0 19.68 - 4.4 33.6 00 14 472A 0906 Alarm State:  0
Thu Nov 16 17:41:20 PST 2017 ON: 20.01 +20.0 19.71 - 5.4 32.5 0D 13 470E 0911 Alarm State:  0
Thu Nov 16 17:40:19 PST 2017 ON: 19.97 +20.0 19.60 - 3.2 34.1 04 14 4727 090C Alarm State:  0
Thu Nov 16 17:39:18 PST 2017 ON: 20.00 +20.0 19.70 - 5.3 32.8 0D 13 4723 0928 Alarm State:  0
Thu Nov 16 17:38:16 PST 2017 ON: 19.99 +20.0 19.62 - 2.8 34.1 07 14 4827 0916 Alarm State:  0
Thu Nov 16 17:37:15 PST 2017 ON: 20.02 +20.0 19.65 - 4.2 33.5 00 14 4813 091F Alarm State:  0
Thu Nov 16 17:36:13 PST 2017 ON: 20.04 +20.0 19.69 - 4.9 32.8 0A 14 480A 091D Alarm State:  0
Thu Nov 16 17:35:12 PST 2017 ON: 20.02 +20.0 19.65 - 3.8 33.5 00 14 472B 0928 Alarm State:  0
Thu Nov 16 17:34:10 PST 2017 ON: 20.01 +20.0 19.64 - 3.9 33.8 05 14 4718 0926 Alarm State:  0
Thu Nov 16 17:33:09 PST 2017 ON: 20.02 +20.0 19.71 - 5.3 32.5 08 13 4718 090F Alarm State:  0
Thu Nov 16 17:32:07 PST 2017 ON: 19.97 +20.0 19.60 - 3.0 34.1 07 14 472F 090E Alarm State:  0
Thu Nov 16 17:31:06 PST 2017 ON: 20.00 +20.0 19.66 - 4.6 33.5 05 14 471F 090B Alarm State:  0
Thu Nov 16 17:30:04 PST 2017 ON: 20.01 +20.0 19.69 - 5.1 32.6 0A 14 472E 0920 Alarm State:  0
Thu Nov 16 17:29:03 PST 2017 ON: 19.99 +20.0 19.61 - 3.0 34.2 07 14 481B 091B Alarm State:  0
Thu Nov 16 17:28:01 PST 2017 ON: 20.02 +20.0 19.68 - 4.9 33.1 0D 14 480C 090F Alarm State:  0
Thu Nov 16 17:27:00 PST 2017 ON: 20.02 +20.0 19.62 - 3.3 33.7 00 14 4806 0908 Alarm State:  0
Thu Nov 16 17:25:58 PST 2017 ON: 20.02 +20.0 19.68 - 4.1 33.8 0D 14 4712 0918 Alarm State:  0
Thu Nov 16 17:24:57 PST 2017 ON: 20.01 +20.0 19.71 - 5.9 32.1 08 13 462F 0917 Alarm State:  0
Thu Nov 16 17:23:55 PST 2017 ON: 19.97 +20.0 19.63 - 3.4 34.1 02 14 471B 0919 Alarm State:  0
Thu Nov 16 17:22:54 PST 2017 ON: 20.01 +20.0 19.72 - 5.1 33.1 0D 12 4719 0927 Alarm State:  0
Thu Nov 16 17:21:52 PST 2017 ON: 20.02 +20.0 19.68 - 4.4 33.1 00 14 4706 0906 Alarm State:  0
Thu Nov 16 17:20:51 PST 2017 ON: 20.00 +20.0 19.66 - 3.9 33.7 07 14 4706 091C Alarm State:  0
Thu Nov 16 17:19:49 PST 2017 ON: 20.03 +20.0 19.73 - 5.6 32.1 0A 12 470F 0A06 Alarm State:  0
Thu Nov 16 17:18:48 PST 2017 ON: 19.99 +20.0 19.62 - 3.5 33.9 05 14 4806 0918 Alarm State:  0
Thu Nov 16 17:17:46 PST 2017 ON: 20.03 +20.0 19.71 - 5.1 33.0 0D 13 4811 091B Alarm State:  0
Thu Nov 16 17:16:45 PST 2017 ON: 20.01 +20.0 19.62 - 3.6 33.5 00 14 480F 090C Alarm State:  0
Thu Nov 16 17:15:43 PST 2017 ON: 19.99 +20.0 19.64 - 3.9 33.6 05 14 4806 0925 Alarm State:  0
Thu Nov 16 17:14:42 PST 2017 ON: 20.01 +20.0 19.69 - 4.8 32.7 05 14 481E 0923 Alarm State:  0
Thu Nov 16 17:13:40 PST 2017 ON: 19.97 +20.0 19.62 - 3.2 34.1 05 14 4904 092B Alarm State:  0
Thu Nov 16 17:12:39 PST 2017 ON: 20.00 +20.0 19.71 - 5.5 32.7 0D 13 4821 0924 Alarm State:  0
Thu Nov 16 17:11:37 PST 2017 ON: 19.98 +20.0 19.60 - 2.6 34.2 07 14 4919 090F Alarm State:  0
Thu Nov 16 17:10:36 PST 2017 ON: 20.02 +20.0 19.68 - 4.2 33.5 0A 14 482C 0918 Alarm State:  0
Thu Nov 16 17:09:34 PST 2017 ON: 20.03 +20.0 19.67 - 4.6 32.9 00 14 4823 090C Alarm State:  0
Thu Nov 16 17:08:33 PST 2017 ON: 20.02 +20.0 19.64 - 3.5 34.0 05 14 481F 0924 Alarm State:  0
Thu Nov 16 17:07:31 PST 2017 ON: 20.04 +20.0 19.72 - 5.6 32.5 0D 12 480C 0924 Alarm State:  0
Thu Nov 16 17:06:30 PST 2017 ON: 19.98 +20.0 19.60 - 2.7 34.3 0A 14 4908 090B Alarm State:  0
Thu Nov 16 17:05:28 PST 2017 ON: 20.04 +20.0 19.70 - 4.7 33.2 0D 13 481F 090E Alarm State:  0
Thu Nov 16 17:04:27 PST 2017 ON: 20.03 +20.0 19.62 - 2.9 33.7 00 14 490B 090D Alarm State:  0
Thu Nov 16 17:03:25 PST 2017 ON: 20.00 +20.0 19.65 - 3.8 33.9 05 14 481C 091A Alarm State:  0
Thu Nov 16 17:02:24 PST 2017 ON: 20.02 +20.0 19.73 - 5.6 32.6 0A 12 472E 0926 Alarm State:  0
Thu Nov 16 17:01:22 PST 2017 ON: 19.98 +20.0 19.62 - 3.0 34.2 02 14 4811 0905 Alarm State:  0
Thu Nov 16 17:00:21 PST 2017 ON: 20.00 +20.0 19.69 - 4.8 33.3 0D 14 472B 0903 Alarm State:  0
Thu Nov 16 16:59:19 PST 2017 ON: 20.01 +20.0 19.65 - 4.2 33.2 02 14 4808 0913 Alarm State:  0
Thu Nov 16 16:58:18 PST 2017 ON: 19.98 +20.0 19.62 - 3.6 33.8 05 14 4811 0929 Alarm State:  0
Thu Nov 16 16:57:16 PST 2017 ON: 20.03 +20.0 19.71 - 5.2 32.4 0A 13 4821 0A04 Alarm State:  0
Thu Nov 16 16:56:15 PST 2017 ON: 20.00 +20.0 19.61 - 3.1 34.2 0C 14 490D 092D Alarm State:  0
Thu Nov 16 16:55:13 PST 2017 ON: 20.00 +20.0 19.68 - 4.6 33.3 0D 14 4901 0920 Alarm State:  0
Thu Nov 16 16:54:12 PST 2017 ON: 20.02 +20.0 19.67 - 4.6 32.8 00 14 4821 0924 Alarm State:  0
Thu Nov 16 16:53:10 PST 2017 ON: 19.99 +20.0 19.65 - 3.5 34.0 0A 14 4815 0917 Alarm State:  0
Thu Nov 16 16:52:09 PST 2017 ON: 20.02 +20.0 19.70 - 4.9 33.1 0D 13 4800 0909 Alarm State:  0
Thu Nov 16 16:51:07 PST 2017 ON: 20.02 +20.0 19.61 - 2.8 33.9 05 14 480A 0900 Alarm State:  0
Thu Nov 16 16:50:06 PST 2017 ON: 20.00 +20.0 19.67 - 4.5 33.2 05 14 4720 0A02 Alarm State:  0
Thu Nov 16 16:49:04 PST 2017 ON: 19.99 +20.0 19.59 - 2.2 34.1 00 14 4825 0911 Alarm State:  0
Thu Nov 16 16:48:03 PST 2017 ON: 19.98 +20.0 19.64 - 3.9 33.9 00 14 4804 0917 Alarm State:  0
Thu Nov 16 16:47:01 PST 2017 ON: 20.02 +20.0 19.72 - 5.4 32.7 0D 12 471F 0916 Alarm State:  0
Thu Nov 16 16:46:00 PST 2017 ON: 19.99 +20.0 19.61 - 2.7 34.1 00 14 4803 0923 Alarm State:  0
Thu Nov 16 16:44:58 PST 2017 ON: 20.02 +20.0 19.67 - 4.1 33.6 05 14 4720 0926 Alarm State:  0
Thu Nov 16 16:43:57 PST 2017 ON: 20.04 +20.0 19.69 - 4.6 32.8 0D 14 4729 0910 Alarm State:  0
Thu Nov 16 16:42:55 PST 2017 ON: 19.98 +20.0 19.62 - 3.2 34.1 05 14 4802 091E Alarm State:  0
Thu Nov 16 16:41:54 PST 2017 ON: 20.01 +20.0 19.71 - 5.4 32.6 05 13 4723 091A Alarm State:  0
Thu Nov 16 16:40:52 PST 2017 ON: 19.98 +20.0 19.61 - 3.0 34.1 07 14 4721 090D Alarm State:  0
Thu Nov 16 16:39:51 PST 2017 ON: 19.98 +20.0 19.67 - 4.3 33.6 00 14 4702 0917 Alarm State:  0
Thu Nov 16 16:38:50 PST 2017 ON: 20.03 +20.0 19.70 - 5.0 32.4 0A 13 470A 090A Alarm State:  0
Thu Nov 16 16:37:48 PST 2017 ON: 19.98 +20.0 19.61 - 3.1 34.2 0A 14 4729 090D Alarm State:  0
Thu Nov 16 16:36:47 PST 2017 ON: 20.02 +20.0 19.69 - 4.8 33.1 0D 14 4721 0929 Alarm State:  0
Thu Nov 16 16:35:45 PST 2017 ON: 20.01 +20.0 19.62 - 2.8 33.9 00 14 4817 0920 Alarm State:  0
Thu Nov 16 16:34:44 PST 2017 ON: 19.99 +20.0 19.62 - 3.7 33.8 00 14 4811 0915 Alarm State:  0
Thu Nov 16 16:33:42 PST 2017 ON: 20.03 +20.0 19.68 - 4.2 33.3 0D 14 4822 0920 Alarm State:  0
Thu Nov 16 16:32:41 PST 2017 ON: 20.02 +20.0 19.66 - 4.3 33.1 00 14 472D 090C Alarm State:  0
Thu Nov 16 16:31:39 PST 2017 ON: 19.97 +20.0 19.64 - 3.7 33.6 00 14 4732 092F Alarm State:  0
Thu Nov 16 16:30:38 PST 2017 ON: 20.03 +20.0 19.72 - 4.8 32.9 0D 12 4807 0908 Alarm State:  0
Thu Nov 16 16:29:36 PST 2017 ON: 20.00 +20.0 19.63 - 3.3 33.7 02 14 472B 0925 Alarm State:  0
Thu Nov 16 16:28:35 PST 2017 ON: 20.00 +20.0 19.67 - 3.9 33.6 00 14 471F 091E Alarm State:  0
Thu Nov 16 16:27:33 PST 2017 ON: 20.01 +20.0 19.67 - 4.2 32.9 05 14 480D 0921 Alarm State:  0
Thu Nov 16 16:26:32 PST 2017 ON: 20.01 +20.0 19.60 - 2.8 34.2 00 14 481F 0902 Alarm State:  0
Thu Nov 16 16:25:30 PST 2017 ON: 20.03 +20.0 19.67 - 4.3 33.5 0C 14 4806 090C Alarm State:  0
Thu Nov 16 16:24:29 PST 2017 ON: 20.01 +20.0 19.68 - 4.4 33.1 08 14 4808 0909 Alarm State:  0
Thu Nov 16 16:23:27 PST 2017 ON: 20.00 +20.0 19.60 - 2.9 33.9 00 14 480B 0922 Alarm State:  0
Thu Nov 16 16:22:26 PST 2017 ON: 19.98 +20.0 19.65 - 4.5 33.3 0A 14 472A 0A25 Alarm State:  0
Thu Nov 16 16:21:24 PST 2017 ON: 19.98 +20.0 19.59 - 2.2 34.2 02 14 4901 0922 Alarm State:  0
Thu Nov 16 16:20:23 PST 2017 ON: 20.01 +20.0 19.66 - 3.8 33.9 05 14 481E 0925 Alarm State:  0
Thu Nov 16 16:19:21 PST 2017 ON: 20.00 +20.0 19.68 - 4.8 33.1 0D 14 4801 0A08 Alarm State:  0
Thu Nov 16 16:18:20 PST 2017 ON: 19.98 +20.0 19.58 - 2.2 34.2 01 14 4902 091A Alarm State:  0
Thu Nov 16 16:17:18 PST 2017 ON: 20.01 +20.0 19.66 - 3.6 34.0 00 14 480A 0920 Alarm State:  0
Thu Nov 16 16:16:17 PST 2017 ON: 20.00 +20.0 19.67 - 3.8 34.0 0A 14 4719 0906 Alarm State:  0
Thu Nov 16 16:15:15 PST 2017 ON: 20.00 +20.0 19.67 - 4.6 33.3 05 14 4700 0910 Alarm State:  0
Thu Nov 16 16:14:14 PST 2017 ON: 20.03 +20.0 19.64 - 3.6 33.4 00 14 4718 0918 Alarm State:  0
Thu Nov 16 16:13:12 PST 2017 ON: 19.98 +20.0 19.63 - 3.8 33.3 07 14 471F 092A Alarm State:  0
Thu Nov 16 16:12:11 PST 2017 ON: 20.01 +20.0 19.65 - 3.3 33.6 00 14 4814 090C Alarm State:  0
Thu Nov 16 16:11:09 PST 2017 ON: 19.99 +20.0 19.64 - 4.0 33.4 07 14 480F 092A Alarm State:  0
Thu Nov 16 16:10:08 PST 2017 ON: 20.01 +20.0 19.63 - 3.0 33.7 02 14 490C 0911 Alarm State:  0
Thu Nov 16 16:09:06 PST 2017 ON: 19.98 +20.0 19.63 - 3.7 33.7 00 14 4820 090F Alarm State:  0
Thu Nov 16 16:08:04 PST 2017 ON: 20.04 +20.0 19.69 - 4.7 32.8 0A 14 4820 0900 Alarm State:  0
Thu Nov 16 16:07:03 PST 2017 ON: 20.00 +20.0 19.61 - 2.8 34.0 02 14 4811 0906 Alarm State:  0
Thu Nov 16 16:06:02 PST 2017 ON: 20.03 +20.0 19.66 - 4.0 33.7 07 14 471E 0911 Alarm State:  0
Thu Nov 16 16:05:00 PST 2017 ON: 20.02 +20.0 19.72 - 5.7 32.3 0D 13 470F 0A17 Alarm State:  0
Thu Nov 16 16:03:58 PST 2017 ON: 19.98 +20.0 19.58 - 2.8 34.3 0C 14 480E 0927 Alarm State:  0
Thu Nov 16 16:02:57 PST 2017 ON: 20.03 +20.0 19.70 - 4.5 33.4 0A 13 4811 0909 Alarm State:  0
Thu Nov 16 16:01:56 PST 2017 ON: 20.02 +20.0 19.68 - 4.7 32.5 00 14 4728 0918 Alarm State:  0
Thu Nov 16 16:00:54 PST 2017 ON: 19.99 +20.0 19.63 - 3.1 34.2 00 14 4731 092C Alarm State:  0
Thu Nov 16 15:59:53 PST 2017 ON: 19.99 +20.0 19.69 - 4.6 33.2 0D 14 471F 0927 Alarm State:  0
Thu Nov 16 15:58:51 PST 2017 ON: 19.98 +20.0 19.59 - 2.4 34.0 00 14 480B 0924 Alarm State:  0
Thu Nov 16 15:57:50 PST 2017 ON: 20.00 +20.0 19.66 - 4.0 33.7 07 14 4714 0904 Alarm State:  0
Thu Nov 16 15:56:48 PST 2017 ON: 20.02 +20.0 19.71 - 5.0 32.4 0A 13 4711 091F Alarm State:  0
Thu Nov 16 15:55:47 PST 2017 ON: 19.99 +20.0 19.61 - 3.1 34.2 05 14 472D 0922 Alarm State:  0
Thu Nov 16 15:54:45 PST 2017 ON: 20.05 +20.0 19.71 - 5.2 32.9 0D 13 4728 090E Alarm State:  0
Thu Nov 16 15:53:44 PST 2017 ON: 20.02 +20.0 19.61 - 2.6 34.1 02 14 4812 090F Alarm State:  0
Thu Nov 16 15:52:42 PST 2017 ON: 19.99 +20.0 19.67 - 4.5 33.4 05 14 471E 091E Alarm State:  0
Thu Nov 16 15:51:41 PST 2017 ON: 20.01 +20.0 19.62 - 3.2 33.6 00 14 4808 0923 Alarm State:  0
Thu Nov 16 15:50:39 PST 2017 ON: 20.00 +20.0 19.63 - 3.0 34.0 07 14 4721 0901 Alarm State:  0
Thu Nov 16 15:49:38 PST 2017 ON: 19.98 +20.0 19.67 - 4.3 33.3 0C 14 4710 092A Alarm State:  0
Thu Nov 16 15:48:36 PST 2017 ON: 20.03 +20.0 19.61 - 2.4 33.9 00 14 4811 090A Alarm State:  0
Thu Nov 16 15:47:35 PST 2017 ON: 20.01 +20.0 19.66 - 3.8 33.9 07 14 4727 090E Alarm State:  0
Thu Nov 16 15:46:33 PST 2017 ON: 20.00 +20.0 19.73 - 5.4 32.6 0D 12 4719 0909 Alarm State:  0
Thu Nov 16 15:45:32 PST 2017 ON: 19.99 +20.0 19.60 - 2.7 34.2 07 14 4809 0904 Alarm State:  0
Thu Nov 16 15:44:30 PST 2017 ON: 20.00 +20.0 19.66 - 4.1 33.8 00 14 4726 0903 Alarm State:  0
Thu Nov 16 15:43:29 PST 2017 ON: 20.01 +20.0 19.71 - 5.3 32.6 0D 13 4711 0A03 Alarm State:  0
Thu Nov 16 15:42:27 PST 2017 ON: 19.95 +20.0 19.58 - 2.8 34.2 04 14 4810 090D Alarm State:  0
Thu Nov 16 15:41:26 PST 2017 ON: 20.00 +20.0 19.67 - 3.9 33.8 00 14 4811 0924 Alarm State:  0
Thu Nov 16 15:40:24 PST 2017 ON: 20.03 +20.0 19.74 - 5.3 32.6 0D 11 4722 090C Alarm State:  0
Thu Nov 16 15:39:23 PST 2017 ON: 19.96 +20.0 19.62 - 3.2 34.2 02 14 4729 091D Alarm State:  0
Thu Nov 16 15:38:21 PST 2017 ON: 20.02 +20.0 19.68 - 4.6 33.2 07 14 4715 0912 Alarm State:  0
Thu Nov 16 15:37:19 PST 2017 ON: 20.04 +20.0 19.64 - 2.9 33.8 00 14 470D 0911 Alarm State:  0
Thu Nov 16 15:36:18 PST 2017 ON: 20.00 +20.0 19.68 - 4.6 33.1 0C 14 4620 0A15 Alarm State:  0
Thu Nov 16 15:35:16 PST 2017 ON: 19.98 +20.0 19.57 - 1.9 34.3 00 14 472B 0913 Alarm State:  0
Thu Nov 16 15:34:15 PST 2017 ON: 20.03 +20.0 19.68 - 4.3 33.5 0C 14 4714 091B Alarm State:  0
Thu Nov 16 15:33:13 PST 2017 ON: 20.01 +20.0 19.70 - 5.0 32.6 08 13 4718 090E Alarm State:  0
Thu Nov 16 15:32:12 PST 2017 ON: 19.98 +20.0 19.63 - 3.2 33.9 02 14 4800 0909 Alarm State:  0
Thu Nov 16 15:31:01 PST 2017  Alarm State: 0
Thu Nov 16 15:31:01 PST 2017 Chiller did not report ON, got this reading: 
Thu Nov 16 15:29:59 PST 2017 ON: 20.03 +20.0 19.66 - 4.1 33.3 00 14 4706 0A10 Alarm State:  0
Thu Nov 16 15:28:58 PST 2017 ON: 19.98 +20.0 19.62 - 3.7 33.5 07 14 470A 0A23 Alarm State:  0
Thu Nov 16 15:27:56 PST 2017 ON: 20.02 +20.0 19.60 - 2.4 33.9 00 14 480C 0926 Alarm State:  0
Thu Nov 16 15:26:55 PST 2017 ON: 20.00 +20.0 19.67 - 3.9 33.5 07 14 472C 0926 Alarm State:  0
Thu Nov 16 15:25:53 PST 2017 ON: 20.03 +20.0 19.69 - 4.7 32.6 0D 14 4809 0909 Alarm State:  0
Thu Nov 16 15:24:52 PST 2017 ON: 20.00 +20.0 19.63 - 3.1 34.2 00 14 4818 090E Alarm State:  0
Thu Nov 16 15:23:50 PST 2017 ON: 20.00 +20.0 19.70 - 4.9 33.0 0D 13 480E 0924 Alarm State:  0
Thu Nov 16 15:22:49 PST 2017 ON: 19.99 +20.0 19.61 - 2.5 34.1 02 14 4819 090A Alarm State:  0
Thu Nov 16 15:21:47 PST 2017 ON: 20.01 +20.0 19.68 - 3.8 34.0 05 14 471D 091B Alarm State:  0
Thu Nov 16 15:20:46 PST 2017 ON: 20.00 +20.0 19.69 - 4.9 33.0 0D 14 4704 0927 Alarm State:  0
Thu Nov 16 15:19:44 PST 2017 ON: 19.99 +20.0 19.60 - 2.2 34.2 00 14 4809 090E Alarm State:  0
Thu Nov 16 15:18:43 PST 2017 ON: 20.00 +20.0 19.65 - 4.1 33.5 00 14 472D 0912 Alarm State:  0
Thu Nov 16 15:17:41 PST 2017 ON: 20.01 +20.0 19.65 - 3.1 33.6 00 14 4818 0914 Alarm State:  0
Thu Nov 16 15:16:40 PST 2017 ON: 19.97 +20.0 19.65 - 3.9 33.5 00 14 4807 0A0A Alarm State:  0
Thu Nov 16 15:15:38 PST 2017 ON: 20.03 +20.0 19.60 - 2.5 33.9 00 14 490C 0914 Alarm State:  0
Thu Nov 16 15:14:37 PST 2017 ON: 20.02 +20.0 19.64 - 2.9 34.1 07 14 4826 091C Alarm State:  0
Thu Nov 16 15:13:35 PST 2017 ON: 20.00 +20.0 19.67 - 4.2 33.5 00 14 472F 0902 Alarm State:  0
Thu Nov 16 15:12:34 PST 2017 ON: 20.02 +20.0 19.66 - 3.7 33.5 00 14 4803 0923 Alarm State:  0
Thu Nov 16 15:11:32 PST 2017 ON: 20.01 +20.0 19.62 - 3.0 33.9 02 14 4718 0907 Alarm State:  0
Thu Nov 16 15:10:31 PST 2017 ON: 19.99 +20.0 19.67 - 4.2 33.4 00 14 4626 0A15 Alarm State:  0
Thu Nov 16 15:09:29 PST 2017 ON: 20.03 +20.0 19.62 - 3.1 33.6 00 14 4723 0A07 Alarm State:  0
Thu Nov 16 15:08:28 PST 2017 ON: 19.97 +20.0 19.65 - 4.1 33.5 05 14 471E 0A1A Alarm State:  0
Thu Nov 16 15:07:26 PST 2017 ON: 20.02 +20.0 19.60 - 2.5 33.9 00 14 4825 0916 Alarm State:  0
Thu Nov 16 15:06:25 PST 2017 ON: 20.01 +20.0 19.64 - 3.2 34.0 07 14 480A 0920 Alarm State:  0
Thu Nov 16 15:05:23 PST 2017 ON: 20.02 +20.0 19.68 - 4.6 33.3 05 14 4717 092B Alarm State:  0
Thu Nov 16 15:04:22 PST 2017 ON: 20.02 +20.0 19.61 - 2.4 34.0 02 14 4811 091B Alarm State:  0
Thu Nov 16 15:03:20 PST 2017 ON: 20.01 +20.0 19.64 - 3.9 33.8 07 14 472E 0926 Alarm State:  0
Thu Nov 16 15:02:19 PST 2017 ON: 20.04 +20.0 19.69 - 4.9 32.4 0D 14 472B 0918 Alarm State:  0
Thu Nov 16 15:01:17 PST 2017 ON: 19.97 +20.0 19.61 - 3.1 34.2 00 14 480A 0921 Alarm State:  0
Thu Nov 16 15:00:16 PST 2017 ON: 20.01 +20.0 19.68 - 4.3 33.4 0D 14 4803 091B Alarm State:  0
Thu Nov 16 14:59:14 PST 2017 ON: 20.01 +20.0 19.64 - 3.7 33.4 00 14 480F 0900 Alarm State:  0
Thu Nov 16 14:58:13 PST 2017 ON: 19.98 +20.0 19.64 - 3.6 34.0 00 14 472B 0929 Alarm State:  0
Thu Nov 16 14:57:11 PST 2017 ON: 20.01 +20.0 19.72 - 5.4 32.6 0D 12 471B 0926 Alarm State:  0
Thu Nov 16 14:56:10 PST 2017 ON: 19.98 +20.0 19.61 - 2.9 34.2 05 14 480D 0922 Alarm State:  0
Thu Nov 16 14:55:08 PST 2017 ON: 20.01 +20.0 19.69 - 4.3 33.4 0A 14 4801 091B Alarm State:  0
Thu Nov 16 14:54:07 PST 2017 ON: 20.04 +20.0 19.66 - 3.4 33.6 00 14 472D 0917 Alarm State:  0
Thu Nov 16 14:53:05 PST 2017 ON: 19.98 +20.0 19.64 - 3.8 33.9 05 14 4703 0928 Alarm State:  0
Thu Nov 16 14:52:04 PST 2017 ON: 19.99 +20.0 19.67 - 4.7 33.1 05 14 461B 092C Alarm State:  0
Thu Nov 16 14:51:02 PST 2017 ON: 20.01 +20.0 19.58 - 2.3 34.0 01 14 4714 0914 Alarm State:  0
Thu Nov 16 14:50:01 PST 2017 ON: 20.00 +20.0 19.65 - 4.2 33.4 05 14 4630 0A10 Alarm State:  0
Thu Nov 16 14:48:59 PST 2017 ON: 20.00 +20.0 19.63 - 3.2 33.6 00 14 472D 0901 Alarm State:  0
Thu Nov 16 14:47:58 PST 2017 ON: 19.98 +20.0 19.63 - 3.3 34.1 00 14 471E 091C Alarm State:  0
Thu Nov 16 14:46:56 PST 2017 ON: 20.00 +20.0 19.68 - 4.6 33.3 0A 14 471A 0915 Alarm State:  0
Thu Nov 16 14:45:55 PST 2017 ON: 20.02 +20.0 19.63 - 3.5 33.4 00 14 4808 090A Alarm State:  0
Thu Nov 16 14:44:53 PST 2017 ON: 20.00 +20.0 19.62 - 3.3 34.0 07 14 480A 092B Alarm State:  0
Thu Nov 16 14:43:52 PST 2017 ON: 20.05 +20.0 19.72 - 5.3 32.8 0D 12 4732 091F Alarm State:  0
Thu Nov 16 14:42:50 PST 2017 ON: 19.99 +20.0 19.61 - 2.8 34.1 00 14 4807 0914 Alarm State:  0
Thu Nov 16 14:41:49 PST 2017 ON: 20.00 +20.0 19.66 - 4.4 33.4 00 14 4713 0920 Alarm State:  0
Thu Nov 16 14:40:47 PST 2017 ON: 20.02 +20.0 19.70 - 4.9 32.4 05 14 4717 0A0F Alarm State:  0
Thu Nov 16 14:39:46 PST 2017 ON: 19.97 +20.0 19.62 - 3.3 33.9 00 14 4730 0A04 Alarm State:  0
Thu Nov 16 14:38:44 PST 2017 ON: 20.04 +20.0 19.70 - 4.9 32.7 0D 13 480D 0911 Alarm State:  0
Thu Nov 16 14:37:43 PST 2017 ON: 20.00 +20.0 19.59 - 2.5 34.2 07 14 4824 091A Alarm State:  0
Thu Nov 16 14:36:41 PST 2017 ON: 20.02 +20.0 19.65 - 4.0 33.7 00 14 4809 0922 Alarm State:  0
Thu Nov 16 14:35:40 PST 2017 ON: 20.01 +20.0 19.68 - 4.7 32.8 00 14 472E 0923 Alarm State:  0
Thu Nov 16 14:34:38 PST 2017 ON: 20.00 +20.0 19.63 - 2.9 34.0 00 14 4804 0A09 Alarm State:  0
Thu Nov 16 14:33:37 PST 2017 ON: 19.99 +20.0 19.66 - 4.2 33.4 05 14 480C 0A23 Alarm State:  0
Thu Nov 16 14:32:36 PST 2017 ON: 19.99 +20.0 19.58 - 2.0 34.2 09 14 4914 0928 Alarm State:  0
Thu Nov 16 14:31:34 PST 2017 ON: 20.01 +20.0 19.65 - 3.8 33.9 00 14 4823 0908 Alarm State:  0
Thu Nov 16 14:30:33 PST 2017 ON: 20.01 +20.0 19.67 - 3.9 33.9 00 14 4804 091A Alarm State:  0
Thu Nov 16 14:29:31 PST 2017 ON: 20.00 +20.0 19.69 - 5.0 33.0 0D 14 4711 0A04 Alarm State:  0
Thu Nov 16 14:28:30 PST 2017 ON: 19.98 +20.0 19.60 - 2.4 34.2 07 14 4815 0917 Alarm State:  0
Thu Nov 16 14:27:28 PST 2017 ON: 20.01 +20.0 19.65 - 3.8 33.9 00 14 4730 0918 Alarm State:  0
Thu Nov 16 14:26:27 PST 2017 ON: 20.03 +20.0 19.71 - 5.1 32.9 0D 13 4715 0920 Alarm State:  0
Thu Nov 16 14:25:25 PST 2017 ON: 19.98 +20.0 19.60 - 2.5 34.2 07 14 4810 0922 Alarm State:  0
Thu Nov 16 14:24:24 PST 2017 ON: 19.99 +20.0 19.63 - 3.7 33.7 00 14 481B 090E Alarm State:  0
Thu Nov 16 14:23:22 PST 2017 ON: 20.06 +20.0 19.70 - 4.5 33.0 0A 13 481B 0920 Alarm State:  0
Thu Nov 16 14:22:21 PST 2017 ON: 20.04 +20.0 19.65 - 3.2 33.7 02 14 4723 0905 Alarm State:  0
Thu Nov 16 14:21:19 PST 2017 ON: 19.99 +20.0 19.67 - 4.1 33.6 07 14 462E 0A12 Alarm State:  0
Thu Nov 16 14:20:18 PST 2017 ON: 20.01 +20.0 19.71 - 5.2 32.6 08 13 470A 0A25 Alarm State:  0
Thu Nov 16 14:19:16 PST 2017 ON: 19.96 +20.0 19.62 - 3.3 34.1 0A 14 4805 0A07 Alarm State:  0
Thu Nov 16 14:18:15 PST 2017 ON: 20.02 +20.0 19.72 - 5.5 32.2 0A 12 4808 0917 Alarm State:  0
Thu Nov 16 14:17:13 PST 2017 ON: 20.00 +20.0 19.64 - 3.4 34.0 07 14 4822 0915 Alarm State:  0
Thu Nov 16 14:16:12 PST 2017 ON: 20.03 +20.0 19.70 - 4.7 33.3 0D 13 4825 091C Alarm State:  0
Thu Nov 16 14:15:10 PST 2017 ON: 20.02 +20.0 19.62 - 3.1 33.7 00 14 4819 091D Alarm State:  0
Thu Nov 16 14:14:08 PST 2017 ON: 20.00 +20.0 19.65 - 4.0 33.4 02 14 472B 091F Alarm State:  0
Thu Nov 16 14:13:07 PST 2017 ON: 20.01 +20.0 19.63 - 3.6 33.4 00 14 480E 0923 Alarm State:  0
Thu Nov 16 14:12:05 PST 2017 ON: 19.99 +20.0 19.63 - 3.3 34.1 05 14 4722 090A Alarm State:  0
Thu Nov 16 14:11:04 PST 2017 ON: 20.02 +20.0 19.66 - 4.6 33.3 05 14 470E 0A0F Alarm State:  0
Thu Nov 16 14:10:02 PST 2017 ON: 20.01 +20.0 19.61 - 2.4 34.0 05 14 4812 0921 Alarm State:  0
Thu Nov 16 14:09:01 PST 2017 ON: 19.98 +20.0 19.63 - 3.8 33.9 00 14 4804 0924 Alarm State:  0
Thu Nov 16 14:07:59 PST 2017 ON: 20.00 +20.0 19.72 - 5.3 32.5 05 12 4728 0920 Alarm State:  0
Thu Nov 16 14:06:58 PST 2017 ON: 19.98 +20.0 19.60 - 2.9 34.3 0A 14 481D 0914 Alarm State:  0
Thu Nov 16 14:05:56 PST 2017 ON: 20.01 +20.0 19.69 - 4.3 33.4 0D 14 4814 0904 Alarm State:  0
Thu Nov 16 14:04:55 PST 2017 ON: 20.05 +20.0 19.69 - 4.5 33.0 0D 14 4723 0917 Alarm State:  0
Thu Nov 16 14:03:53 PST 2017 ON: 20.03 +20.0 19.62 - 3.3 33.7 02 14 470E 0921 Alarm State:  0
Thu Nov 16 14:02:52 PST 2017 ON: 19.98 +20.0 19.64 - 4.0 33.5 00 14 462F 091C Alarm State:  0
Thu Nov 16 14:01:51 PST 2017 ON: 20.03 +20.0 19.66 - 3.7 33.3 00 14 4723 0911 Alarm State:  0
Thu Nov 16 14:00:49 PST 2017 ON: 19.97 +20.0 19.62 - 3.6 33.8 05 14 4723 092A Alarm State:  0
Thu Nov 16 13:59:48 PST 2017 ON: 20.03 +20.0 19.67 - 4.1 33.2 00 14 480D 091D Alarm State:  0
Thu Nov 16 13:58:46 PST 2017 ON: 20.00 +20.0 19.62 - 3.1 34.0 07 14 4720 0928 Alarm State:  0
Thu Nov 16 13:57:45 PST 2017 ON: 19.98 +20.0 19.65 - 4.1 33.5 00 14 4703 092E Alarm State:  0
Thu Nov 16 13:56:43 PST 2017 ON: 20.04 +20.0 19.69 - 4.6 32.8 08 14 470B 0913 Alarm State:  0
Thu Nov 16 13:55:42 PST 2017 ON: 19.99 +20.0 19.62 - 3.6 33.9 07 14 4710 0922 Alarm State:  0
Thu Nov 16 13:54:40 PST 2017 ON: 20.04 +20.0 19.71 - 5.3 32.3 0A 13 470E 090B Alarm State:  0
Thu Nov 16 13:53:39 PST 2017 ON: 19.99 +20.0 19.61 - 2.9 34.2 00 14 4727 090C Alarm State:  0
Thu Nov 16 13:52:37 PST 2017 ON: 19.99 +20.0 19.68 - 4.3 33.4 05 14 471F 0903 Alarm State:  0
Thu Nov 16 13:51:36 PST 2017 ON: 20.01 +20.0 19.69 - 4.8 32.8 0A 14 4726 0918 Alarm State:  0
Thu Nov 16 13:50:34 PST 2017 ON: 20.00 +20.0 19.61 - 2.9 34.2 05 14 4801 0903 Alarm State:  0
Thu Nov 16 13:49:33 PST 2017 ON: 20.02 +20.0 19.67 - 4.5 33.4 07 14 4717 0A0D Alarm State:  0
Thu Nov 16 13:48:31 PST 2017 ON: 20.01 +20.0 19.66 - 4.1 33.1 00 14 4723 0A15 Alarm State:  0
Thu Nov 16 13:47:30 PST 2017 ON: 19.96 +20.0 19.60 - 3.5 33.6 00 14 4801 0A12 Alarm State:  0
Thu Nov 16 13:46:28 PST 2017 ON: 20.03 +20.0 19.68 - 3.8 33.4 08 14 481F 0909 Alarm State:  0
Thu Nov 16 13:45:27 PST 2017 ON: 20.02 +20.0 19.65 - 3.4 33.7 02 14 4721 091D Alarm State:  0
Thu Nov 16 13:44:25 PST 2017 ON: 20.01 +20.0 19.65 - 4.0 33.7 00 14 4630 0928 Alarm State:  0
Thu Nov 16 13:43:24 PST 2017 ON: 20.02 +20.0 19.68 - 4.9 32.7 00 14 4708 0910 Alarm State:  0
Thu Nov 16 13:42:22 PST 2017 ON: 19.98 +20.0 19.61 - 2.8 34.0 00 14 471C 0910 Alarm State:  0
Thu Nov 16 13:41:21 PST 2017 ON: 19.98 +20.0 19.68 - 4.0 33.7 02 14 470B 090E Alarm State:  0
Thu Nov 16 13:40:19 PST 2017 ON: 20.05 +20.0 19.69 - 4.6 32.7 0D 14 4717 0916 Alarm State:  0
Thu Nov 16 13:39:18 PST 2017 ON: 20.00 +20.0 19.62 - 3.2 34.1 07 14 4718 0925 Alarm State:  0
Thu Nov 16 13:38:16 PST 2017 ON: 20.00 +20.0 19.70 - 4.9 33.1 0D 13 4706 0920 Alarm State:  0
Thu Nov 16 13:37:15 PST 2017 ON: 19.98 +20.0 19.59 - 2.6 34.2 00 14 472B 091F Alarm State:  0
Thu Nov 16 13:36:13 PST 2017 ON: 20.02 +20.0 19.72 - 5.5 32.6 0D 13 470D 0A24 Alarm State:  0
Thu Nov 16 13:35:12 PST 2017 ON: 19.99 +20.0 19.60 - 2.6 34.3 0C 14 4811 092B Alarm State:  0
Thu Nov 16 13:34:10 PST 2017 ON: 20.01 +20.0 19.69 - 4.5 33.4 0A 14 4730 0924 Alarm State:  0
Thu Nov 16 13:33:09 PST 2017 ON: 20.02 +20.0 19.67 - 4.5 32.9 00 14 471B 0901 Alarm State:  0
Thu Nov 16 13:32:07 PST 2017 ON: 19.99 +20.0 19.64 - 3.6 34.0 0C 14 4713 0921 Alarm State:  0
Thu Nov 16 13:31:06 PST 2017 ON: 20.02 +20.0 19.74 - 5.7 32.5 0D 12 4706 0A15 Alarm State:  0
Thu Nov 16 13:30:04 PST 2017 ON: 19.99 +20.0 19.61 - 3.4 34.1 00 14 4720 0A17 Alarm State:  0
Thu Nov 16 13:29:03 PST 2017 ON: 20.01 +20.0 19.72 - 5.8 32.2 0D 13 4721 0A24 Alarm State:  0
Thu Nov 16 13:28:01 PST 2017 ON: 19.96 +20.0 19.58 - 3.0 34.2 09 14 481A 0A0C Alarm State:  0
Thu Nov 16 13:27:00 PST 2017 ON: 20.00 +20.0 19.70 - 5.0 33.0 0D 13 481B 091E Alarm State:  0
Thu Nov 16 13:25:58 PST 2017 ON: 20.01 +20.0 19.59 - 2.7 34.2 0A 14 4908 0918 Alarm State:  0
Thu Nov 16 13:24:57 PST 2017 ON: 20.02 +20.0 19.66 - 3.5 33.8 07 14 4812 0922 Alarm State:  0
Thu Nov 16 13:23:55 PST 2017 ON: 20.00 +20.0 19.65 - 4.2 33.6 05 14 471B 092D Alarm State:  0
Thu Nov 16 13:22:54 PST 2017 ON: 20.03 +20.0 19.66 - 4.4 33.1 00 14 472E 090D Alarm State:  0
Thu Nov 16 13:21:52 PST 2017 ON: 19.98 +20.0 19.62 - 3.6 34.0 02 14 4801 091D Alarm State:  0
Thu Nov 16 13:20:51 PST 2017 ON: 20.00 +20.0 19.68 - 4.3 33.3 0A 14 4800 0907 Alarm State:  0
Thu Nov 16 13:19:49 PST 2017 ON: 20.03 +20.0 19.61 - 2.8 33.8 00 14 4814 0917 Alarm State:  0
Thu Nov 16 13:18:48 PST 2017 ON: 19.99 +20.0 19.65 - 4.2 33.3 0C 14 472E 0A17 Alarm State:  0
Thu Nov 16 13:17:46 PST 2017 ON: 20.01 +20.0 19.64 - 2.9 33.7 00 14 4831 0927 Alarm State:  0
Thu Nov 16 13:16:45 PST 2017 ON: 20.01 +20.0 19.66 - 3.6 34.0 00 14 4826 0929 Alarm State:  0
Thu Nov 16 13:15:43 PST 2017 ON: 20.00 +20.0 19.70 - 5.3 32.9 0D 13 480C 0926 Alarm State:  0
Thu Nov 16 13:14:42 PST 2017 ON: 19.98 +20.0 19.62 - 2.7 34.1 00 14 4825 0912 Alarm State:  0
Thu Nov 16 13:13:40 PST 2017 ON: 20.01 +20.0 19.68 - 4.7 33.2 0C 14 4732 0921 Alarm State:  0
Thu Nov 16 13:12:39 PST 2017 ON: 20.01 +20.0 19.62 - 3.3 33.6 00 14 480A 0909 Alarm State:  0
Thu Nov 16 13:11:37 PST 2017 ON: 20.00 +20.0 19.65 - 3.8 33.5 00 14 4804 0927 Alarm State:  0
Thu Nov 16 13:10:36 PST 2017 ON: 20.03 +20.0 19.66 - 3.9 33.4 00 14 4829 091C Alarm State:  0
Thu Nov 16 13:09:34 PST 2017 ON: 20.03 +20.0 19.68 - 4.7 32.7 00 14 472E 0904 Alarm State:  0
Thu Nov 16 13:08:33 PST 2017 ON: 20.00 +20.0 19.62 - 3.2 34.1 00 14 4731 0915 Alarm State:  0
Thu Nov 16 13:07:31 PST 2017 ON: 19.98 +20.0 19.69 - 4.9 32.9 0D 14 471D 0A18 Alarm State:  0
Thu Nov 16 13:06:30 PST 2017 ON: 19.97 +20.0 19.58 - 2.3 34.3 00 14 4827 0917 Alarm State:  0
Thu Nov 16 13:05:28 PST 2017 ON: 20.00 +20.0 19.67 - 4.0 33.7 07 14 4813 0916 Alarm State:  0
Thu Nov 16 13:04:27 PST 2017 ON: 20.03 +20.0 19.71 - 5.4 32.5 0D 13 4729 0922 Alarm State:  0
Thu Nov 16 13:03:25 PST 2017 ON: 19.99 +20.0 19.60 - 2.8 34.2 05 14 480D 0902 Alarm State:  0
Thu Nov 16 13:02:24 PST 2017 ON: 20.02 +20.0 19.65 - 4.0 33.5 00 14 4805 0926 Alarm State:  0
Thu Nov 16 13:01:22 PST 2017 ON: 20.06 +20.0 19.66 - 4.0 33.5 00 14 4800 091E Alarm State:  0
Thu Nov 16 13:00:21 PST 2017 ON: 20.03 +20.0 19.68 - 5.1 32.5 00 14 4625 090A Alarm State:  0
Thu Nov 16 12:59:19 PST 2017 ON: 19.96 +20.0 19.63 - 3.6 33.8 00 14 4622 092A Alarm State:  0
Thu Nov 16 12:58:18 PST 2017 ON: 20.02 +20.0 19.69 - 4.8 32.6 08 14 4701 0A10 Alarm State:  0
Thu Nov 16 12:57:06 PST 2017 ON: 19.96 +20.0 19.61 - 3.2 33.9 05 14 471A 0A05 Alarm State:  0
Thu Nov 16 12:56:05 PST 2017 ON: 20.05 +20.0 19.70 - 4.3 33.3 0A 13 4727 0906 Alarm State:  0
Thu Nov 16 12:55:03 PST 2017 ON: 20.03 +20.0 19.66 - 4.0 33.2 00 14 462B 0918 Alarm State:  0
Thu Nov 16 12:54:02 PST 2017 ON: 19.99 +20.0 19.63 - 3.9 33.6 00 14 4625 0A01 Alarm State:  0
Thu Nov 16 12:53:00 PST 2017 ON: 20.04 +20.0 19.71 - 5.3 32.5 08 13 4709 0A03 Alarm State:  0
Thu Nov 16 12:51:59 PST 2017 ON: 19.97 +20.0 19.59 - 3.0 34.1 04 14 4802 091B Alarm State:  0
Thu Nov 16 12:50:57 PST 2017 ON: 20.06 +20.0 19.71 - 4.9 33.0 08 13 480B 091E Alarm State:  0
Thu Nov 16 12:49:56 PST 2017 ON: 20.02 +20.0 19.66 - 4.0 33.3 00 14 4716 0A06 Alarm State:  0
Thu Nov 16 12:48:54 PST 2017 ON: 19.98 +20.0 19.62 - 3.9 33.5 07 14 4715 0A11 Alarm State:  0
Thu Nov 16 12:47:53 PST 2017 ON: 20.00 +20.0 19.61 - 2.9 33.7 00 14 4814 0915 Alarm State:  0
Thu Nov 16 12:46:51 PST 2017 ON: 20.00 +20.0 19.64 - 3.7 33.9 07 14 480D 0915 Alarm State:  0
Thu Nov 16 12:45:50 PST 2017 ON: 20.02 +20.0 19.74 - 5.2 32.8 0A 11 4801 0902 Alarm State:  0
Thu Nov 16 12:44:48 PST 2017 ON: 20.00 +20.0 19.62 - 3.1 33.8 00 14 4804 0925 Alarm State:  0
Thu Nov 16 12:43:47 PST 2017 ON: 19.98 +20.0 19.66 - 4.0 33.6 07 14 4721 0926 Alarm State:  0
Thu Nov 16 12:42:36 PST 2017 ON: 20.02 +20.0 19.71 - 5.3 32.4 0A 13 4801 0908 Alarm State:  0
Thu Nov 16 12:41:34 PST 2017 ON: 19.99 +20.0 19.62 - 3.1 34.2 05 14 4815 090A Alarm State:  0
Thu Nov 16 12:40:33 PST 2017 ON: 20.02 +20.0 19.69 - 4.7 33.3 0D 14 4802 0902 Alarm State:  0
Thu Nov 16 12:39:31 PST 2017 ON: 20.04 +20.0 19.65 - 3.9 33.3 00 14 472D 0903 Alarm State:  0
Thu Nov 16 12:38:30 PST 2017 ON: 20.00 +20.0 19.63 - 3.8 33.9 07 14 4712 090B Alarm State:  0
Thu Nov 16 12:37:28 PST 2017 ON: 20.00 +20.0 19.71 - 5.3 33.0 0D 13 4631 0908 Alarm State:  0
Thu Nov 16 12:36:27 PST 2017 ON: 19.98 +20.0 19.62 - 2.9 34.0 02 14 4715 0911 Alarm State:  0
Thu Nov 16 12:35:25 PST 2017 ON: 19.99 +20.0 19.67 - 4.4 33.5 05 14 4709 0912 Alarm State:  0
Thu Nov 16 12:34:24 PST 2017 ON: 20.02 +20.0 19.63 - 3.8 33.4 00 14 472E 090B Alarm State:  0
Thu Nov 16 12:33:22 PST 2017 ON: 19.99 +20.0 19.64 - 3.9 33.4 00 14 472A 0919 Alarm State:  0
Thu Nov 16 12:32:21 PST 2017 ON: 20.03 +20.0 19.69 - 4.3 33.1 08 14 480E 0914 Alarm State:  0
Thu Nov 16 12:31:19 PST 2017 ON: 19.98 +20.0 19.63 - 2.9 34.1 00 14 4800 090D Alarm State:  0
Thu Nov 16 12:30:18 PST 2017 ON: 19.99 +20.0 19.65 - 4.0 33.9 05 14 471A 0917 Alarm State:  0
Thu Nov 16 12:29:16 PST 2017 ON: 20.02 +20.0 19.71 - 5.3 32.9 0D 13 470A 0A12 Alarm State:  0
Thu Nov 16 12:28:15 PST 2017 ON: 19.99 +20.0 19.62 - 2.8 34.3 0A 14 4806 0927 Alarm State:  0
Thu Nov 16 12:27:13 PST 2017 ON: 20.01 +20.0 19.70 - 5.1 33.0 0D 13 472B 091C Alarm State:  0
Thu Nov 16 12:26:12 PST 2017 ON: 19.99 +20.0 19.59 - 2.2 34.3 00 14 481F 0911 Alarm State:  0
Thu Nov 16 12:25:10 PST 2017 ON: 20.01 +20.0 19.68 - 4.6 33.4 05 14 472C 0916 Alarm State:  0
Thu Nov 16 12:24:09 PST 2017 ON: 20.02 +20.0 19.68 - 4.9 32.6 00 14 4715 091A Alarm State:  0
Thu Nov 16 12:23:07 PST 2017 ON: 19.99 +20.0 19.62 - 3.4 33.8 0C 14 472B 0926 Alarm State:  0
Thu Nov 16 12:22:06 PST 2017 ON: 20.04 +20.0 19.72 - 5.1 32.7 0D 12 4801 0904 Alarm State:  0
Thu Nov 16 12:21:04 PST 2017 ON: 20.01 +20.0 19.62 - 3.0 34.1 07 14 4732 0922 Alarm State:  0
Thu Nov 16 12:20:03 PST 2017 ON: 20.00 +20.0 19.67 - 4.3 33.2 07 14 4719 0928 Alarm State:  0
Thu Nov 16 12:19:01 PST 2017 ON: 20.00 +20.0 19.62 - 2.8 33.8 00 14 4810 091A Alarm State:  0
Thu Nov 16 12:18:00 PST 2017 ON: 19.99 +20.0 19.64 - 3.5 34.0 00 14 472E 0924 Alarm State:  0
Thu Nov 16 12:16:58 PST 2017 ON: 20.02 +20.0 19.70 - 5.2 32.8 0D 13 4716 092B Alarm State:  0
Thu Nov 16 12:15:56 PST 2017 ON: 19.99 +20.0 19.59 - 2.4 34.2 00 14 4814 0919 Alarm State:  0
Thu Nov 16 12:14:55 PST 2017 ON: 20.00 +20.0 19.65 - 4.0 33.6 05 14 4804 0912 Alarm State:  0
Thu Nov 16 12:13:53 PST 2017 ON: 20.04 +20.0 19.66 - 4.4 33.0 00 14 480D 0925 Alarm State:  0
Thu Nov 16 12:12:52 PST 2017 ON: 19.97 +20.0 19.63 - 3.7 33.8 05 14 4807 091E Alarm State:  0
Thu Nov 16 12:11:50 PST 2017 ON: 20.02 +20.0 19.70 - 4.7 33.4 0D 13 4806 090A Alarm State:  0
Thu Nov 16 12:10:49 PST 2017 ON: 20.03 +20.0 19.68 - 4.9 32.6 00 14 4723 0A1B Alarm State:  0
Thu Nov 16 12:09:48 PST 2017 ON: 19.98 +20.0 19.63 - 3.5 33.8 0C 14 4803 0A10 Alarm State:  0
Thu Nov 16 12:08:46 PST 2017 ON: 20.02 +20.0 19.71 - 4.8 32.7 0A 13 4817 0913 Alarm State:  0
Thu Nov 16 12:07:45 PST 2017 ON: 20.01 +20.0 19.62 - 2.8 34.1 07 14 481C 0903 Alarm State:  0
Thu Nov 16 12:06:43 PST 2017 ON: 20.00 +20.0 19.66 - 4.1 33.6 00 14 4727 0916 Alarm State:  0
Thu Nov 16 12:05:42 PST 2017 ON: 20.01 +20.0 19.70 - 4.6 33.3 0A 13 4726 090A Alarm State:  0
Thu Nov 16 12:04:40 PST 2017 ON: 20.05 +20.0 19.67 - 4.3 33.1 00 14 470E 090F Alarm State:  0
Thu Nov 16 12:03:39 PST 2017 ON: 20.00 +20.0 19.64 - 3.8 33.7 07 14 470F 0926 Alarm State:  0
Thu Nov 16 12:02:37 PST 2017 ON: 20.02 +20.0 19.68 - 4.9 32.5 00 14 471F 0928 Alarm State:  0
Thu Nov 16 12:01:36 PST 2017 ON: 19.96 +20.0 19.60 - 3.4 33.8 00 14 4732 092C Alarm State:  0
Thu Nov 16 12:00:34 PST 2017 ON: 20.02 +20.0 19.70 - 4.6 32.8 0D 13 4815 091E Alarm State:  0
Thu Nov 16 11:59:33 PST 2017 ON: 20.00 +20.0 19.62 - 2.9 34.0 0A 14 4818 0910 Alarm State:  0
Thu Nov 16 11:58:31 PST 2017 ON: 20.01 +20.0 19.67 - 4.0 33.7 02 14 472B 091B Alarm State:  0
Thu Nov 16 11:57:30 PST 2017 ON: 20.03 +20.0 19.70 - 4.9 32.7 05 13 4732 0901 Alarm State:  0
Thu Nov 16 11:56:28 PST 2017 ON: 19.99 +20.0 19.62 - 2.8 34.0 07 14 480B 090F Alarm State:  0
Thu Nov 16 11:55:27 PST 2017 ON: 19.97 +20.0 19.66 - 4.2 33.5 05 14 472B 0911 Alarm State:  0
Thu Nov 16 11:54:25 PST 2017 ON: 20.00 +20.0 19.62 - 3.0 33.7 00 14 4819 090E Alarm State:  0
Thu Nov 16 11:53:24 PST 2017 ON: 20.01 +20.0 19.65 - 4.0 33.6 07 14 472A 0915 Alarm State:  0
Thu Nov 16 11:52:22 PST 2017 ON: 20.04 +20.0 19.67 - 4.3 33.0 00 14 4729 0905 Alarm State:  0
Thu Nov 16 11:51:21 PST 2017 ON: 20.00 +20.0 19.65 - 3.7 33.9 02 14 471D 0902 Alarm State:  0
Thu Nov 16 11:50:19 PST 2017 ON: 20.01 +20.0 19.70 - 5.2 32.9 0D 13 4714 0925 Alarm State:  0
Thu Nov 16 11:49:18 PST 2017 ON: 20.01 +20.0 19.62 - 3.2 33.7 02 14 4720 0A0A Alarm State:  0
Thu Nov 16 11:48:16 PST 2017 ON: 19.98 +20.0 19.63 - 4.0 33.6 00 14 4721 0A26 Alarm State:  0
Thu Nov 16 11:47:15 PST 2017 ON: 20.01 +20.0 19.63 - 2.7 33.9 00 14 4822 0928 Alarm State:  0
Thu Nov 16 11:46:13 PST 2017 ON: 20.01 +20.0 19.66 - 3.7 33.9 00 14 4807 0907 Alarm State:  0
Thu Nov 16 11:45:12 PST 2017 ON: 20.02 +20.0 19.72 - 5.3 32.4 08 12 472E 0906 Alarm State:  0
Thu Nov 16 11:44:10 PST 2017 ON: 19.99 +20.0 19.64 - 3.1 34.1 00 14 472B 0927 Alarm State:  0
Thu Nov 16 11:43:09 PST 2017 ON: 20.00 +20.0 19.67 - 4.3 33.3 07 14 470F 092E Alarm State:  0
Thu Nov 16 11:42:07 PST 2017 ON: 20.02 +20.0 19.65 - 4.1 33.2 00 14 4726 0A0E Alarm State:  0
Thu Nov 16 11:41:06 PST 2017 ON: 19.98 +20.0 19.62 - 3.8 33.5 07 14 472C 0A14 Alarm State:  0
Thu Nov 16 11:40:04 PST 2017 ON: 20.01 +20.0 19.63 - 2.9 33.7 00 14 482A 0925 Alarm State:  0
Thu Nov 16 11:39:03 PST 2017 ON: 20.01 +20.0 19.64 - 3.7 33.9 07 14 4810 0928 Alarm State:  0
Thu Nov 16 11:38:01 PST 2017 ON: 20.04 +20.0 19.69 - 5.0 32.7 0A 14 4801 0922 Alarm State:  0
Thu Nov 16 11:37:00 PST 2017 ON: 20.01 +20.0 19.61 - 3.0 34.1 07 14 4730 0917 Alarm State:  0
Thu Nov 16 11:35:58 PST 2017 ON: 20.02 +20.0 19.69 - 4.4 33.4 0D 14 471B 0919 Alarm State:  0
Thu Nov 16 11:34:57 PST 2017 ON: 20.02 +20.0 19.62 - 3.2 33.6 00 14 4804 0913 Alarm State:  0
Thu Nov 16 11:33:55 PST 2017 ON: 20.01 +20.0 19.65 - 3.8 33.8 05 14 4728 090D Alarm State:  0
Thu Nov 16 11:32:54 PST 2017 ON: 20.02 +20.0 19.69 - 4.7 32.9 0A 14 4807 0917 Alarm State:  0
Thu Nov 16 11:31:52 PST 2017 ON: 20.01 +20.0 19.62 - 2.7 34.0 00 14 4816 0901 Alarm State:  0
Thu Nov 16 11:30:51 PST 2017 ON: 19.99 +20.0 19.67 - 4.5 33.4 00 14 4723 090A Alarm State:  0
Thu Nov 16 11:29:49 PST 2017 ON: 20.00 +20.0 19.62 - 3.0 33.7 00 14 480F 0903 Alarm State:  0
Thu Nov 16 11:28:48 PST 2017 ON: 19.98 +20.0 19.64 - 3.9 33.5 07 14 4801 092E Alarm State:  0
Thu Nov 16 11:27:46 PST 2017 ON: 20.02 +20.0 19.66 - 3.9 33.4 00 14 4826 0928 Alarm State:  0
Thu Nov 16 11:26:45 PST 2017 ON: 20.05 +20.0 19.67 - 4.5 32.9 00 14 4729 0910 Alarm State:  0
Thu Nov 16 11:25:43 PST 2017 ON: 20.00 +20.0 19.65 - 3.7 33.8 05 14 472E 092F Alarm State:  0
Thu Nov 16 11:24:42 PST 2017 ON: 20.02 +20.0 19.71 - 5.2 32.4 0D 13 472C 0918 Alarm State:  0
Thu Nov 16 11:23:40 PST 2017 ON: 20.00 +20.0 19.64 - 3.5 34.0 00 14 472F 0927 Alarm State:  0
Thu Nov 16 11:22:39 PST 2017 ON: 20.02 +20.0 19.73 - 5.5 32.4 0D 12 4731 0914 Alarm State:  0
Thu Nov 16 11:21:37 PST 2017 ON: 19.99 +20.0 19.63 - 3.0 34.2 07 14 4817 0921 Alarm State:  0
Thu Nov 16 11:20:36 PST 2017 ON: 20.00 +20.0 19.71 - 5.2 32.8 0D 13 4801 0920 Alarm State:  0
Thu Nov 16 11:19:35 PST 2017 ON: 19.98 +20.0 19.58 - 2.6 34.0 04 14 4818 0902 Alarm State:  0
Thu Nov 16 11:18:33 PST 2017 ON: 20.00 +20.0 19.67 - 4.0 33.6 07 14 4808 0907 Alarm State:  0
Thu Nov 16 11:17:32 PST 2017 ON: 20.04 +20.0 19.70 - 5.1 32.4 05 13 4732 0928 Alarm State:  0
Thu Nov 16 11:16:30 PST 2017 ON: 20.01 +20.0 19.65 - 3.4 34.1 07 14 472C 0919 Alarm State:  0
Thu Nov 16 11:15:29 PST 2017 ON: 20.02 +20.0 19.71 - 5.4 32.6 0A 13 471D 0917 Alarm State:  0
Thu Nov 16 11:14:27 PST 2017 ON: 20.00 +20.0 19.59 - 2.7 34.1 07 14 480A 0922 Alarm State:  0
Thu Nov 16 11:13:26 PST 2017 ON: 20.01 +20.0 19.68 - 4.4 33.3 00 14 4732 0922 Alarm State:  0
Thu Nov 16 11:12:24 PST 2017 ON: 20.00 +20.0 19.60 - 2.8 33.9 00 14 4829 090C Alarm State:  0
Thu Nov 16 11:11:23 PST 2017 ON: 20.00 +20.0 19.65 - 3.9 33.7 00 14 4810 0910 Alarm State:  0
Thu Nov 16 11:10:21 PST 2017 ON: 20.03 +20.0 19.70 - 5.2 32.7 0D 13 480F 0900 Alarm State:  0
Thu Nov 16 11:09:20 PST 2017 ON: 19.98 +20.0 19.60 - 2.7 34.1 00 14 4823 0906 Alarm State:  0
Thu Nov 16 11:08:18 PST 2017 ON: 19.99 +20.0 19.66 - 4.3 33.4 05 14 4802 090C Alarm State:  0
Thu Nov 16 11:07:17 PST 2017 ON: 20.01 +20.0 19.62 - 2.9 33.7 00 14 4824 090E Alarm State:  0
Thu Nov 16 11:06:15 PST 2017 ON: 20.00 +20.0 19.65 - 3.5 34.1 00 14 4803 091C Alarm State:  0
Thu Nov 16 11:05:14 PST 2017 ON: 20.00 +20.0 19.69 - 4.2 33.6 0D 14 472A 0925 Alarm State:  0
Thu Nov 16 11:04:12 PST 2017 ON: 20.01 +20.0 19.68 - 4.9 32.5 00 14 472F 0915 Alarm State:  0
Thu Nov 16 11:03:11 PST 2017 ON: 20.00 +20.0 19.62 - 3.2 34.2 0C 14 480A 092C Alarm State:  0
Thu Nov 16 11:02:09 PST 2017 ON: 20.02 +20.0 19.71 - 5.2 33.0 0D 13 472E 0922 Alarm State:  0
Thu Nov 16 11:01:08 PST 2017 ON: 20.01 +20.0 19.59 - 2.4 34.1 01 14 4819 091C Alarm State:  0
Thu Nov 16 11:00:06 PST 2017 ON: 19.99 +20.0 19.66 - 4.0 33.6 00 14 472A 0927 Alarm State:  0
Thu Nov 16 10:59:05 PST 2017 ON: 20.02 +20.0 19.68 - 4.6 32.9 00 14 472B 091B Alarm State:  0
Thu Nov 16 10:58:03 PST 2017 ON: 20.01 +20.0 19.62 - 3.1 33.8 00 14 4713 0920 Alarm State:  0
Thu Nov 16 10:57:02 PST 2017 ON: 19.99 +20.0 19.68 - 4.3 33.4 07 14 4625 0931 Alarm State:  0
Thu Nov 16 10:56:00 PST 2017 ON: 20.00 +20.0 19.59 - 2.2 34.1 04 14 4726 0913 Alarm State:  0
Thu Nov 16 10:54:59 PST 2017 ON: 19.99 +20.0 19.67 - 4.6 33.1 0C 14 470B 0A11 Alarm State:  0
Thu Nov 16 10:53:57 PST 2017 ON: 19.98 +20.0 19.59 - 2.2 34.2 00 14 4814 0911 Alarm State:  0
Thu Nov 16 10:52:56 PST 2017 ON: 20.02 +20.0 19.66 - 4.0 33.7 07 14 4730 0911 Alarm State:  0
Thu Nov 16 10:51:54 PST 2017 ON: 20.04 +20.0 19.69 - 4.9 32.6 08 14 4725 0A0B Alarm State:  0
Thu Nov 16 10:50:53 PST 2017 ON: 19.96 +20.0 19.62 - 3.5 33.6 00 14 4806 0A05 Alarm State:  0
Thu Nov 16 10:49:51 PST 2017 ON: 20.00 +20.0 19.69 - 4.1 33.4 08 14 4821 0907 Alarm State:  0
Thu Nov 16 10:48:50 PST 2017 ON: 20.02 +20.0 19.63 - 3.1 33.7 02 14 4807 0918 Alarm State:  0
Thu Nov 16 10:47:48 PST 2017 ON: 20.00 +20.0 19.66 - 4.1 33.6 00 14 470D 0903 Alarm State:  0
Thu Nov 16 10:46:47 PST 2017 ON: 20.06 +20.0 19.71 - 5.3 32.5 0D 13 4707 0904 Alarm State:  0
Thu Nov 16 10:45:45 PST 2017 ON: 19.99 +20.0 19.64 - 3.4 34.1 0C 14 470C 0913 Alarm State:  0
Thu Nov 16 10:44:44 PST 2017 ON: 20.01 +20.0 19.70 - 5.0 33.1 0A 13 4710 0929 Alarm State:  0
Thu Nov 16 10:43:42 PST 2017 ON: 20.01 +20.0 19.60 - 2.6 34.1 0A 14 4804 0912 Alarm State:  0
Thu Nov 16 10:42:41 PST 2017 ON: 20.00 +20.0 19.68 - 4.4 33.8 00 14 4717 0921 Alarm State:  0
Thu Nov 16 10:41:39 PST 2017 ON: 20.02 +20.0 19.71 - 5.9 32.5 0D 13 4627 0A04 Alarm State:  0
Thu Nov 16 10:40:38 PST 2017 ON: 19.96 +20.0 19.62 - 3.7 34.0 0A 14 471C 092C Alarm State:  0
Thu Nov 16 10:39:36 PST 2017 ON: 20.00 +20.0 19.70 - 5.3 33.0 0D 13 4723 091D Alarm State:  0
Thu Nov 16 10:38:35 PST 2017 ON: 20.00 +20.0 19.60 - 3.1 33.8 07 14 480C 0900 Alarm State:  0
Thu Nov 16 10:37:33 PST 2017 ON: 19.98 +20.0 19.64 - 4.8 33.2 05 14 472C 0A06 Alarm State:  0
Thu Nov 16 10:36:32 PST 2017 ON: 20.02 +20.0 19.60 - 3.2 33.7 00 14 4829 091E Alarm State:  0
Thu Nov 16 10:35:30 PST 2017 ON: 20.02 +20.0 19.66 - 4.1 33.9 0C 14 480C 0924 Alarm State:  0
Thu Nov 16 10:34:29 PST 2017 ON: 20.01 +20.0 19.70 - 5.7 32.8 0D 13 471F 0908 Alarm State:  0
Thu Nov 16 10:33:27 PST 2017 ON: 19.98 +20.0 19.59 - 3.1 34.1 07 14 480F 0905 Alarm State:  0
Thu Nov 16 10:32:26 PST 2017 ON: 20.01 +20.0 19.68 - 5.2 33.1 05 14 471A 090C Alarm State:  0
Thu Nov 16 10:31:24 PST 2017 ON: 20.02 +20.0 19.66 - 4.1 33.4 00 14 4719 0908 Alarm State:  0
Thu Nov 16 10:30:23 PST 2017 ON: 20.00 +20.0 19.62 - 3.6 33.9 07 14 462C 0913 Alarm State:  0
Thu Nov 16 10:29:21 PST 2017 ON: 20.02 +20.0 19.66 - 4.4 33.4 00 14 452E 0925 Alarm State:  0
Thu Nov 16 10:28:20 PST 2017 ON: 20.00 +20.0 19.67 - 4.7 33.2 07 14 451A 0B01 Alarm State:  0
Thu Nov 16 10:27:18 PST 2017 ON: 20.00 +20.0 19.60 - 3.0 33.7 04 14 461C 0A0C Alarm State:  0
Thu Nov 16 10:26:17 PST 2017 ON: 20.00 +20.0 19.65 - 5.0 33.1 07 14 4531 0B11 Alarm State:  0
Thu Nov 16 10:25:15 PST 2017 ON: 19.99 +20.0 19.57 - 2.6 34.1 07 14 4708 0A0E Alarm State:  0
Thu Nov 16 10:24:14 PST 2017 ON: 19.98 +20.0 19.67 - 5.4 32.8 00 14 4706 0A2A Alarm State:  0
Thu Nov 16 10:23:12 PST 2017 ON: 19.99 +20.0 19.58 - 2.7 34.1 07 14 4810 0925 Alarm State:  0
Thu Nov 16 10:22:11 PST 2017 ON: 19.98 +20.0 19.65 - 4.6 33.4 05 14 480E 0914 Alarm State:  0
Thu Nov 16 10:21:09 PST 2017 ON: 20.01 +20.0 19.64 - 4.1 33.3 00 14 4829 0913 Alarm State:  0
Thu Nov 16 10:20:08 PST 2017 ON: 20.00 +20.0 19.63 - 3.9 33.9 05 14 480D 0918 Alarm State:  0
Thu Nov 16 10:19:06 PST 2017 ON: 20.01 +20.0 19.70 - 6.0 32.5 0D 13 471D 091E Alarm State:  0
Thu Nov 16 10:18:05 PST 2017 ON: 19.99 +20.0 19.62 - 3.6 34.0 05 14 480C 091A Alarm State:  0
Thu Nov 16 10:17:03 PST 2017 ON: 20.05 +20.0 19.70 - 5.2 33.3 0D 13 4729 090C Alarm State:  0
Thu Nov 16 10:16:02 PST 2017 ON: 20.01 +20.0 19.71 - 6.0 32.3 08 13 4626 0921 Alarm State:  0
Thu Nov 16 10:15:00 PST 2017 ON: 19.98 +20.0 19.62 - 3.5 34.1 05 14 4710 0929 Alarm State:  0
Thu Nov 16 10:13:59 PST 2017 ON: 19.99 +20.0 19.70 - 5.5 32.9 0D 14 4706 0A1E Alarm State:  0
Thu Nov 16 10:12:57 PST 2017 ON: 19.98 +20.0 19.59 - 2.7 34.2 01 14 4806 092B Alarm State:  0
Thu Nov 16 10:11:56 PST 2017 ON: 20.01 +20.0 19.69 - 4.8 33.3 0D 14 471F 0928 Alarm State:  0
Thu Nov 16 10:10:54 PST 2017 ON: 20.02 +20.0 19.63 - 3.9 33.5 00 14 4724 0920 Alarm State:  0
Thu Nov 16 10:09:53 PST 2017 ON: 20.00 +20.0 19.64 - 4.4 33.3 00 14 4716 0A11 Alarm State:  0
Thu Nov 16 10:08:51 PST 2017 ON: 20.04 +20.0 19.67 - 3.4 33.6 00 14 480E 0903 Alarm State:  0
Thu Nov 16 10:07:50 PST 2017 ON: 20.00 +20.0 19.67 - 4.4 33.6 00 14 4717 090E Alarm State:  0
Thu Nov 16 10:06:48 PST 2017 ON: 20.00 +20.0 19.70 - 5.6 32.5 08 13 4710 0906 Alarm State:  0
Thu Nov 16 10:05:47 PST 2017 ON: 19.99 +20.0 19.61 - 3.3 34.1 0D 14 471C 0920 Alarm State:  0
Thu Nov 16 10:04:45 PST 2017 ON: 20.00 +20.0 19.69 - 4.9 33.2 0D 14 470B 0922 Alarm State:  0
Thu Nov 16 10:03:44 PST 2017 ON: 20.03 +20.0 19.61 - 3.3 33.6 00 14 472F 091E Alarm State:  0
Thu Nov 16 10:02:42 PST 2017 ON: 20.01 +20.0 19.65 - 4.4 33.5 00 14 470E 0926 Alarm State:  0
Thu Nov 16 10:01:41 PST 2017 ON: 20.04 +20.0 19.67 - 4.9 33.1 00 14 4717 0912 Alarm State:  0
Thu Nov 16 10:00:39 PST 2017 ON: 19.97 +20.0 19.59 - 3.4 34.1 01 14 4717 090F Alarm State:  0
Thu Nov 16 09:59:38 PST 2017 ON: 20.00 +20.0 19.70 - 6.0 32.4 0D 14 462B 0A11 Alarm State:  0
Thu Nov 16 09:58:36 PST 2017 ON: 19.96 +20.0 19.60 - 3.6 34.0 09 14 4726 091F Alarm State:  0
Thu Nov 16 09:57:35 PST 2017 ON: 20.01 +20.0 19.69 - 5.0 33.3 0D 14 472D 0922 Alarm State:  0
Thu Nov 16 09:56:34 PST 2017 ON: 20.04 +20.0 19.70 - 5.4 32.5 03 13 4723 0900 Alarm State:  0
Thu Nov 16 09:55:32 PST 2017 ON: 19.99 +20.0 19.62 - 3.6 34.0 0A 14 4724 091B Alarm State:  0
Thu Nov 16 09:54:31 PST 2017 ON: 20.00 +20.0 19.67 - 4.7 33.5 00 14 470E 0916 Alarm State:  0
Thu Nov 16 09:53:29 PST 2017 ON: 20.02 +20.0 19.70 - 5.9 32.1 03 14 4632 0A18 Alarm State:  0
Thu Nov 16 09:52:28 PST 2017 ON: 19.98 +20.0 19.63 - 4.1 33.4 07 14 471D 0A0C Alarm State:  0
Thu Nov 16 09:51:26 PST 2017 ON: 20.02 +20.0 19.66 - 4.1 33.3 00 14 4811 0923 Alarm State:  0
Thu Nov 16 09:50:25 PST 2017 ON: 20.01 +20.0 19.64 - 3.8 33.9 05 14 4720 0909 Alarm State:  0
Thu Nov 16 09:49:23 PST 2017 ON: 20.02 +20.0 19.69 - 5.0 33.3 00 14 4624 0917 Alarm State:  0
Thu Nov 16 09:48:22 PST 2017 ON: 19.99 +20.0 19.60 - 3.0 33.9 04 14 470B 0919 Alarm State:  0
Thu Nov 16 09:47:20 PST 2017 ON: 19.98 +20.0 19.66 - 4.9 33.2 00 14 4621 0A1B Alarm State:  0
Thu Nov 16 09:46:19 PST 2017 ON: 20.00 +20.0 19.58 - 2.8 33.9 07 14 4726 0929 Alarm State:  0
Thu Nov 16 09:45:17 PST 2017 ON: 20.01 +20.0 19.66 - 4.9 33.1 0C 14 4711 092B Alarm State:  0
Thu Nov 16 09:44:16 PST 2017 ON: 20.00 +20.0 19.61 - 3.0 33.8 00 14 480E 091C Alarm State:  0
Thu Nov 16 09:43:14 PST 2017 ON: 19.99 +20.0 19.64 - 4.6 33.2 00 14 4724 0926 Alarm State:  0
Thu Nov 16 09:42:13 PST 2017 ON: 20.02 +20.0 19.67 - 4.1 33.3 00 14 4805 0907 Alarm State:  0
Thu Nov 16 09:41:11 PST 2017 ON: 19.99 +20.0 19.63 - 3.6 34.0 00 14 4721 0913 Alarm State:  0
Thu Nov 16 09:40:10 PST 2017 ON: 20.02 +20.0 19.67 - 4.9 33.2 0A 14 4713 0918 Alarm State:  0
Thu Nov 16 09:39:08 PST 2017 ON: 20.01 +20.0 19.61 - 3.4 33.7 02 14 4809 0901 Alarm State:  0
Thu Nov 16 09:38:07 PST 2017 ON: 19.98 +20.0 19.65 - 4.4 33.4 00 14 4728 0A04 Alarm State:  0
Thu Nov 16 09:37:05 PST 2017 ON: 20.02 +20.0 19.68 - 4.9 32.8 03 14 4806 090E Alarm State:  0
Thu Nov 16 09:36:04 PST 2017 ON: 19.98 +20.0 19.65 - 4.0 33.8 05 14 4800 092D Alarm State:  0
Thu Nov 16 09:35:02 PST 2017 ON: 20.02 +20.0 19.71 - 5.4 32.7 0D 13 472C 0919 Alarm State:  0
Thu Nov 16 09:34:01 PST 2017 ON: 20.04 +20.0 19.64 - 3.4 33.8 00 14 4712 0922 Alarm State:  0
Thu Nov 16 09:32:59 PST 2017 ON: 20.01 +20.0 19.68 - 4.4 33.3 00 14 4616 0909 Alarm State:  0
Thu Nov 16 09:31:58 PST 2017 ON: 20.03 +20.0 19.71 - 4.9 32.7 05 13 4616 0A00 Alarm State:  0
Thu Nov 16 09:30:56 PST 2017 ON: 19.98 +20.0 19.63 - 3.6 33.9 00 14 4611 0A19 Alarm State:  0
Thu Nov 16 09:29:55 PST 2017 ON: 20.03 +20.0 19.73 - 6.0 31.9 0D 13 460B 0B04 Alarm State:  0
Thu Nov 16 09:28:53 PST 2017 ON: 19.96 +20.0 19.59 - 3.4 33.7 04 14 4709 0A0B Alarm State:  0
Thu Nov 16 09:27:52 PST 2017 ON: 20.01 +20.0 19.60 - 2.7 33.8 00 14 4813 090D Alarm State:  0
Thu Nov 16 09:26:50 PST 2017 ON: 19.97 +20.0 19.65 - 4.3 33.2 00 14 472B 0A0B Alarm State:  0
Thu Nov 16 09:25:49 PST 2017 ON: 19.98 +20.0 19.58 - 2.3 34.0 00 14 482C 091B Alarm State:  0
Thu Nov 16 09:24:47 PST 2017 ON: 19.99 +20.0 19.67 - 4.1 33.5 00 14 4811 0923 Alarm State:  0
Thu Nov 16 09:23:46 PST 2017 ON: 20.05 +20.0 19.70 - 4.9 32.7 0D 13 4809 0918 Alarm State:  0
Thu Nov 16 09:22:44 PST 2017 ON: 20.02 +20.0 19.63 - 3.3 33.8 00 14 4721 0926 Alarm State:  0
Thu Nov 16 09:21:43 PST 2017 ON: 20.00 +20.0 19.65 - 4.1 33.3 02 14 4715 0925 Alarm State:  0
Thu Nov 16 09:20:41 PST 2017 ON: 20.03 +20.0 19.62 - 3.5 33.5 00 14 480D 0918 Alarm State:  0
Thu Nov 16 09:19:40 PST 2017 ON: 19.98 +20.0 19.64 - 3.5 34.0 05 14 4728 090F Alarm State:  0
Thu Nov 16 09:18:38 PST 2017 ON: 20.00 +20.0 19.70 - 5.1 33.1 0D 13 4717 090B Alarm State:  0
Thu Nov 16 09:17:37 PST 2017 ON: 19.99 +20.0 19.59 - 2.5 34.2 07 14 4810 0903 Alarm State:  0
Thu Nov 16 09:16:35 PST 2017 ON: 20.02 +20.0 19.69 - 5.1 33.1 0D 14 471B 0909 Alarm State:  0
Thu Nov 16 09:15:34 PST 2017 ON: 20.01 +20.0 19.60 - 2.9 33.8 00 14 4732 0912 Alarm State:  0
Thu Nov 16 09:14:32 PST 2017 ON: 19.99 +20.0 19.63 - 4.2 33.3 00 14 4724 0A0D Alarm State:  0
Thu Nov 16 09:13:31 PST 2017 ON: 20.02 +20.0 19.62 - 2.5 33.9 00 14 4824 0914 Alarm State:  0
Thu Nov 16 09:12:29 PST 2017 ON: 20.01 +20.0 19.64 - 3.5 33.7 05 14 4802 091F Alarm State:  0
Thu Nov 16 09:11:28 PST 2017 ON: 19.98 +20.0 19.64 - 3.6 34.1 0A 14 4716 0929 Alarm State:  0
Thu Nov 16 09:10:26 PST 2017 ON: 20.02 +20.0 19.70 - 5.7 32.5 0D 14 462A 0A28 Alarm State:  0
Thu Nov 16 09:09:25 PST 2017 ON: 19.98 +20.0 19.60 - 2.9 34.2 07 14 472A 092F Alarm State:  0
Thu Nov 16 09:08:23 PST 2017 ON: 20.01 +20.0 19.69 - 4.7 32.9 00 14 4809 0902 Alarm State:  0
Thu Nov 16 09:07:22 PST 2017 ON: 19.98 +20.0 19.59 - 2.6 34.2 00 14 4812 0913 Alarm State:  0
Thu Nov 16 09:06:20 PST 2017 ON: 20.01 +20.0 19.68 - 4.7 33.3 05 14 471B 0922 Alarm State:  0
Thu Nov 16 09:05:19 PST 2017 ON: 20.00 +20.0 19.60 - 2.5 33.9 01 14 472A 0900 Alarm State:  0
Thu Nov 16 09:04:18 PST 2017 ON: 20.02 +20.0 19.66 - 4.0 33.7 07 14 4700 090D Alarm State:  0
Thu Nov 16 09:03:16 PST 2017 ON: 20.05 +20.0 19.68 - 4.6 33.0 00 14 462C 090D Alarm State:  0
Thu Nov 16 09:02:15 PST 2017 ON: 19.97 +20.0 19.64 - 3.7 33.7 07 14 4620 092E Alarm State:  0
Thu Nov 16 09:01:13 PST 2017 ON: 20.02 +20.0 19.65 - 3.8 33.3 00 14 470E 0921 Alarm State:  0
Thu Nov 16 09:00:12 PST 2017 ON: 19.98 +20.0 19.65 - 3.7 33.8 05 14 462D 0922 Alarm State:  0
Thu Nov 16 08:59:10 PST 2017 ON: 20.02 +20.0 19.70 - 5.2 32.8 08 13 462C 090E Alarm State:  0
Thu Nov 16 08:58:09 PST 2017 ON: 20.02 +20.0 19.63 - 3.0 34.1 07 14 462C 0A01 Alarm State:  0
Thu Nov 16 08:57:07 PST 2017 ON: 20.00 +20.0 19.69 - 5.0 33.0 0C 14 460B 0B09 Alarm State:  0
Thu Nov 16 08:56:06 PST 2017 ON: 19.99 +20.0 19.58 - 2.1 34.2 01 14 4716 0A09 Alarm State:  0
Thu Nov 16 08:55:04 PST 2017 ON: 20.00 +20.0 19.68 - 4.8 33.1 0A 14 470F 0A24 Alarm State:  0
Thu Nov 16 08:54:03 PST 2017 ON: 19.96 +20.0 19.58 - 2.3 34.3 01 14 4816 0924 Alarm State:  0
Thu Nov 16 08:53:01 PST 2017 ON: 19.98 +20.0 19.67 - 4.5 33.3 00 14 4805 091E Alarm State:  0
Thu Nov 16 08:52:00 PST 2017 ON: 20.01 +20.0 19.63 - 3.1 33.7 00 14 4817 0903 Alarm State:  0
Thu Nov 16 08:50:58 PST 2017 ON: 20.00 +20.0 19.65 - 3.4 33.8 00 14 471D 0915 Alarm State:  0
Thu Nov 16 08:49:57 PST 2017 ON: 20.01 +20.0 19.66 - 4.5 33.3 0D 14 4630 091E Alarm State:  0
Thu Nov 16 08:48:55 PST 2017 ON: 20.00 +20.0 19.60 - 2.7 33.9 01 14 4722 0907 Alarm State:  0
Thu Nov 16 08:47:54 PST 2017 ON: 19.97 +20.0 19.63 - 4.3 33.4 00 14 4712 0930 Alarm State:  0
Thu Nov 16 08:46:52 PST 2017 ON: 20.00 +20.0 19.57 - 2.5 33.9 00 14 481A 0903 Alarm State:  0
Thu Nov 16 08:45:51 PST 2017 ON: 19.99 +20.0 19.64 - 3.9 33.8 00 14 4800 090A Alarm State:  0
Thu Nov 16 08:44:49 PST 2017 ON: 20.02 +20.0 19.74 - 5.4 32.7 0A 11 4722 090A Alarm State:  0
Thu Nov 16 08:43:48 PST 2017 ON: 19.98 +20.0 19.61 - 2.9 34.2 0A 14 471E 091E Alarm State:  0
Thu Nov 16 08:42:46 PST 2017 ON: 20.02 +20.0 19.69 - 5.2 33.0 0A 14 462E 0922 Alarm State:  0
Thu Nov 16 08:41:45 PST 2017 ON: 20.00 +20.0 19.59 - 2.8 34.1 01 14 471D 0918 Alarm State:  0
Thu Nov 16 08:40:43 PST 2017 ON: 20.01 +20.0 19.66 - 4.5 33.3 05 14 4700 091E Alarm State:  0
Thu Nov 16 08:39:42 PST 2017 ON: 19.99 +20.0 19.62 - 2.5 33.9 00 14 4720 091A Alarm State:  0
Thu Nov 16 08:38:40 PST 2017 ON: 19.97 +20.0 19.65 - 4.5 33.2 05 14 4709 0A18 Alarm State:  0
Thu Nov 16 08:37:39 PST 2017 ON: 19.99 +20.0 19.57 - 2.1 34.1 00 14 480F 091D Alarm State:  0
Thu Nov 16 08:36:37 PST 2017 ON: 19.99 +20.0 19.67 - 4.1 33.5 0C 14 4730 091A Alarm State:  0
Thu Nov 16 08:35:36 PST 2017 ON: 20.01 +20.0 19.63 - 3.1 33.7 00 14 481E 0911 Alarm State:  0
Thu Nov 16 08:34:34 PST 2017 ON: 20.02 +20.0 19.65 - 3.6 33.6 02 14 4723 0924 Alarm State:  0
Thu Nov 16 08:33:33 PST 2017 ON: 19.99 +20.0 19.65 - 3.6 34.0 05 14 470C 0901 Alarm State:  0
Thu Nov 16 08:32:31 PST 2017 ON: 20.03 +20.0 19.71 - 5.7 32.5 0D 13 4631 0929 Alarm State:  0
Thu Nov 16 08:31:30 PST 2017 ON: 19.97 +20.0 19.59 - 2.9 34.2 04 14 472B 0918 Alarm State:  0
Thu Nov 16 08:30:28 PST 2017 ON: 20.04 +20.0 19.70 - 5.3 32.8 0D 13 472B 0924 Alarm State:  0
Thu Nov 16 08:29:27 PST 2017 ON: 20.00 +20.0 19.58 - 2.6 34.0 01 14 4803 0904 Alarm State:  0
Thu Nov 16 08:28:25 PST 2017 ON: 20.00 +20.0 19.64 - 4.0 33.7 02 14 4724 0907 Alarm State:  0
Thu Nov 16 08:27:24 PST 2017 ON: 20.05 +20.0 19.70 - 5.1 32.3 0D 13 472B 091E Alarm State:  0
Thu Nov 16 08:26:22 PST 2017 ON: 19.98 +20.0 19.61 - 3.2 34.2 05 14 480C 091F Alarm State:  0
Thu Nov 16 08:25:21 PST 2017 ON: 20.02 +20.0 19.69 - 4.4 33.4 0D 14 481B 0922 Alarm State:  0
Thu Nov 16 08:24:19 PST 2017 ON: 20.00 +20.0 19.61 - 2.9 33.9 00 14 4904 0920 Alarm State:  0
Thu Nov 16 08:23:18 PST 2017 ON: 20.03 +20.0 19.67 - 4.2 33.6 07 14 4812 0909 Alarm State:  0
Thu Nov 16 08:22:16 PST 2017 ON: 20.02 +20.0 19.70 - 5.2 32.7 05 13 472B 0912 Alarm State:  0
Thu Nov 16 08:21:15 PST 2017 ON: 20.01 +20.0 19.64 - 3.0 33.9 05 14 4730 0900 Alarm State:  0
Thu Nov 16 08:20:14 PST 2017 ON: 19.97 +20.0 19.65 - 4.0 33.6 00 14 4710 092C Alarm State:  0
Thu Nov 16 08:19:12 PST 2017 ON: 20.02 +20.0 19.68 - 4.7 32.8 00 14 471D 0910 Alarm State:  0
Thu Nov 16 08:18:10 PST 2017 ON: 19.97 +20.0 19.64 - 3.6 33.7 07 14 4723 0924 Alarm State:  0
Thu Nov 16 08:17:09 PST 2017 ON: 20.02 +20.0 19.67 - 4.6 33.0 00 14 472F 0925 Alarm State:  0
Thu Nov 16 08:16:08 PST 2017 ON: 20.00 +20.0 19.63 - 3.0 34.0 05 14 471B 0922 Alarm State:  0
Thu Nov 16 08:15:06 PST 2017 ON: 19.98 +20.0 19.66 - 4.6 33.3 05 14 4700 0A20 Alarm State:  0
Thu Nov 16 08:14:05 PST 2017 ON: 19.99 +20.0 19.59 - 2.2 34.1 04 14 4809 0928 Alarm State:  0
Thu Nov 16 08:13:03 PST 2017 ON: 20.00 +20.0 19.67 - 4.6 33.2 05 14 4725 092A Alarm State:  0
Thu Nov 16 08:12:02 PST 2017 ON: 20.03 +20.0 19.64 - 3.1 33.7 05 14 481A 091A Alarm State:  0
Thu Nov 16 08:11:00 PST 2017 ON: 20.01 +20.0 19.64 - 3.3 34.1 05 14 4805 091C Alarm State:  0
Thu Nov 16 08:09:59 PST 2017 ON: 20.02 +20.0 19.68 - 4.4 33.6 00 14 4716 0927 Alarm State:  0
Thu Nov 16 08:08:57 PST 2017 ON: 20.05 +20.0 19.70 - 5.1 32.5 0D 14 4628 0A0C Alarm State:  0
Thu Nov 16 08:07:56 PST 2017 ON: 19.97 +20.0 19.64 - 3.7 33.7 07 14 470D 0A10 Alarm State:  0
Thu Nov 16 08:06:54 PST 2017 ON: 20.04 +20.0 19.66 - 4.3 33.2 00 14 4728 090E Alarm State:  0
Thu Nov 16 08:05:53 PST 2017 ON: 19.97 +20.0 19.64 - 3.9 33.4 00 14 471E 092F Alarm State:  0
Thu Nov 16 08:04:51 PST 2017 ON: 20.02 +20.0 19.69 - 4.5 33.1 0A 14 4804 0908 Alarm State:  0
Thu Nov 16 08:03:50 PST 2017 ON: 19.99 +20.0 19.60 - 2.9 34.2 05 14 4804 0926 Alarm State:  0
Thu Nov 16 08:02:48 PST 2017 ON: 20.00 +20.0 19.67 - 4.2 33.7 00 14 470E 0928 Alarm State:  0
Thu Nov 16 08:01:47 PST 2017 ON: 20.01 +20.0 19.71 - 5.5 32.7 0D 13 4613 0A14 Alarm State:  0
Thu Nov 16 08:00:45 PST 2017 ON: 19.97 +20.0 19.62 - 2.9 34.2 02 14 4709 092F Alarm State:  0
Thu Nov 16 07:59:44 PST 2017 ON: 20.02 +20.0 19.71 - 5.6 32.5 0D 13 4703 0A1E Alarm State:  0
Thu Nov 16 07:58:42 PST 2017 ON: 19.97 +20.0 19.59 - 2.7 34.2 04 14 4803 0927 Alarm State:  0
Thu Nov 16 07:57:41 PST 2017 ON: 20.03 +20.0 19.69 - 4.8 33.1 0D 14 4803 090E Alarm State:  0
Thu Nov 16 07:56:39 PST 2017 ON: 20.02 +20.0 19.61 - 2.7 34.1 0A 14 4820 091D Alarm State:  0
Thu Nov 16 07:55:38 PST 2017 ON: 20.01 +20.0 19.66 - 3.9 33.9 0C 14 472A 0904 Alarm State:  0
Thu Nov 16 07:54:36 PST 2017 ON: 20.03 +20.0 19.68 - 4.2 33.9 05 14 4704 0917 Alarm State:  0
Thu Nov 16 07:53:35 PST 2017 ON: 20.02 +20.0 19.69 - 4.7 33.1 0C 14 4620 0921 Alarm State:  0
Thu Nov 16 07:52:33 PST 2017 ON: 20.00 +20.0 19.61 - 2.5 34.1 00 14 471D 0901 Alarm State:  0
Thu Nov 16 07:51:32 PST 2017 ON: 20.02 +20.0 19.68 - 4.5 33.3 07 14 462B 090F Alarm State:  0
Thu Nov 16 07:50:30 PST 2017 ON: 19.99 +20.0 19.63 - 3.7 33.4 00 14 470E 0917 Alarm State:  0
Thu Nov 16 07:49:29 PST 2017 ON: 19.96 +20.0 19.61 - 3.8 33.6 05 14 4709 0931 Alarm State:  0
Thu Nov 16 07:48:27 PST 2017 ON: 20.01 +20.0 19.63 - 2.9 33.8 05 14 4804 0903 Alarm State:  0
Thu Nov 16 07:47:26 PST 2017 ON: 20.02 +20.0 19.68 - 4.0 33.4 02 14 462D 0917 Alarm State:  0
Thu Nov 16 07:46:24 PST 2017 ON: 19.98 +20.0 19.62 - 4.0 33.3 07 14 4627 0A02 Alarm State:  0
Thu Nov 16 07:45:23 PST 2017 ON: 20.03 +20.0 19.69 - 4.2 33.1 0D 14 4719 0919 Alarm State:  0
Thu Nov 16 07:44:21 PST 2017 ON: 19.99 +20.0 19.62 - 3.5 34.1 00 14 4713 0910 Alarm State:  0
Thu Nov 16 07:43:20 PST 2017 ON: 20.01 +20.0 19.69 - 5.5 32.6 0D 14 4704 0A02 Alarm State:  0
Thu Nov 16 07:42:18 PST 2017 ON: 19.96 +20.0 19.58 - 2.7 34.2 00 14 4805 090A Alarm State:  0
Thu Nov 16 07:41:17 PST 2017 ON: 19.99 +20.0 19.69 - 5.1 33.0 0D 14 4804 0921 Alarm State:  0
Thu Nov 16 07:40:15 PST 2017 ON: 20.00 +20.0 19.63 - 2.6 34.1 07 14 4816 091D Alarm State:  0
Thu Nov 16 07:39:14 PST 2017 ON: 20.00 +20.0 19.65 - 4.1 33.7 05 14 472A 0927 Alarm State:  0
Thu Nov 16 07:38:12 PST 2017 ON: 20.05 +20.0 19.71 - 4.9 33.0 0D 13 471C 0928 Alarm State:  0
Thu Nov 16 07:37:11 PST 2017 ON: 20.03 +20.0 19.63 - 3.4 33.7 02 14 471F 091E Alarm State:  0
Thu Nov 16 07:36:00 PST 2017 ON: 19.97 +20.0 19.63 - 3.4 34.0 00 14 471D 0911 Alarm State:  0
Thu Nov 16 07:34:58 PST 2017 ON: 20.00 +20.0 19.71 - 4.8 33.1 0D 13 4712 0907 Alarm State:  0
Thu Nov 16 07:33:56 PST 2017 ON: 20.02 +20.0 19.63 - 3.1 33.7 00 14 4726 090F Alarm State:  0
Thu Nov 16 07:32:55 PST 2017 ON: 19.99 +20.0 19.64 - 4.1 33.5 0C 14 470F 0A05 Alarm State:  0
Thu Nov 16 07:31:53 PST 2017 ON: 20.01 +20.0 19.65 - 3.8 33.4 00 14 4731 0902 Alarm State:  0
Thu Nov 16 07:30:52 PST 2017 ON: 20.02 +20.0 19.63 - 3.4 33.7 00 14 4720 090A Alarm State:  0
Thu Nov 16 07:29:51 PST 2017 ON: 19.98 +20.0 19.65 - 4.0 33.7 00 14 470A 090D Alarm State:  0
Thu Nov 16 07:28:49 PST 2017 ON: 20.02 +20.0 19.70 - 5.3 32.5 0A 13 462D 0926 Alarm State:  0
Thu Nov 16 07:27:48 PST 2017 ON: 20.00 +20.0 19.65 - 3.7 34.0 05 14 4621 0923 Alarm State:  0
Thu Nov 16 07:26:46 PST 2017 ON: 20.03 +20.0 19.73 - 5.8 32.4 0D 12 460C 0921 Alarm State:  0
Thu Nov 16 07:25:45 PST 2017 ON: 19.99 +20.0 19.62 - 3.5 33.9 00 14 4628 0924 Alarm State:  0
Thu Nov 16 07:24:43 PST 2017 ON: 20.02 +20.0 19.70 - 5.0 33.0 0D 13 4704 0900 Alarm State:  0
Thu Nov 16 07:23:42 PST 2017 ON: 20.00 +20.0 19.61 - 2.9 33.8 02 14 471C 090A Alarm State:  0
Thu Nov 16 07:22:40 PST 2017 ON: 19.97 +20.0 19.64 - 4.1 33.5 00 14 470F 0A02 Alarm State:  0
Thu Nov 16 07:21:39 PST 2017 ON: 20.02 +20.0 19.66 - 3.7 33.4 00 14 4812 0918 Alarm State:  0
Thu Nov 16 07:20:37 PST 2017 ON: 20.00 +20.0 19.64 - 3.3 34.1 07 14 4817 0906 Alarm State:  0
Thu Nov 16 07:19:36 PST 2017 ON: 20.00 +20.0 19.68 - 4.9 33.2 0D 14 4807 0930 Alarm State:  0
Thu Nov 16 07:18:34 PST 2017 ON: 20.00 +20.0 19.60 - 2.6 34.1 00 14 4903 091C Alarm State:  0
Thu Nov 16 07:17:33 PST 2017 ON: 19.98 +20.0 19.64 - 4.0 33.7 00 14 481E 091F Alarm State:  0
Thu Nov 16 07:16:31 PST 2017 ON: 20.02 +20.0 19.70 - 5.2 32.8 0A 13 480F 0911 Alarm State:  0
Thu Nov 16 07:15:30 PST 2017 ON: 19.99 +20.0 19.62 - 3.1 33.8 00 14 4812 0928 Alarm State:  0
Thu Nov 16 07:14:28 PST 2017 ON: 19.99 +20.0 19.66 - 3.9 33.5 00 14 4812 091D Alarm State:  0
Thu Nov 16 07:13:27 PST 2017 ON: 20.03 +20.0 19.68 - 4.7 33.0 0D 14 481D 0922 Alarm State:  0
Thu Nov 16 07:12:25 PST 2017 ON: 20.04 +20.0 19.64 - 3.3 33.9 02 14 4809 0900 Alarm State:  0
Thu Nov 16 07:11:24 PST 2017 ON: 20.01 +20.0 19.67 - 4.7 33.2 0C 14 4719 092F Alarm State:  0
Thu Nov 16 07:10:22 PST 2017 ON: 19.98 +20.0 19.58 - 2.4 34.1 00 14 481E 090D Alarm State:  0
Thu Nov 16 07:09:21 PST 2017 ON: 20.00 +20.0 19.67 - 4.4 33.6 00 14 472C 0915 Alarm State:  0
Thu Nov 16 07:08:19 PST 2017 ON: 19.99 +20.0 19.72 - 5.5 32.6 0D 12 471E 091A Alarm State:  0
Thu Nov 16 07:07:18 PST 2017 ON: 19.97 +20.0 19.59 - 2.9 34.2 04 14 4806 090F Alarm State:  0
Thu Nov 16 07:06:16 PST 2017 ON: 20.01 +20.0 19.69 - 5.0 33.1 0D 14 4725 090A Alarm State:  0
Thu Nov 16 07:05:15 PST 2017 ON: 20.01 +20.0 19.62 - 3.1 33.7 02 14 480F 0907 Alarm State:  0
Thu Nov 16 07:04:13 PST 2017 ON: 20.02 +20.0 19.65 - 3.8 33.8 07 14 4801 0904 Alarm State:  0
Thu Nov 16 07:03:12 PST 2017 ON: 20.04 +20.0 19.69 - 5.2 32.5 0A 14 472F 091F Alarm State:  0
Thu Nov 16 07:02:10 PST 2017 ON: 19.97 +20.0 19.60 - 3.1 34.1 05 14 480C 0904 Alarm State:  0
Thu Nov 16 07:01:09 PST 2017 ON: 20.01 +20.0 19.69 - 5.0 33.1 08 14 472C 0904 Alarm State:  0
Thu Nov 16 07:00:07 PST 2017 ON: 20.00 +20.0 19.61 - 3.1 33.9 00 14 4811 0912 Alarm State:  0
Thu Nov 16 06:59:06 PST 2017 ON: 19.99 +20.0 19.67 - 4.1 33.7 00 14 4723 091A Alarm State:  0
Thu Nov 16 06:58:04 PST 2017 ON: 20.04 +20.0 19.70 - 5.0 32.6 08 13 4727 0905 Alarm State:  0
Thu Nov 16 06:57:03 PST 2017 ON: 19.99 +20.0 19.63 - 3.4 34.1 05 14 471C 0922 Alarm State:  0
Thu Nov 16 06:56:01 PST 2017 ON: 20.03 +20.0 19.68 - 4.4 33.7 07 14 4700 0925 Alarm State:  0
Thu Nov 16 06:55:00 PST 2017 ON: 20.04 +20.0 19.71 - 5.5 32.7 0A 13 4624 0A04 Alarm State:  0
Thu Nov 16 06:53:58 PST 2017 ON: 19.97 +20.0 19.59 - 2.7 34.1 00 14 4711 092E Alarm State:  0
Thu Nov 16 06:52:57 PST 2017 ON: 19.98 +20.0 19.68 - 4.6 33.1 00 14 4708 0A20 Alarm State:  0
Thu Nov 16 06:51:55 PST 2017 ON: 19.99 +20.0 19.58 - 2.4 34.1 01 14 480D 0926 Alarm State:  0
Thu Nov 16 06:50:54 PST 2017 ON: 20.00 +20.0 19.66 - 4.5 33.4 05 14 4725 0928 Alarm State:  0
Thu Nov 16 06:49:52 PST 2017 ON: 20.03 +20.0 19.69 - 5.1 32.6 05 14 4729 0913 Alarm State:  0
Thu Nov 16 06:48:51 PST 2017 ON: 20.00 +20.0 19.62 - 3.4 34.2 02 14 4809 0923 Alarm State:  0
Thu Nov 16 06:47:49 PST 2017 ON: 20.02 +20.0 19.70 - 5.1 33.2 05 13 4732 0914 Alarm State:  0
Thu Nov 16 06:46:48 PST 2017 ON: 20.00 +20.0 19.69 - 4.9 32.8 05 14 470B 0926 Alarm State:  0
Thu Nov 16 06:45:46 PST 2017 ON: 19.99 +20.0 19.60 - 2.9 34.1 07 14 4721 0907 Alarm State:  0
Thu Nov 16 06:44:45 PST 2017 ON: 20.00 +20.0 19.65 - 4.1 33.9 05 14 4722 0920 Alarm State:  0
Thu Nov 16 06:43:43 PST 2017 ON: 20.00 +20.0 19.69 - 5.2 33.0 0D 14 4720 0915 Alarm State:  0
Thu Nov 16 06:42:42 PST 2017 ON: 19.99 +20.0 19.60 - 2.8 33.9 00 14 480A 0916 Alarm State:  0
Thu Nov 16 06:41:40 PST 2017 ON: 19.99 +20.0 19.65 - 4.6 33.1 05 14 4723 0917 Alarm State:  0
Thu Nov 16 06:40:39 PST 2017 ON: 20.00 +20.0 19.61 - 3.1 33.8 00 14 481B 0908 Alarm State:  0
Thu Nov 16 06:39:37 PST 2017 ON: 20.02 +20.0 19.64 - 3.7 34.0 0D 14 472E 0915 Alarm State:  0
Thu Nov 16 06:38:36 PST 2017 ON: 20.02 +20.0 19.71 - 5.5 32.8 0D 13 470D 0A1D Alarm State:  0
Thu Nov 16 06:37:34 PST 2017 ON: 19.96 +20.0 19.58 - 2.8 34.2 00 14 4812 0A00 Alarm State:  0
Thu Nov 16 06:36:33 PST 2017 ON: 20.01 +20.0 19.71 - 5.2 32.9 0D 13 4805 0924 Alarm State:  0
Thu Nov 16 06:35:31 PST 2017 ON: 20.00 +20.0 19.62 - 3.2 33.7 00 14 4815 090B Alarm State:  0
Thu Nov 16 06:34:30 PST 2017 ON: 19.99 +20.0 19.64 - 3.6 34.0 05 14 4812 0907 Alarm State:  0
Thu Nov 16 06:33:28 PST 2017 ON: 20.04 +20.0 19.70 - 4.9 33.2 0D 13 4731 0908 Alarm State:  0
Thu Nov 16 06:32:27 PST 2017 ON: 20.02 +20.0 19.63 - 3.6 33.6 02 14 4803 0902 Alarm State:  0
Thu Nov 16 06:31:25 PST 2017 ON: 19.97 +20.0 19.65 - 4.1 33.7 05 14 472A 092D Alarm State:  0
Thu Nov 16 06:30:24 PST 2017 ON: 20.02 +20.0 19.66 - 4.4 33.0 00 14 4818 091A Alarm State:  0
Thu Nov 16 06:29:22 PST 2017 ON: 19.98 +20.0 19.60 - 2.8 34.1 07 14 4822 0901 Alarm State:  0
Thu Nov 16 06:28:21 PST 2017 ON: 20.00 +20.0 19.64 - 3.5 33.8 00 14 4801 090B Alarm State:  0
Thu Nov 16 06:27:19 PST 2017 ON: 20.01 +20.0 19.66 - 3.8 33.9 0C 14 4716 0918 Alarm State:  0
Thu Nov 16 06:26:18 PST 2017 ON: 19.98 +20.0 19.67 - 4.9 33.0 0A 14 470B 0A14 Alarm State:  0
Thu Nov 16 06:25:16 PST 2017 ON: 19.99 +20.0 19.57 - 2.3 34.3 01 14 4814 0916 Alarm State:  0
Thu Nov 16 06:24:15 PST 2017 ON: 20.03 +20.0 19.68 - 4.4 33.7 0D 14 4730 0918 Alarm State:  0
Thu Nov 16 06:23:13 PST 2017 ON: 20.00 +20.0 19.69 - 4.8 33.1 0A 14 4718 0A00 Alarm State:  0
Thu Nov 16 06:22:12 PST 2017 ON: 20.00 +20.0 19.57 - 2.5 34.1 00 14 4816 091F Alarm State:  0
Thu Nov 16 06:21:10 PST 2017 ON: 20.00 +20.0 19.68 - 4.6 33.5 05 14 4727 0928 Alarm State:  0
Thu Nov 16 06:20:09 PST 2017 ON: 20.01 +20.0 19.67 - 4.9 32.6 00 14 4728 0922 Alarm State:  0
Thu Nov 16 06:19:07 PST 2017 ON: 19.97 +20.0 19.63 - 3.7 33.9 0A 14 4732 0A07 Alarm State:  0
Thu Nov 16 06:18:06 PST 2017 ON: 20.02 +20.0 19.71 - 5.4 32.8 0A 13 4804 091B Alarm State:  0
Thu Nov 16 06:17:04 PST 2017 ON: 20.01 +20.0 19.62 - 3.3 34.2 05 14 4810 0923 Alarm State:  0
Thu Nov 16 06:16:03 PST 2017 ON: 20.03 +20.0 19.70 - 4.8 33.3 0D 13 472A 091F Alarm State:  0
Thu Nov 16 06:15:01 PST 2017 ON: 20.01 +20.0 19.67 - 4.5 32.9 00 14 471C 0920 Alarm State:  0
Thu Nov 16 06:14:00 PST 2017 ON: 19.98 +20.0 19.62 - 3.7 33.8 00 14 4729 092E Alarm State:  0
Thu Nov 16 06:12:58 PST 2017 ON: 20.01 +20.0 19.72 - 5.3 32.7 0A 12 4804 0909 Alarm State:  0
Thu Nov 16 06:11:57 PST 2017 ON: 20.00 +20.0 19.62 - 3.4 33.6 00 14 4732 0905 Alarm State:  0
Thu Nov 16 06:10:55 PST 2017 ON: 19.99 +20.0 19.66 - 4.2 33.4 05 14 4722 092D Alarm State:  0
Thu Nov 16 06:09:54 PST 2017 ON: 20.01 +20.0 19.64 - 3.2 33.7 00 14 481A 0916 Alarm State:  0
Thu Nov 16 06:08:52 PST 2017 ON: 20.02 +20.0 19.62 - 3.0 34.0 0A 14 472D 0900 Alarm State:  0
Thu Nov 16 06:07:51 PST 2017 ON: 20.01 +20.0 19.67 - 4.5 33.5 05 14 4631 0914 Alarm State:  0
Thu Nov 16 06:06:49 PST 2017 ON: 20.07 +20.0 19.71 - 5.4 32.4 0A 13 4619 091F Alarm State:  0
Thu Nov 16 06:05:48 PST 2017 ON: 20.01 +20.0 19.64 - 3.6 34.1 0A 14 461A 0911 Alarm State:  0
Thu Nov 16 06:04:46 PST 2017 ON: 19.99 +20.0 19.70 - 5.1 32.9 08 14 460E 0A0C Alarm State:  0
Thu Nov 16 06:03:45 PST 2017 ON: 19.97 +20.0 19.60 - 2.7 34.2 00 14 470E 0921 Alarm State:  0
Thu Nov 16 06:02:43 PST 2017 ON: 20.00 +20.0 19.71 - 5.6 32.5 0D 13 4631 0A20 Alarm State:  0
Thu Nov 16 06:01:42 PST 2017 ON: 19.95 +20.0 19.57 - 2.7 34.3 00 14 4800 0925 Alarm State:  0
Thu Nov 16 06:00:40 PST 2017 ON: 20.02 +20.0 19.68 - 4.6 33.3 0C 14 472D 090E Alarm State:  0
Thu Nov 16 05:59:39 PST 2017 ON: 20.03 +20.0 19.69 - 4.1 33.4 08 14 471A 091A Alarm State:  0
Thu Nov 16 05:58:37 PST 2017 ON: 20.05 +20.0 19.67 - 4.6 33.1 00 14 461B 0906 Alarm State:  0
Thu Nov 16 05:57:36 PST 2017 ON: 20.01 +20.0 19.63 - 3.8 33.8 07 14 4612 0925 Alarm State:  0
Thu Nov 16 05:56:34 PST 2017 ON: 20.02 +20.0 19.72 - 5.4 32.3 0A 13 4614 0A0C Alarm State:  0
Thu Nov 16 05:55:33 PST 2017 ON: 19.97 +20.0 19.61 - 3.4 34.1 00 14 4631 0A03 Alarm State:  0
Thu Nov 16 05:54:31 PST 2017 ON: 20.00 +20.0 19.71 - 5.3 32.8 0D 13 4706 0920 Alarm State:  0
Thu Nov 16 05:53:30 PST 2017 ON: 19.98 +20.0 19.61 - 2.8 33.8 00 14 472B 091B Alarm State:  0
Thu Nov 16 05:52:28 PST 2017 ON: 19.99 +20.0 19.66 - 4.1 33.5 07 14 4719 0918 Alarm State:  0
Thu Nov 16 05:51:27 PST 2017 ON: 20.02 +20.0 19.64 - 3.5 33.5 00 14 4730 0919 Alarm State:  0
Thu Nov 16 05:50:25 PST 2017 ON: 19.99 +20.0 19.63 - 4.0 33.4 07 14 4722 0A10 Alarm State:  0
Thu Nov 16 05:49:24 PST 2017 ON: 20.03 +20.0 19.61 - 2.8 33.8 00 14 4820 0925 Alarm State:  0
Thu Nov 16 05:48:22 PST 2017 ON: 19.98 +20.0 19.68 - 4.1 33.6 00 14 472B 0907 Alarm State:  0
Thu Nov 16 05:47:21 PST 2017 ON: 20.02 +20.0 19.68 - 4.4 33.1 00 14 472C 091A Alarm State:  0
Thu Nov 16 05:46:19 PST 2017 ON: 19.99 +20.0 19.62 - 3.7 33.8 0C 14 472A 0A01 Alarm State:  0
Thu Nov 16 05:45:18 PST 2017 ON: 20.02 +20.0 19.73 - 5.2 32.7 0D 12 472B 091B Alarm State:  0
Thu Nov 16 05:44:17 PST 2017 ON: 19.98 +20.0 19.60 - 3.2 34.2 01 14 4730 0909 Alarm State:  0
Thu Nov 16 05:43:15 PST 2017 ON: 20.03 +20.0 19.69 - 4.7 33.3 0A 14 4720 0900 Alarm State:  0
Thu Nov 16 05:42:14 PST 2017 ON: 20.04 +20.0 19.62 - 3.2 33.7 02 14 471D 0919 Alarm State:  0
Thu Nov 16 05:41:12 PST 2017 ON: 19.98 +20.0 19.67 - 4.2 33.5 05 14 462E 091E Alarm State:  0
Thu Nov 16 05:40:11 PST 2017 ON: 20.01 +20.0 19.61 - 3.0 33.7 00 14 4722 0911 Alarm State:  0
Thu Nov 16 05:39:09 PST 2017 ON: 19.99 +20.0 19.63 - 3.8 33.9 05 14 470C 0A14 Alarm State:  0
Thu Nov 16 05:38:08 PST 2017 ON: 20.00 +20.0 19.72 - 5.6 32.4 0A 13 4701 0A2D Alarm State:  0
Thu Nov 16 05:37:06 PST 2017 ON: 19.99 +20.0 19.61 - 3.2 34.0 05 14 4731 0A07 Alarm State:  0
Thu Nov 16 05:36:05 PST 2017 ON: 20.04 +20.0 19.70 - 4.3 33.3 0A 13 4807 0915 Alarm State:  0
Thu Nov 16 05:35:03 PST 2017 ON: 20.02 +20.0 19.68 - 4.5 33.1 00 14 4702 0A01 Alarm State:  0
Thu Nov 16 05:34:02 PST 2017 ON: 19.99 +20.0 19.64 - 3.8 33.4 00 14 462E 0A16 Alarm State:  0
Thu Nov 16 05:33:00 PST 2017 ON: 20.01 +20.0 19.69 - 4.4 33.0 05 14 470D 0A1A Alarm State:  0
Thu Nov 16 05:31:59 PST 2017 ON: 19.96 +20.0 19.61 - 3.4 33.3 00 14 470C 0A2E Alarm State:  0
Thu Nov 16 05:30:57 PST 2017 ON: 19.98 +20.0 19.60 - 1.8 33.6 0C 14 4815 0926 Alarm State:  0
Thu Nov 16 05:29:56 PST 2017 ON: 20.08 +20.0 19.80 - 1.7 34.4 03 0E 4804 0916 Alarm State:  0
Thu Nov 16 05:28:54 PST 2017 ON: 20.03 +20.0 19.73 - 5.5 32.8 0D 12 4626 0A00 Alarm State:  5
Thu Nov 16 05:27:53 PST 2017 ON: 19.98 +20.0 19.58 - 2.7 34.3 09 14 4724 091B Alarm State:  5
Thu Nov 16 05:26:51 PST 2017 ON: 20.01 +20.0 19.69 - 5.2 33.0 0D 14 471C 0A0C Alarm State:  5
Thu Nov 16 05:25:50 PST 2017 ON: 20.00 +20.0 19.58 - 2.3 34.1 01 14 481A 0919 Alarm State:  5
Thu Nov 16 05:24:48 PST 2017 ON: 19.99 +20.0 19.67 - 4.5 33.5 05 14 4802 091C Alarm State:  5
Thu Nov 16 05:23:47 PST 2017 ON: 20.01 +20.0 19.63 - 4.0 33.3 00 14 4813 0927 Alarm State:  5
Thu Nov 16 05:22:45 PST 2017 ON: 20.00 +20.0 19.66 - 3.8 33.8 07 14 480B 0924 Alarm State:  5
Thu Nov 16 05:21:44 PST 2017 ON: 20.02 +20.0 19.71 - 5.4 32.6 0D 13 4800 0916 Alarm State:  5
Thu Nov 16 05:20:42 PST 2017 ON: 20.01 +20.0 19.63 - 3.2 34.2 0A 14 4814 091C Alarm State:  5
Thu Nov 16 05:19:41 PST 2017 ON: 20.05 +20.0 19.70 - 5.1 33.1 0D 13 472E 0916 Alarm State:  5
Thu Nov 16 05:18:39 PST 2017 ON: 20.01 +20.0 19.66 - 3.8 33.4 00 14 471A 091D Alarm State:  5
Thu Nov 16 05:17:38 PST 2017 ON: 19.99 +20.0 19.63 - 3.5 34.0 00 14 470D 091B Alarm State:  5
Thu Nov 16 05:16:36 PST 2017 ON: 20.01 +20.0 19.73 - 5.3 32.8 0D 12 462C 091C Alarm State:  5
Thu Nov 16 05:15:35 PST 2017 ON: 19.99 +20.0 19.62 - 2.8 34.1 00 14 4710 091D Alarm State:  5
Thu Nov 16 05:14:33 PST 2017 ON: 20.02 +20.0 19.69 - 4.8 33.1 05 14 4621 0A26 Alarm State:  5
Thu Nov 16 05:13:32 PST 2017 ON: 20.01 +20.0 19.67 - 3.9 33.4 05 14 4715 0A17 Alarm State:  5
Thu Nov 16 05:12:30 PST 2017 ON: 19.97 +20.0 19.62 - 3.7 33.6 07 14 4727 0A15 Alarm State:  5
Thu Nov 16 05:11:29 PST 2017 ON: 20.04 +20.0 19.66 - 4.0 33.4 00 14 481F 0926 Alarm State:  5
Thu Nov 16 05:10:27 PST 2017 ON: 19.99 +20.0 19.61 - 3.3 34.2 02 14 4817 0921 Alarm State:  5
Thu Nov 16 05:09:26 PST 2017 ON: 20.02 +20.0 19.68 - 4.7 33.5 07 14 4731 0927 Alarm State:  5
Thu Nov 16 05:08:24 PST 2017 ON: 20.02 +20.0 19.73 - 5.6 32.4 05 12 4709 090F Alarm State:  5
Thu Nov 16 05:07:23 PST 2017 ON: 19.97 +20.0 19.61 - 3.2 34.1 00 14 4710 0922 Alarm State:  5
Thu Nov 16 05:06:21 PST 2017 ON: 20.00 +20.0 19.70 - 4.7 33.3 0A 13 4709 091A Alarm State:  5
Thu Nov 16 05:05:20 PST 2017 ON: 20.01 +20.0 19.61 - 2.8 33.8 00 14 4729 090E Alarm State:  5
Thu Nov 16 05:04:18 PST 2017 ON: 19.98 +20.0 19.66 - 4.3 33.4 00 14 462F 0918 Alarm State:  5
Thu Nov 16 05:03:17 PST 2017 ON: 20.03 +20.0 19.62 - 3.0 33.7 00 14 471E 0914 Alarm State:  5
Thu Nov 16 05:02:15 PST 2017 ON: 20.00 +20.0 19.64 - 4.2 33.6 07 14 4703 0A14 Alarm State:  5
Thu Nov 16 05:01:14 PST 2017 ON: 20.02 +20.0 19.72 - 5.5 32.3 03 13 4709 0A22 Alarm State:  5
Thu Nov 16 05:00:12 PST 2017 ON: 19.98 +20.0 19.61 - 3.3 34.0 07 14 4730 0A14 Alarm State:  5
Thu Nov 16 04:59:11 PST 2017 ON: 20.01 +20.0 19.71 - 4.8 33.2 0A 13 480B 0919 Alarm State:  5
Thu Nov 16 04:58:10 PST 2017 ON: 20.02 +20.0 19.66 - 4.1 33.3 00 14 4729 0921 Alarm State:  5
Thu Nov 16 04:57:08 PST 2017 ON: 19.98 +20.0 19.61 - 3.4 33.6 00 14 4721 091C Alarm State:  5
Thu Nov 16 04:56:07 PST 2017 ON: 19.97 +20.0 19.62 - 3.8 33.5 00 14 4803 092A Alarm State:  5
Thu Nov 16 04:55:05 PST 2017 ON: 20.03 +20.0 19.68 - 4.2 33.3 0D 14 4821 0922 Alarm State:  5
Thu Nov 16 04:54:04 PST 2017 ON: 20.02 +20.0 19.68 - 4.9 32.8 0D 14 4806 0901 Alarm State:  5
Thu Nov 16 04:53:02 PST 2017 ON: 20.01 +20.0 19.62 - 3.0 34.1 0C 14 472D 091F Alarm State:  5
Thu Nov 16 04:52:01 PST 2017 ON: 20.00 +20.0 19.67 - 4.8 33.1 0A 14 470C 0A29 Alarm State:  5
Thu Nov 16 04:50:59 PST 2017 ON: 20.01 +20.0 19.61 - 3.0 33.8 00 14 480F 0A09 Alarm State:  5
Thu Nov 16 04:49:58 PST 2017 ON: 19.99 +20.0 19.65 - 3.9 33.4 07 14 4812 0A16 Alarm State:  5
Thu Nov 16 04:48:56 PST 2017 ON: 20.02 +20.0 19.66 - 3.7 33.5 05 14 4905 0905 Alarm State:  5
Thu Nov 16 04:47:55 PST 2017 ON: 20.01 +20.0 19.65 - 3.5 33.7 00 14 4815 090F Alarm State:  5
Thu Nov 16 04:46:53 PST 2017 ON: 20.01 +20.0 19.63 - 3.2 33.8 00 14 4726 091A Alarm State:  5
Thu Nov 16 04:45:52 PST 2017 ON: 19.97 +20.0 19.66 - 4.6 33.2 0C 14 4705 0A1E Alarm State:  5
Thu Nov 16 04:44:50 PST 2017 ON: 20.00 +20.0 19.59 - 2.4 34.1 0C 14 4810 0920 Alarm State:  5
Thu Nov 16 04:43:49 PST 2017 ON: 20.01 +20.0 19.66 - 3.7 33.9 00 14 4807 0916 Alarm State:  5
Thu Nov 16 04:42:47 PST 2017 ON: 20.01 +20.0 19.72 - 5.3 32.8 0A 12 4722 0919 Alarm State:  5
Thu Nov 16 04:41:46 PST 2017 ON: 19.99 +20.0 19.62 - 2.8 34.2 07 14 472F 092A Alarm State:  5
Thu Nov 16 04:40:44 PST 2017 ON: 20.00 +20.0 19.66 - 4.2 33.8 00 14 4707 090A Alarm State:  5
Thu Nov 16 04:39:43 PST 2017 ON: 20.00 +20.0 19.72 - 5.3 33.0 0D 12 4621 0916 Alarm State:  5
Thu Nov 16 04:38:41 PST 2017 ON: 20.00 +20.0 19.61 - 3.2 34.0 0D 14 462B 0926 Alarm State:  5
Thu Nov 16 04:37:40 PST 2017 ON: 19.98 +20.0 19.68 - 5.1 32.9 02 14 4620 0A2F Alarm State:  5
Thu Nov 16 04:36:38 PST 2017 ON: 19.98 +20.0 19.56 - 2.4 34.3 04 14 472B 0927 Alarm State:  5
Thu Nov 16 04:35:37 PST 2017 ON: 20.01 +20.0 19.64 - 3.8 34.0 0A 14 4803 0915 Alarm State:  5
Thu Nov 16 04:34:35 PST 2017 ON: 19.99 +20.0 19.67 - 4.7 33.3 05 14 471E 0914 Alarm State:  5
Thu Nov 16 04:33:34 PST 2017 ON: 20.02 +20.0 19.60 - 2.8 34.0 00 14 4810 0905 Alarm State:  5
Thu Nov 16 04:32:32 PST 2017 ON: 20.00 +20.0 19.69 - 4.5 33.2 03 14 4717 0918 Alarm State:  5
Thu Nov 16 04:31:31 PST 2017 ON: 20.04 +20.0 19.68 - 4.3 33.1 00 14 471C 090C Alarm State:  5
Thu Nov 16 04:30:29 PST 2017 ON: 19.99 +20.0 19.64 - 4.1 33.7 00 14 4630 0910 Alarm State:  5
Thu Nov 16 04:29:28 PST 2017 ON: 20.02 +20.0 19.73 - 5.9 32.2 0D 12 461D 0A11 Alarm State:  5
Thu Nov 16 04:28:26 PST 2017 ON: 19.97 +20.0 19.61 - 3.4 34.0 0C 14 4707 0A02 Alarm State:  5
Thu Nov 16 04:27:25 PST 2017 ON: 20.04 +20.0 19.71 - 5.4 32.7 0D 13 470B 0915 Alarm State:  5
Thu Nov 16 04:26:23 PST 2017 ON: 20.01 +20.0 19.60 - 3.1 34.0 07 14 4718 0920 Alarm State:  5
Thu Nov 16 04:25:22 PST 2017 ON: 19.98 +20.0 19.65 - 4.4 33.4 00 14 470E 0919 Alarm State:  5
Thu Nov 16 04:24:20 PST 2017 ON: 20.03 +20.0 19.63 - 3.7 33.4 00 14 4800 0916 Alarm State:  5
Thu Nov 16 04:23:19 PST 2017 ON: 19.96 +20.0 19.62 - 3.9 33.4 00 14 4731 092F Alarm State:  5
Thu Nov 16 04:22:17 PST 2017 ON: 20.01 +20.0 19.68 - 4.3 33.4 0A 14 4817 0924 Alarm State:  5
Thu Nov 16 04:21:06 PST 2017 ON: 20.03 +20.0 19.69 - 4.9 32.7 0D 14 4727 0912 Alarm State:  5
Thu Nov 16 04:20:05 PST 2017 ON: 19.97 +20.0 19.64 - 3.6 33.7 00 14 4728 0925 Alarm State:  5
Thu Nov 16 04:19:03 PST 2017 ON: 20.06 +20.0 19.68 - 4.2 33.2 0A 14 4803 0906 Alarm State:  5
Thu Nov 16 04:18:02 PST 2017 ON: 20.01 +20.0 19.64 - 3.7 34.0 0A 14 4718 090E Alarm State:  5
Thu Nov 16 04:17:00 PST 2017 ON: 20.05 +20.0 19.72 - 5.6 32.6 0D 12 4627 0919 Alarm State:  5
Thu Nov 16 04:15:59 PST 2017 ON: 19.99 +20.0 19.63 - 3.5 33.9 07 14 4705 0918 Alarm State:  5
Thu Nov 16 04:14:57 PST 2017 ON: 20.05 +20.0 19.70 - 5.6 32.1 0D 13 4705 0928 Alarm State:  5
Thu Nov 16 04:13:56 PST 2017 ON: 19.98 +20.0 19.63 - 3.8 33.4 00 14 4712 092E Alarm State:  5
Thu Nov 16 04:12:54 PST 2017 ON: 20.02 +20.0 19.65 - 3.5 33.5 00 14 4809 090E Alarm State:  5
Thu Nov 16 04:11:53 PST 2017 ON: 20.01 +20.0 19.65 - 3.6 33.9 00 14 470A 0920 Alarm State:  5
Thu Nov 16 04:10:51 PST 2017 ON: 19.99 +20.0 19.67 - 4.3 33.5 05 14 4623 092D Alarm State:  5
Thu Nov 16 04:09:50 PST 2017 ON: 20.00 +20.0 19.65 - 3.7 33.4 00 14 4717 0928 Alarm State:  5
Thu Nov 16 04:08:48 PST 2017 ON: 19.97 +20.0 19.62 - 3.8 33.6 0C 14 4719 0A0D Alarm State:  5
Thu Nov 16 04:07:47 PST 2017 ON: 20.02 +20.0 19.64 - 3.1 33.7 00 14 4815 091C Alarm State:  5
Thu Nov 16 04:06:45 PST 2017 ON: 20.00 +20.0 19.64 - 3.8 33.7 0A 14 4801 0913 Alarm State:  5
Thu Nov 16 04:05:44 PST 2017 ON: 20.05 +20.0 19.66 - 3.5 33.5 07 14 4812 0914 Alarm State:  5
Thu Nov 16 04:04:42 PST 2017 ON: 19.98 +20.0 19.65 - 3.6 34.0 00 14 4725 091B Alarm State:  5
Thu Nov 16 04:03:41 PST 2017 ON: 20.02 +20.0 19.74 - 5.6 32.5 0D 11 470C 091F Alarm State:  5
Thu Nov 16 04:02:39 PST 2017 ON: 19.97 +20.0 19.62 - 2.8 34.2 00 14 4730 092A Alarm State:  5
Thu Nov 16 04:01:38 PST 2017 ON: 19.99 +20.0 19.69 - 4.4 33.5 0D 14 4715 0903 Alarm State:  5
Thu Nov 16 04:00:36 PST 2017 ON: 20.00 +20.0 19.67 - 4.7 32.6 00 14 4712 0920 Alarm State:  5
Thu Nov 16 03:59:35 PST 2017 ON: 19.97 +20.0 19.60 - 3.0 34.1 04 14 4732 091F Alarm State:  5
Thu Nov 16 03:58:33 PST 2017 ON: 20.00 +20.0 19.69 - 5.0 33.0 0D 14 4800 0909 Alarm State:  5
Thu Nov 16 03:57:32 PST 2017 ON: 20.01 +20.0 19.60 - 2.5 34.2 07 14 4824 090D Alarm State:  5
Thu Nov 16 03:56:30 PST 2017 ON: 20.03 +20.0 19.68 - 4.3 33.4 0C 14 472C 0915 Alarm State:  5
Thu Nov 16 03:55:29 PST 2017 ON: 20.05 +20.0 19.66 - 4.1 33.3 00 14 4714 0922 Alarm State:  5
Thu Nov 16 03:54:27 PST 2017 ON: 20.02 +20.0 19.65 - 3.6 34.0 00 14 4626 0926 Alarm State:  5
Thu Nov 16 03:53:26 PST 2017 ON: 20.01 +20.0 19.71 - 5.5 32.7 0D 13 4606 0A06 Alarm State:  5
Thu Nov 16 03:52:24 PST 2017 ON: 19.97 +20.0 19.61 - 3.0 34.2 05 14 4702 0917 Alarm State:  5
Thu Nov 16 03:51:23 PST 2017 ON: 20.03 +20.0 19.73 - 5.4 32.6 0D 12 4629 0A02 Alarm State:  5
Thu Nov 16 03:50:21 PST 2017 ON: 19.97 +20.0 19.62 - 3.2 34.2 05 14 4707 0A01 Alarm State:  5
Thu Nov 16 03:49:20 PST 2017 ON: 19.99 +20.0 19.69 - 4.7 33.2 0D 14 470F 0A1A Alarm State:  5
Thu Nov 16 03:48:18 PST 2017 ON: 19.98 +20.0 19.59 - 2.6 34.3 09 14 4819 091F Alarm State:  5
Thu Nov 16 03:47:17 PST 2017 ON: 20.03 +20.0 19.69 - 4.7 33.5 0D 14 4801 0912 Alarm State:  5
Thu Nov 16 03:46:15 PST 2017 ON: 20.06 +20.0 19.69 - 5.0 32.4 0D 14 4725 0912 Alarm State:  5
Thu Nov 16 03:45:14 PST 2017 ON: 19.99 +20.0 19.63 - 3.3 34.0 00 14 472F 0A00 Alarm State:  5
Thu Nov 16 03:44:12 PST 2017 ON: 20.03 +20.0 19.71 - 5.3 32.6 08 13 4732 091A Alarm State:  5
Thu Nov 16 03:43:11 PST 2017 ON: 19.97 +20.0 19.60 - 2.8 34.2 00 14 480D 0926 Alarm State:  5
Thu Nov 16 03:42:10 PST 2017 ON: 19.99 +20.0 19.68 - 4.5 33.3 00 14 471F 092A Alarm State:  5
Thu Nov 16 03:41:08 PST 2017 ON: 19.99 +20.0 19.59 - 2.5 34.0 00 14 480E 091C Alarm State:  5
Thu Nov 16 03:40:07 PST 2017 ON: 19.99 +20.0 19.66 - 3.9 33.8 05 14 472C 0920 Alarm State:  5
Thu Nov 16 03:39:05 PST 2017 ON: 20.03 +20.0 19.68 - 4.7 32.7 02 14 472E 0909 Alarm State:  5
Thu Nov 16 03:38:04 PST 2017 ON: 19.98 +20.0 19.62 - 3.2 34.1 05 14 4802 091C Alarm State:  5
Thu Nov 16 03:37:02 PST 2017 ON: 20.04 +20.0 19.70 - 5.0 33.0 0D 13 471D 0915 Alarm State:  5
Thu Nov 16 03:36:01 PST 2017 ON: 20.01 +20.0 19.64 - 2.9 33.9 05 14 4728 0901 Alarm State:  5
Thu Nov 16 03:34:59 PST 2017 ON: 20.03 +20.0 19.63 - 3.4 33.9 0A 14 4720 0908 Alarm State:  5
Thu Nov 16 03:33:58 PST 2017 ON: 20.00 +20.0 19.66 - 4.2 33.4 07 14 4711 0927 Alarm State:  5
Thu Nov 16 03:32:56 PST 2017 ON: 19.99 +20.0 19.61 - 2.5 34.0 00 14 4810 0905 Alarm State:  5
Thu Nov 16 03:31:55 PST 2017 ON: 19.99 +20.0 19.67 - 4.0 33.4 00 14 4725 090B Alarm State:  5
Thu Nov 16 03:30:53 PST 2017 ON: 20.02 +20.0 19.65 - 3.3 33.7 00 14 480E 0911 Alarm State:  5
Thu Nov 16 03:29:52 PST 2017 ON: 20.00 +20.0 19.64 - 3.1 33.9 00 14 4710 0923 Alarm State:  5
Thu Nov 16 03:28:50 PST 2017 ON: 19.99 +20.0 19.66 - 4.3 33.3 05 14 4621 0A01 Alarm State:  5
Thu Nov 16 03:27:49 PST 2017 ON: 20.01 +20.0 19.62 - 2.9 33.7 00 14 4717 091C Alarm State:  5
Thu Nov 16 03:26:47 PST 2017 ON: 20.00 +20.0 19.64 - 3.9 33.6 05 14 4715 0A0B Alarm State:  5
Thu Nov 16 03:25:46 PST 2017 ON: 20.03 +20.0 19.63 - 3.0 33.8 00 14 4813 091E Alarm State:  5
Thu Nov 16 03:24:44 PST 2017 ON: 19.98 +20.0 19.60 - 2.7 34.2 07 14 480F 0919 Alarm State:  5
Thu Nov 16 03:23:43 PST 2017 ON: 20.00 +20.0 19.67 - 4.3 33.6 07 14 471B 0925 Alarm State:  5
Thu Nov 16 03:22:41 PST 2017 ON: 20.02 +20.0 19.71 - 5.2 32.5 0D 13 470F 0926 Alarm State:  5
Thu Nov 16 03:21:40 PST 2017 ON: 19.97 +20.0 19.59 - 2.9 34.1 04 14 4720 090A Alarm State:  5
Thu Nov 16 03:20:38 PST 2017 ON: 19.98 +20.0 19.68 - 4.4 33.4 02 14 471D 0927 Alarm State:  5
Thu Nov 16 03:19:37 PST 2017 ON: 20.01 +20.0 19.60 - 2.7 33.9 05 14 4814 090D Alarm State:  5
Thu Nov 16 03:18:35 PST 2017 ON: 19.98 +20.0 19.64 - 3.6 33.7 00 14 4807 0926 Alarm State:  5
Thu Nov 16 03:17:34 PST 2017 ON: 20.06 +20.0 19.69 - 4.6 32.8 08 14 4811 0905 Alarm State:  5
Thu Nov 16 03:16:32 PST 2017 ON: 20.02 +20.0 19.63 - 3.0 33.9 02 14 4729 0909 Alarm State:  5
Thu Nov 16 03:15:31 PST 2017 ON: 19.98 +20.0 19.66 - 3.9 33.8 00 14 470D 090E Alarm State:  5
Thu Nov 16 03:14:29 PST 2017 ON: 20.02 +20.0 19.71 - 5.2 32.3 03 13 4714 0927 Alarm State:  5
Thu Nov 16 03:13:28 PST 2017 ON: 19.97 +20.0 19.60 - 3.3 33.8 00 14 4803 091C Alarm State:  5
Thu Nov 16 03:12:26 PST 2017 ON: 20.03 +20.0 19.70 - 4.5 33.1 05 13 4812 0919 Alarm State:  5
Thu Nov 16 03:11:25 PST 2017 ON: 20.01 +20.0 19.67 - 3.7 33.7 0C 14 4808 090A Alarm State:  5
Thu Nov 16 03:10:23 PST 2017 ON: 20.03 +20.0 19.71 - 5.1 32.7 05 13 4805 0925 Alarm State:  5
Thu Nov 16 03:09:22 PST 2017 ON: 20.02 +20.0 19.64 - 3.2 34.2 02 14 4724 0928 Alarm State:  5
Thu Nov 16 03:08:20 PST 2017 ON: 20.04 +20.0 19.71 - 5.6 32.6 0D 13 4705 0903 Alarm State:  5
Thu Nov 16 03:07:19 PST 2017 ON: 19.99 +20.0 19.59 - 2.6 34.2 01 14 4717 0903 Alarm State:  5
Thu Nov 16 03:06:17 PST 2017 ON: 20.00 +20.0 19.66 - 4.2 33.6 05 14 4702 092C Alarm State:  5
Thu Nov 16 03:05:16 PST 2017 ON: 20.02 +20.0 19.69 - 4.5 32.9 0A 14 471A 090D Alarm State:  5
Thu Nov 16 03:04:14 PST 2017 ON: 19.98 +20.0 19.61 - 2.9 34.1 00 14 4721 0920 Alarm State:  5
Thu Nov 16 03:03:13 PST 2017 ON: 20.00 +20.0 19.66 - 4.0 33.5 00 14 470D 0923 Alarm State:  5
Thu Nov 16 03:02:11 PST 2017 ON: 20.02 +20.0 19.65 - 3.8 33.4 05 14 471A 0909 Alarm State:  5
Thu Nov 16 03:01:10 PST 2017 ON: 20.00 +20.0 19.66 - 4.0 33.4 0A 14 4716 0921 Alarm State:  5
Thu Nov 16 03:00:08 PST 2017 ON: 20.03 +20.0 19.69 - 4.5 33.2 0A 14 472F 0916 Alarm State:  5
Thu Nov 16 02:59:07 PST 2017 ON: 20.03 +20.0 19.64 - 2.9 33.9 00 14 4723 0913 Alarm State:  5
Thu Nov 16 02:58:06 PST 2017 ON: 20.01 +20.0 19.66 - 4.3 33.4 07 14 4700 0919 Alarm State:  5